Home > Products > Valid Products > OSO

000
SXUS55 KMSO 041723
OSOMSO
MONTANA AWOS SUMMARY
NATIONAL WEATHER SERVICE MISSOULA MT
1123 AM MDT WED MAY 4 2016

Montana AWOS Reports

TWIN BRIDGES|K7S1 041715Z AUTO 00000KT 40SM 19/M01 A3008 RMK AO1 T01891005
ROUNDUP     |KRPX 041715Z AUTO 20006KT 5SM HZ 23/04 A2993 RMK AO1 T02330039






000
SXUS55 KMSO 041713
OSOMSO
MONTANA AWOS SUMMARY
NATIONAL WEATHER SERVICE MISSOULA MT
1113 AM MDT WED MAY 4 2016

Montana AWOS Reports

LAUREL      |K6S8 041655Z AUTO 18011G16KT 40SM 24/03 A3003 RMK AO1 T02390028






000
SXUS55 KMSO 041703
OSOMSO
MONTANA AWOS SUMMARY
NATIONAL WEATHER SERVICE MISSOULA MT
1103 AM MDT WED MAY 4 2016

Montana AWOS Reports

ROUNDUP     |KRPX 041655Z AUTO 19013KT 10SM 22/05 A2994 RMK AO1 T02220050
SCOBEY      |K9S2 041655Z AUTO 17009G14KT 40SM 26/05 A2997 RMK AO1 T02560050
EKALAKA     |K97M 041655Z AUTO VRB05KT 40SM 23/04 A3008 RMK AO1 T02280039
PLAINS      |KS34 041655Z AUTO 00000KT 25SM 17/08 A3001 RMK AO1 T01720083
TWIN BRIDGES|K7S1 041655Z AUTO 15004KT 40SM 18/M01 A3009 RMK AO1 T01831010






000
SXUS55 KMSO 041643
OSOMSO
MONTANA AWOS SUMMARY
NATIONAL WEATHER SERVICE MISSOULA MT
1043 AM MDT WED MAY 4 2016

Montana AWOS Reports

ROUNDUP     |KRPX 041635Z AUTO 18008KT 15SM 21/06 A2994 RMK AO1 T02060056






000
SXUS55 KMSO 041643
OSOMSO
MONTANA AWOS SUMMARY
NATIONAL WEATHER SERVICE MISSOULA MT
1043 AM MDT WED MAY 4 2016

Montana AWOS Reports

ROUNDUP     |KRPX 041635Z AUTO 18008KT 15SM 21/06 A2994 RMK AO1 T02060056






000
SXUS55 KMSO 041633
OSOMSO
MONTANA AWOS SUMMARY
NATIONAL WEATHER SERVICE MISSOULA MT
1032 AM MDT WED MAY 4 2016

Montana AWOS Reports

ROUNDUP     |KRPX 041615Z AUTO 18011G16KT 40SM 19/05 A2994 RMK AO1 T01890050






000
SXUS55 KMSO 041623
OSOMSO
MONTANA AWOS SUMMARY
NATIONAL WEATHER SERVICE MISSOULA MT
1022 AM MDT WED MAY 4 2016

Montana AWOS Reports

LAUREL      |K6S8 041615Z AUTO 19008KT 40SM 22/04 A3004 RMK AO1 T02170044






000
SXUS55 KMSO 041613
OSOMSO
MONTANA AWOS SUMMARY
NATIONAL WEATHER SERVICE MISSOULA MT
1013 AM MDT WED MAY 4 2016

Montana AWOS Reports

LAUREL      |K6S8 041555Z AUTO 21010G14KT 40SM 21/04 A3004 RMK AO1 T02060039






000
SXUS55 KMSO 041613
OSOMSO
MONTANA AWOS SUMMARY
NATIONAL WEATHER SERVICE MISSOULA MT
1013 AM MDT WED MAY 4 2016

Montana AWOS Reports

LAUREL      |K6S8 041555Z AUTO 21010G14KT 40SM 21/04 A3004 RMK AO1 T02060039






000
SXUS55 KMSO 041604
OSOMSO
MONTANA AWOS SUMMARY
NATIONAL WEATHER SERVICE MISSOULA MT
1003 AM MDT WED MAY 4 2016

Montana AWOS Reports

LAUREL      |K6S8 041555Z AUTO 21010G14KT 40SM 21/04 A3004 RMK AO1 T02060039
EKALAKA     |K97M 041555Z AUTO 13009G15KT 40SM 21/02 A3008 RMK AO1 T02110022
ROUNDUP     |KRPX 041555Z AUTO 19009G15KT 40SM 18/06 A2995 RMK AO1 T01780056
SCOBEY      |K9S2 041555Z AUTO 00000KT 40SM 22/04 A2999 RMK AO1 T02170044
PLAINS      |KS34 041555Z AUTO 00000KT 25SM 14/08 A3002 RMK AO1 T01440083
TWIN BRIDGES|K7S1 041555Z AUTO 11005KT 40SM 16/M01 A3011 RMK AO1 T01561005






000
SXUS55 KMSO 041604
OSOMSO
MONTANA AWOS SUMMARY
NATIONAL WEATHER SERVICE MISSOULA MT
1003 AM MDT WED MAY 4 2016

Montana AWOS Reports

LAUREL      |K6S8 041555Z AUTO 21010G14KT 40SM 21/04 A3004 RMK AO1 T02060039
EKALAKA     |K97M 041555Z AUTO 13009G15KT 40SM 21/02 A3008 RMK AO1 T02110022
ROUNDUP     |KRPX 041555Z AUTO 19009G15KT 40SM 18/06 A2995 RMK AO1 T01780056
SCOBEY      |K9S2 041555Z AUTO 00000KT 40SM 22/04 A2999 RMK AO1 T02170044
PLAINS      |KS34 041555Z AUTO 00000KT 25SM 14/08 A3002 RMK AO1 T01440083
TWIN BRIDGES|K7S1 041555Z AUTO 11005KT 40SM 16/M01 A3011 RMK AO1 T01561005






000
SXUS55 KMSO 041543
OSOMSO
MONTANA AWOS SUMMARY
NATIONAL WEATHER SERVICE MISSOULA MT
943 AM MDT WED MAY 4 2016

Montana AWOS Reports

TWIN BRIDGES|K7S1 041535Z AUTO 14006KT 40SM 14/M01 A3011 RMK AO1 T01441010
ROUNDUP     |KRPX 041535Z AUTO 20008KT 40SM 17/05 A2996 RMK AO1 T01670050






000
SXUS55 KMSO 041523
OSOMSO
MONTANA AWOS SUMMARY
NATIONAL WEATHER SERVICE MISSOULA MT
923 AM MDT WED MAY 4 2016

Montana AWOS Reports

LAUREL      |K6S8 041515Z AUTO 19005KT 40SM 18/06 A3005 RMK AO1 T01830061
TWIN BRIDGES|K7S1 041515Z AUTO 16005KT 40SM 13/M02 A3011 RMK AO1 T01331016
ROUNDUP     |KRPX 041515Z AUTO 17005KT 40SM 15/05 A2996 RMK AO1 T01500050






000
SXUS55 KMSO 041523
OSOMSO
MONTANA AWOS SUMMARY
NATIONAL WEATHER SERVICE MISSOULA MT
923 AM MDT WED MAY 4 2016

Montana AWOS Reports

LAUREL      |K6S8 041515Z AUTO 19005KT 40SM 18/06 A3005 RMK AO1 T01830061
TWIN BRIDGES|K7S1 041515Z AUTO 16005KT 40SM 13/M02 A3011 RMK AO1 T01331016
ROUNDUP     |KRPX 041515Z AUTO 17005KT 40SM 15/05 A2996 RMK AO1 T01500050






000
SXUS55 KMSO 041513
OSOMSO
MONTANA AWOS SUMMARY
NATIONAL WEATHER SERVICE MISSOULA MT
912 AM MDT WED MAY 4 2016

Montana AWOS Reports

LAUREL      |K6S8 041455Z AUTO 19008KT 40SM 17/06 A3005 RMK AO1 T01670061
TWIN BRIDGES|K7S1 041455Z AUTO 13006KT 40SM 12/M02 A3012 RMK AO1 T01221016






000
SXUS55 KMSO 041503
OSOMSO
MONTANA AWOS SUMMARY
NATIONAL WEATHER SERVICE MISSOULA MT
903 AM MDT WED MAY 4 2016

Montana AWOS Reports

ROUNDUP     |KRPX 041455Z AUTO 20006KT 15SM 14/04 A2996 RMK AO1 T01390039
SCOBEY      |K9S2 041455Z AUTO 00000KT 40SM 18/03 A3000 RMK AO1 T01830033
EKALAKA     |K97M 041455Z AUTO 13010G16KT 40SM 20/02 A3009 RMK AO1 T02000022
PLAINS      |KS34 041455Z AUTO 00000KT 25SM 12/08 A3003 RMK AO1 T01170083






000
SXUS55 KMSO 041503
OSOMSO
MONTANA AWOS SUMMARY
NATIONAL WEATHER SERVICE MISSOULA MT
903 AM MDT WED MAY 4 2016

Montana AWOS Reports

ROUNDUP     |KRPX 041455Z AUTO 20006KT 15SM 14/04 A2996 RMK AO1 T01390039
SCOBEY      |K9S2 041455Z AUTO 00000KT 40SM 18/03 A3000 RMK AO1 T01830033
EKALAKA     |K97M 041455Z AUTO 13010G16KT 40SM 20/02 A3009 RMK AO1 T02000022
PLAINS      |KS34 041455Z AUTO 00000KT 25SM 12/08 A3003 RMK AO1 T01170083






000
SXUS55 KMSO 041443
OSOMSO
MONTANA AWOS SUMMARY
NATIONAL WEATHER SERVICE MISSOULA MT
843 AM MDT WED MAY 4 2016

Montana AWOS Reports

ROUNDUP     |KRPX 041435Z AUTO 18011G16KT 15SM 12/04 A2997 RMK AO1 T01220039
TWIN BRIDGES|K7S1 041435Z AUTO 12006KT 40SM 11/M02 A3012 RMK AO1 T01111016






000
SXUS55 KMSO 041443
OSOMSO
MONTANA AWOS SUMMARY
NATIONAL WEATHER SERVICE MISSOULA MT
843 AM MDT WED MAY 4 2016

Montana AWOS Reports

ROUNDUP     |KRPX 041435Z AUTO 18011G16KT 15SM 12/04 A2997 RMK AO1 T01220039
TWIN BRIDGES|K7S1 041435Z AUTO 12006KT 40SM 11/M02 A3012 RMK AO1 T01111016






000
SXUS55 KMSO 041423
OSOMSO
MONTANA AWOS SUMMARY
NATIONAL WEATHER SERVICE MISSOULA MT
823 AM MDT WED MAY 4 2016

Montana AWOS Reports

LAUREL      |K6S8 041415Z AUTO 20004KT 40SM 13/05 A3006 RMK AO1 T01330050
TWIN BRIDGES|K7S1 041415Z AUTO 11005KT 40SM 11/M02 A3012 RMK AO1 T01061016
ROUNDUP     |KRPX 041415Z AUTO 19013G18KT 10SM 11/03 A2997 RMK AO1 T01110033






000
SXUS55 KMSO 041413
OSOMSO
MONTANA AWOS SUMMARY
NATIONAL WEATHER SERVICE MISSOULA MT
813 AM MDT WED MAY 4 2016

Montana AWOS Reports

ROUNDUP     |KRPX 041355Z AUTO 19011G16KT 15SM 09/03 A2997 RMK AO1 T00940028
EKALAKA     |K97M 041355Z AUTO 10010KT 40SM 17/03 A3010 RMK AO1 T01720028
PLAINS      |KS34 041355Z AUTO 00000KT 25SM 07/05 A3003 RMK AO1 T00720050
TWIN BRIDGES|K7S1 041355Z AUTO 11006KT 40SM 10/M02 A3013 RMK AO1 T01001016
SCOBEY      |K9S2 041355Z AUTO 00000KT 40SM 13/02 A3002 RMK AO1 T01330022
LAUREL      |K6S8 041355Z AUTO 21009G13KT 40SM 13/04 A3006 RMK AO1 T01280039






000
SXUS55 KMSO 041413
OSOMSO
MONTANA AWOS SUMMARY
NATIONAL WEATHER SERVICE MISSOULA MT
813 AM MDT WED MAY 4 2016

Montana AWOS Reports

ROUNDUP     |KRPX 041355Z AUTO 19011G16KT 15SM 09/03 A2997 RMK AO1 T00940028
EKALAKA     |K97M 041355Z AUTO 10010KT 40SM 17/03 A3010 RMK AO1 T01720028
PLAINS      |KS34 041355Z AUTO 00000KT 25SM 07/05 A3003 RMK AO1 T00720050
TWIN BRIDGES|K7S1 041355Z AUTO 11006KT 40SM 10/M02 A3013 RMK AO1 T01001016
SCOBEY      |K9S2 041355Z AUTO 00000KT 40SM 13/02 A3002 RMK AO1 T01330022
LAUREL      |K6S8 041355Z AUTO 21009G13KT 40SM 13/04 A3006 RMK AO1 T01280039






000
SXUS55 KMSO 041403
OSOMSO
MONTANA AWOS SUMMARY
NATIONAL WEATHER SERVICE MISSOULA MT
803 AM MDT WED MAY 4 2016

Montana AWOS Reports

LAUREL      |K6S8 041355Z AUTO 21009G13KT 40SM 13/04 A3006 RMK AO1 T01280039






000
SXUS55 KMSO 041344
OSOMSO
MONTANA AWOS SUMMARY
NATIONAL WEATHER SERVICE MISSOULA MT
743 AM MDT WED MAY 4 2016

Montana AWOS Reports

TWIN BRIDGES|K7S1 041335Z AUTO 12005KT 40SM 08/M02 A3012 RMK AO1 T00831021
ROUNDUP     |KRPX 041335Z AUTO 19010G15KT 2SM HZ 08/03 A2997 RMK AO1 T00830028






000
SXUS55 KMSO 041344
OSOMSO
MONTANA AWOS SUMMARY
NATIONAL WEATHER SERVICE MISSOULA MT
743 AM MDT WED MAY 4 2016

Montana AWOS Reports

TWIN BRIDGES|K7S1 041335Z AUTO 12005KT 40SM 08/M02 A3012 RMK AO1 T00831021
ROUNDUP     |KRPX 041335Z AUTO 19010G15KT 2SM HZ 08/03 A2997 RMK AO1 T00830028






000
SXUS55 KMSO 041333
OSOMSO
MONTANA AWOS SUMMARY
NATIONAL WEATHER SERVICE MISSOULA MT
733 AM MDT WED MAY 4 2016

Montana AWOS Reports

TWIN BRIDGES|K7S1 041315Z AUTO 12005KT 40SM 07/M03 A3012 RMK AO1 T00671027






000
SXUS55 KMSO 041333
OSOMSO
MONTANA AWOS SUMMARY
NATIONAL WEATHER SERVICE MISSOULA MT
733 AM MDT WED MAY 4 2016

Montana AWOS Reports

TWIN BRIDGES|K7S1 041315Z AUTO 12005KT 40SM 07/M03 A3012 RMK AO1 T00671027






000
SXUS55 KMSO 041323
OSOMSO
MONTANA AWOS SUMMARY
NATIONAL WEATHER SERVICE MISSOULA MT
723 AM MDT WED MAY 4 2016

Montana AWOS Reports

LAUREL      |K6S8 041315Z AUTO 21006KT 40SM 10/04 A3006 RMK AO1 T01000039
ROUNDUP     |KRPX 041315Z AUTO 20012KT 1 1/2SM HZ 07/02 A2998 RMK AO1 T00720022






000
SXUS55 KMSO 041303
OSOMSO
MONTANA AWOS SUMMARY
NATIONAL WEATHER SERVICE MISSOULA MT
703 AM MDT WED MAY 4 2016

Montana AWOS Reports

ROUNDUP     |KRPX 041255Z AUTO 20008KT 3SM HZ 07/02 A2997 RMK AO1 T00670017
SCOBEY      |K9S2 041255Z AUTO 00000KT 25SM 08/01 A3002 RMK AO1 T00830006
PLAINS      |KS34 041255Z AUTO 00000KT 25SM 05/02 A3003 RMK AO1 T00500022
TWIN BRIDGES|K7S1 041255Z AUTO 11005KT 40SM 05/M03 A3012 RMK AO1 T00501032
EKALAKA     |K97M 041255Z AUTO 12006KT 40SM 13/03 A3010 RMK AO1 T01330033
LAUREL      |K6S8 041255Z AUTO 20004KT 40SM 08/03 A3006 RMK AO1 T00830033






000
SXUS55 KMSO 041303
OSOMSO
MONTANA AWOS SUMMARY
NATIONAL WEATHER SERVICE MISSOULA MT
703 AM MDT WED MAY 4 2016

Montana AWOS Reports

ROUNDUP     |KRPX 041255Z AUTO 20008KT 3SM HZ 07/02 A2997 RMK AO1 T00670017
SCOBEY      |K9S2 041255Z AUTO 00000KT 25SM 08/01 A3002 RMK AO1 T00830006
PLAINS      |KS34 041255Z AUTO 00000KT 25SM 05/02 A3003 RMK AO1 T00500022
TWIN BRIDGES|K7S1 041255Z AUTO 11005KT 40SM 05/M03 A3012 RMK AO1 T00501032
EKALAKA     |K97M 041255Z AUTO 12006KT 40SM 13/03 A3010 RMK AO1 T01330033
LAUREL      |K6S8 041255Z AUTO 20004KT 40SM 08/03 A3006 RMK AO1 T00830033






000
SXUS55 KMSO 041243
OSOMSO
MONTANA AWOS SUMMARY
NATIONAL WEATHER SERVICE MISSOULA MT
643 AM MDT WED MAY 4 2016

Montana AWOS Reports

LAUREL      |K6S8 041235Z AUTO 00000KT 40SM 07/03 A3006 RMK AO1 T00720028
ROUNDUP     |KRPX 041235Z AUTO 20008KT 3SM HZ 07/02 A2997 RMK AO1 T00670017






000
SXUS55 KMSO 041243
OSOMSO
MONTANA AWOS SUMMARY
NATIONAL WEATHER SERVICE MISSOULA MT
643 AM MDT WED MAY 4 2016

Montana AWOS Reports

LAUREL      |K6S8 041235Z AUTO 00000KT 40SM 07/03 A3006 RMK AO1 T00720028
ROUNDUP     |KRPX 041235Z AUTO 20008KT 3SM HZ 07/02 A2997 RMK AO1 T00670017






000
SXUS55 KMSO 041224
OSOMSO
MONTANA AWOS SUMMARY
NATIONAL WEATHER SERVICE MISSOULA MT
623 AM MDT WED MAY 4 2016

Montana AWOS Reports

LAUREL      |K6S8 041215Z AUTO 00000KT 40SM 07/02 A3006 RMK AO1 T00720017
TWIN BRIDGES|K7S1 041215Z AUTO 11004KT 40SM 03/M04 A3011 RMK AO1 T00281038
ROUNDUP     |KRPX 041215Z AUTO 20006KT 5SM HZ 07/02 A2997 RMK AO1 T00720017






000
SXUS55 KMSO 041224
OSOMSO
MONTANA AWOS SUMMARY
NATIONAL WEATHER SERVICE MISSOULA MT
623 AM MDT WED MAY 4 2016

Montana AWOS Reports

LAUREL      |K6S8 041215Z AUTO 00000KT 40SM 07/02 A3006 RMK AO1 T00720017
TWIN BRIDGES|K7S1 041215Z AUTO 11004KT 40SM 03/M04 A3011 RMK AO1 T00281038
ROUNDUP     |KRPX 041215Z AUTO 20006KT 5SM HZ 07/02 A2997 RMK AO1 T00720017






000
SXUS55 KMSO 041213
OSOMSO
MONTANA AWOS SUMMARY
NATIONAL WEATHER SERVICE MISSOULA MT
613 AM MDT WED MAY 4 2016

Montana AWOS Reports

PLAINS      |KS34 041155Z AUTO 00000KT 25SM 06/03 A3002 RMK AO1 T00560028






000
SXUS55 KMSO 041213
OSOMSO
MONTANA AWOS SUMMARY
NATIONAL WEATHER SERVICE MISSOULA MT
613 AM MDT WED MAY 4 2016

Montana AWOS Reports

PLAINS      |KS34 041155Z AUTO 00000KT 25SM 06/03 A3002 RMK AO1 T00560028






000
SXUS55 KMSO 041204
OSOMSO
MONTANA AWOS SUMMARY
NATIONAL WEATHER SERVICE MISSOULA MT
603 AM MDT WED MAY 4 2016

Montana AWOS Reports

LAUREL      |K6S8 041155Z AUTO 00000KT 40SM 08/02 A3005 RMK AO1 T00780017






000
SXUS55 KMSO 041204
OSOMSO
MONTANA AWOS SUMMARY
NATIONAL WEATHER SERVICE MISSOULA MT
603 AM MDT WED MAY 4 2016

Montana AWOS Reports

LAUREL      |K6S8 041155Z AUTO 00000KT 40SM 08/02 A3005 RMK AO1 T00780017






000
SXUS55 KMSO 041143
OSOMSO
MONTANA AWOS SUMMARY
NATIONAL WEATHER SERVICE MISSOULA MT
543 AM MDT WED MAY 4 2016

Montana AWOS Reports

TWIN BRIDGES|K7S1 041135Z AUTO 13006KT 40SM 03/M04 A3011 RMK AO1 T00281038
ROUNDUP     |KRPX 041135Z AUTO 21007KT 40SM 07/02 A2997 RMK AO1 T00720017






000
SXUS55 KMSO 041143
OSOMSO
MONTANA AWOS SUMMARY
NATIONAL WEATHER SERVICE MISSOULA MT
543 AM MDT WED MAY 4 2016

Montana AWOS Reports

TWIN BRIDGES|K7S1 041135Z AUTO 13006KT 40SM 03/M04 A3011 RMK AO1 T00281038
ROUNDUP     |KRPX 041135Z AUTO 21007KT 40SM 07/02 A2997 RMK AO1 T00720017






000
SXUS55 KMSO 041133
OSOMSO
MONTANA AWOS SUMMARY
NATIONAL WEATHER SERVICE MISSOULA MT
533 AM MDT WED MAY 4 2016

Montana AWOS Reports

TWIN BRIDGES|K7S1 041115Z AUTO 12006KT 40SM 03/M04 A3011 RMK AO1 T00331038






000
SXUS55 KMSO 041133
OSOMSO
MONTANA AWOS SUMMARY
NATIONAL WEATHER SERVICE MISSOULA MT
533 AM MDT WED MAY 4 2016

Montana AWOS Reports

TWIN BRIDGES|K7S1 041115Z AUTO 12006KT 40SM 03/M04 A3011 RMK AO1 T00331038






000
SXUS55 KMSO 041123
OSOMSO
MONTANA AWOS SUMMARY
NATIONAL WEATHER SERVICE MISSOULA MT
523 AM MDT WED MAY 4 2016

Montana AWOS Reports

LAUREL      |K6S8 041115Z AUTO 00000KT 40SM 08/01 A3005 RMK AO1 T00780011
ROUNDUP     |KRPX 041115Z AUTO 21008KT 40SM 08/02 A2998 RMK AO1 T00780022






000
SXUS55 KMSO 041123
OSOMSO
MONTANA AWOS SUMMARY
NATIONAL WEATHER SERVICE MISSOULA MT
523 AM MDT WED MAY 4 2016

Montana AWOS Reports

LAUREL      |K6S8 041115Z AUTO 00000KT 40SM 08/01 A3005 RMK AO1 T00780011
ROUNDUP     |KRPX 041115Z AUTO 21008KT 40SM 08/02 A2998 RMK AO1 T00780022






000
SXUS55 KMSO 041113
OSOMSO
MONTANA AWOS SUMMARY
NATIONAL WEATHER SERVICE MISSOULA MT
513 AM MDT WED MAY 4 2016

Montana AWOS Reports

LAUREL      |K6S8 041055Z AUTO 00000KT 40SM 08/01 A3005 RMK AO1 T00780011
PLAINS      |KS34 041055Z AUTO 00000KT 5SM HZ 06/03 A3001 RMK AO1 T00610033
EKALAKA     |K97M 041055Z AUTO 13007KT 40SM 11/01 A3009 RMK AO1 T01110011






000
SXUS55 KMSO 041103
OSOMSO
MONTANA AWOS SUMMARY
NATIONAL WEATHER SERVICE MISSOULA MT
503 AM MDT WED MAY 4 2016

Montana AWOS Reports

LAUREL      |K6S8 041055Z AUTO 00000KT 40SM 08/01 A3005 RMK AO1 T00780011
SCOBEY      |K9S2 041055Z AUTO 00000KT 25SM 08/01 A3003 RMK AO1 T00830006
TWIN BRIDGES|K7S1 041055Z AUTO 15005KT 40SM 03/M04 A3011 RMK AO1 T00331038
ROUNDUP     |KRPX 041055Z AUTO 21007KT 40SM 07/02 A2998 RMK AO1 T00720017






000
SXUS55 KMSO 041053
OSOMSO
MONTANA AWOS SUMMARY
NATIONAL WEATHER SERVICE MISSOULA MT
453 AM MDT WED MAY 4 2016

Montana AWOS Reports

TWIN BRIDGES|K7S1 041035Z AUTO 16005KT 40SM 04/M04 A3011 RMK AO1 T00391038
ROUNDUP     |KRPX 041035Z AUTO 21005KT 40SM 07/02 A2998 RMK AO1 T00720022






000
SXUS55 KMSO 041053
OSOMSO
MONTANA AWOS SUMMARY
NATIONAL WEATHER SERVICE MISSOULA MT
453 AM MDT WED MAY 4 2016

Montana AWOS Reports

TWIN BRIDGES|K7S1 041035Z AUTO 16005KT 40SM 04/M04 A3011 RMK AO1 T00391038
ROUNDUP     |KRPX 041035Z AUTO 21005KT 40SM 07/02 A2998 RMK AO1 T00720022






000
SXUS55 KMSO 041043
OSOMSO
MONTANA AWOS SUMMARY
NATIONAL WEATHER SERVICE MISSOULA MT
443 AM MDT WED MAY 4 2016

Montana AWOS Reports

LAUREL      |K6S8 041035Z AUTO 00000KT 40SM 08/02 A3006 RMK AO1 T00830017






000
SXUS55 KMSO 041043
OSOMSO
MONTANA AWOS SUMMARY
NATIONAL WEATHER SERVICE MISSOULA MT
443 AM MDT WED MAY 4 2016

Montana AWOS Reports

LAUREL      |K6S8 041035Z AUTO 00000KT 40SM 08/02 A3006 RMK AO1 T00830017






000
SXUS55 KMSO 041024
OSOMSO
MONTANA AWOS SUMMARY
NATIONAL WEATHER SERVICE MISSOULA MT
423 AM MDT WED MAY 4 2016

Montana AWOS Reports

ROUNDUP     |KRPX 041015Z AUTO 21004KT 40SM 07/02 A2999 RMK AO1 T00720022
TWIN BRIDGES|K7S1 041015Z AUTO 17004KT 40SM 04/M04 A3011 RMK AO1 T00441038






000
SXUS55 KMSO 041013
OSOMSO
MONTANA AWOS SUMMARY
NATIONAL WEATHER SERVICE MISSOULA MT
413 AM MDT WED MAY 4 2016

Montana AWOS Reports

EKALAKA     |K97M 040955Z AUTO 13007KT 40SM 12/01 A3010 RMK AO1 T01170011






000
SXUS55 KMSO 041003
OSOMSO
MONTANA AWOS SUMMARY
NATIONAL WEATHER SERVICE MISSOULA MT
403 AM MDT WED MAY 4 2016

Montana AWOS Reports

LAUREL      |K6S8 040955Z AUTO 00000KT 40SM 08/02 A3006 RMK AO1 T00830017






000
SXUS55 KMSO 040943
OSOMSO
MONTANA AWOS SUMMARY
NATIONAL WEATHER SERVICE MISSOULA MT
343 AM MDT WED MAY 4 2016

Montana AWOS Reports

LAUREL      |K6S8 040935Z AUTO 00000KT 40SM 10/03 A3006 RMK AO1 T01000028
ROUNDUP     |KRPX 040935Z AUTO 25004KT 40SM 09/02 A2999 RMK AO1 T00940022
TWIN BRIDGES|K7S1 040935Z AUTO 14006KT 40SM 06/M03 A3011 RMK AO1 T00611032






000
SXUS55 KMSO 040923
OSOMSO
MONTANA AWOS SUMMARY
NATIONAL WEATHER SERVICE MISSOULA MT
323 AM MDT WED MAY 4 2016

Montana AWOS Reports

LAUREL      |K6S8 040915Z AUTO 00000KT 40SM 10/03 A3006 RMK AO1 T01000028
TWIN BRIDGES|K7S1 040915Z AUTO 17006KT 40SM 08/M04 A3012 RMK AO1 T00831038
ROUNDUP     |KRPX 040915Z AUTO 25005KT 40SM 09/02 A2999 RMK AO1 T00940022






000
SXUS55 KMSO 040923
OSOMSO
MONTANA AWOS SUMMARY
NATIONAL WEATHER SERVICE MISSOULA MT
323 AM MDT WED MAY 4 2016

Montana AWOS Reports

LAUREL      |K6S8 040915Z AUTO 00000KT 40SM 10/03 A3006 RMK AO1 T01000028
TWIN BRIDGES|K7S1 040915Z AUTO 17006KT 40SM 08/M04 A3012 RMK AO1 T00831038
ROUNDUP     |KRPX 040915Z AUTO 25005KT 40SM 09/02 A2999 RMK AO1 T00940022






000
SXUS55 KMSO 040914
OSOMSO
MONTANA AWOS SUMMARY
NATIONAL WEATHER SERVICE MISSOULA MT
313 AM MDT WED MAY 4 2016

Montana AWOS Reports

EKALAKA     |K97M 040855Z AUTO 13008KT 40SM 12/01 A3010 RMK AO1 T01220006






000
SXUS55 KMSO 040903
OSOMSO
MONTANA AWOS SUMMARY
NATIONAL WEATHER SERVICE MISSOULA MT
303 AM MDT WED MAY 4 2016

Montana AWOS Reports

ROUNDUP     |KRPX 040855Z AUTO 26005KT 40SM 09/02 A2999 RMK AO1 T00940022
SCOBEY      |K9S2 040855Z AUTO 00000KT 40SM 09/01 A3004 RMK AO1 T00940011
PLAINS      |KS34 040855Z AUTO 00000KT 25SM 08/04 A3001 RMK AO1 T00780044
TWIN BRIDGES|K7S1 040855Z AUTO 11007KT 40SM 08/M03 A3012 RMK AO1 T00781032
LAUREL      |K6S8 040855Z AUTO 00000KT 40SM 10/02 A3007 RMK AO1 T01000022






000
SXUS55 KMSO 040903
OSOMSO
MONTANA AWOS SUMMARY
NATIONAL WEATHER SERVICE MISSOULA MT
303 AM MDT WED MAY 4 2016

Montana AWOS Reports

ROUNDUP     |KRPX 040855Z AUTO 26005KT 40SM 09/02 A2999 RMK AO1 T00940022
SCOBEY      |K9S2 040855Z AUTO 00000KT 40SM 09/01 A3004 RMK AO1 T00940011
PLAINS      |KS34 040855Z AUTO 00000KT 25SM 08/04 A3001 RMK AO1 T00780044
TWIN BRIDGES|K7S1 040855Z AUTO 11007KT 40SM 08/M03 A3012 RMK AO1 T00781032
LAUREL      |K6S8 040855Z AUTO 00000KT 40SM 10/02 A3007 RMK AO1 T01000022






000
SXUS55 KMSO 040843
OSOMSO
MONTANA AWOS SUMMARY
NATIONAL WEATHER SERVICE MISSOULA MT
243 AM MDT WED MAY 4 2016

Montana AWOS Reports

ROUNDUP     |KRPX 040835Z AUTO 26006KT 40SM 10/03 A2999 RMK AO1 T01000028
TWIN BRIDGES|K7S1 040835Z AUTO 11006KT 40SM 09/M04 A3012 RMK AO1 T00891038






000
SXUS55 KMSO 040823
OSOMSO
MONTANA AWOS SUMMARY
NATIONAL WEATHER SERVICE MISSOULA MT
223 AM MDT WED MAY 4 2016

Montana AWOS Reports

LAUREL      |K6S8 040815Z AUTO 00000KT 40SM 11/02 A3007 RMK AO1 T01110017
ROUNDUP     |KRPX 040815Z AUTO 26004KT 40SM 10/03 A3000 RMK AO1 T01000028
TWIN BRIDGES|K7S1 040815Z AUTO 10007KT 40SM 08/M04 A3012 RMK AO1 T00831043






000
SXUS55 KMSO 040813
OSOMSO
MONTANA AWOS SUMMARY
NATIONAL WEATHER SERVICE MISSOULA MT
213 AM MDT WED MAY 4 2016

Montana AWOS Reports

EKALAKA     |K97M 040755Z AUTO 13006KT 40SM 14/01 A3010 RMK AO1 T01390011
LAUREL      |K6S8 040755Z AUTO 00000KT 40SM 12/03 A3007 RMK AO1 T01220033






000
SXUS55 KMSO 040803
OSOMSO
MONTANA AWOS SUMMARY
NATIONAL WEATHER SERVICE MISSOULA MT
203 AM MDT WED MAY 4 2016

Montana AWOS Reports

LAUREL      |K6S8 040755Z AUTO 00000KT 40SM 12/03 A3007 RMK AO1 T01220033
TWIN BRIDGES|K7S1 040755Z AUTO 11005KT 40SM 09/M04 A3012 RMK AO1 T00891038
ROUNDUP     |KRPX 040755Z AUTO 26004KT 40SM 10/03 A3000 RMK AO1 T01000028
PLAINS      |KS34 040755Z AUTO 00000KT 25SM 08/03 A3001 RMK AO1 T00780033
SCOBEY      |K9S2 040755Z AUTO 00000KT 40SM 12/02 A3004 RMK AO1 T01220017






000
SXUS55 KMSO 040753
OSOMSO
MONTANA AWOS SUMMARY
NATIONAL WEATHER SERVICE MISSOULA MT
152 AM MDT WED MAY 4 2016

Montana AWOS Reports

ROUNDUP     |KRPX 040735Z AUTO 26005KT 40SM 11/03 A3000 RMK AO1 T01060033






000
SXUS55 KMSO 040753
OSOMSO
MONTANA AWOS SUMMARY
NATIONAL WEATHER SERVICE MISSOULA MT
152 AM MDT WED MAY 4 2016

Montana AWOS Reports

ROUNDUP     |KRPX 040735Z AUTO 26005KT 40SM 11/03 A3000 RMK AO1 T01060033






000
SXUS55 KMSO 040743
OSOMSO
MONTANA AWOS SUMMARY
NATIONAL WEATHER SERVICE MISSOULA MT
143 AM MDT WED MAY 4 2016

Montana AWOS Reports

LAUREL      |K6S8 040735Z AUTO 00000KT 40SM 12/02 A3007 RMK AO1 T01220022






000
SXUS55 KMSO 040723
OSOMSO
MONTANA AWOS SUMMARY
NATIONAL WEATHER SERVICE MISSOULA MT
123 AM MDT WED MAY 4 2016

Montana AWOS Reports

LAUREL      |K6S8 040715Z AUTO 00000KT 40SM 12/03 A3007 RMK AO1 T01220028
ROUNDUP     |KRPX 040715Z AUTO 26005KT 40SM 11/03 A3000 RMK AO1 T01110033






000
SXUS55 KMSO 040713
OSOMSO
MONTANA AWOS SUMMARY
NATIONAL WEATHER SERVICE MISSOULA MT
113 AM MDT WED MAY 4 2016

Montana AWOS Reports

SCOBEY      |K9S2 040655Z AUTO 00000KT 40SM 12/02 A3003 RMK AO1 T01220017
SCOBEY      |K9S2 040655Z AUTO 00000KT 40SM 12/02 A3003 RMK AO1 T01220017
LAUREL      |K6S8 040655Z AUTO 28004KT 40SM 11/03 A3007 RMK AO1 T01060028
PLAINS      |KS34 040655Z AUTO 00000KT 25SM 10/05 A3001 RMK AO1 T01000050
TWIN BRIDGES|K7S1 040655Z AUTO 07005KT 40SM 10/M05 A3012 RMK AO1 T01001049






000
SXUS55 KMSO 040704
OSOMSO
MONTANA AWOS SUMMARY
NATIONAL WEATHER SERVICE MISSOULA MT
103 AM MDT WED MAY 4 2016

Montana AWOS Reports

ROUNDUP     |KRPX 040655Z AUTO 27006KT 40SM 12/03 A3000 RMK AO1 T01220033
EKALAKA     |K97M 040655Z AUTO 12004KT 40SM 13/01 A3009 RMK AO1 T01280011






000
SXUS55 KMSO 040643
OSOMSO
MONTANA AWOS SUMMARY
NATIONAL WEATHER SERVICE MISSOULA MT
1243 AM MDT WED MAY 4 2016

Montana AWOS Reports

TWIN BRIDGES|K7S1 040635Z AUTO 07005KT 40SM 12/M04 A3011 RMK AO1 T01171043
ROUNDUP     |KRPX 040635Z AUTO 28005KT 40SM 12/03 A3000 RMK AO1 T01220033






000
SXUS55 KMSO 040643
OSOMSO
MONTANA AWOS SUMMARY
NATIONAL WEATHER SERVICE MISSOULA MT
1243 AM MDT WED MAY 4 2016

Montana AWOS Reports

TWIN BRIDGES|K7S1 040635Z AUTO 07005KT 40SM 12/M04 A3011 RMK AO1 T01171043
ROUNDUP     |KRPX 040635Z AUTO 28005KT 40SM 12/03 A3000 RMK AO1 T01220033






000
SXUS55 KMSO 040623
OSOMSO
MONTANA AWOS SUMMARY
NATIONAL WEATHER SERVICE MISSOULA MT
1223 AM MDT WED MAY 4 2016

Montana AWOS Reports

TWIN BRIDGES|K7S1 040615Z AUTO 10004KT 40SM 13/M05 A3011 RMK AO1 T01281049
ROUNDUP     |KRPX 040615Z AUTO 00000KT 40SM 13/03 A3000 RMK AO1 T01280028






000
SXUS55 KMSO 040604
OSOMSO
MONTANA AWOS SUMMARY
NATIONAL WEATHER SERVICE MISSOULA MT
1203 AM MDT WED MAY 4 2016

Montana AWOS Reports

EKALAKA     |K97M 040555Z AUTO 13004KT 40SM 11/03 A3009 RMK AO1 T01110028
SCOBEY      |K9S2 040555Z AUTO 00000KT 40SM 13/02 A3003 RMK AO1 T01330017
TWIN BRIDGES|K7S1 040555Z AUTO 10004KT 40SM 12/M04 A3011 RMK AO1 T01221043
LAUREL      |K6S8 040555Z AUTO 00000KT 40SM 14/03 A3007 RMK AO1 T01390028






000
SXUS55 KMSO 040604
OSOMSO
MONTANA AWOS SUMMARY
NATIONAL WEATHER SERVICE MISSOULA MT
1203 AM MDT WED MAY 4 2016

Montana AWOS Reports

EKALAKA     |K97M 040555Z AUTO 13004KT 40SM 11/03 A3009 RMK AO1 T01110028
SCOBEY      |K9S2 040555Z AUTO 00000KT 40SM 13/02 A3003 RMK AO1 T01330017
TWIN BRIDGES|K7S1 040555Z AUTO 10004KT 40SM 12/M04 A3011 RMK AO1 T01221043
LAUREL      |K6S8 040555Z AUTO 00000KT 40SM 14/03 A3007 RMK AO1 T01390028






000
SXUS55 KMSO 040543
OSOMSO
MONTANA AWOS SUMMARY
NATIONAL WEATHER SERVICE MISSOULA MT
1142 PM MDT TUE MAY 3 2016

Montana AWOS Reports

LAUREL      |K6S8 040535Z AUTO 00000KT 40SM 14/02 A3007 RMK AO1 T01390022
TWIN BRIDGES|K7S1 040535Z AUTO 13004KT 40SM 13/M04 A3011 RMK AO1 T01281043
ROUNDUP     |KRPX 040535Z AUTO 00000KT 40SM 14/03 A3000 RMK AO1 T01440033






000
SXUS55 KMSO 040543
OSOMSO
MONTANA AWOS SUMMARY
NATIONAL WEATHER SERVICE MISSOULA MT
1142 PM MDT TUE MAY 3 2016

Montana AWOS Reports

LAUREL      |K6S8 040535Z AUTO 00000KT 40SM 14/02 A3007 RMK AO1 T01390022
TWIN BRIDGES|K7S1 040535Z AUTO 13004KT 40SM 13/M04 A3011 RMK AO1 T01281043
ROUNDUP     |KRPX 040535Z AUTO 00000KT 40SM 14/03 A3000 RMK AO1 T01440033






000
SXUS55 KMSO 040523
OSOMSO
MONTANA AWOS SUMMARY
NATIONAL WEATHER SERVICE MISSOULA MT
1123 PM MDT TUE MAY 3 2016

Montana AWOS Reports

ROUNDUP     |KRPX 040515Z AUTO 00000KT 40SM 14/03 A3000 RMK AO1 T01390033






000
SXUS55 KMSO 040503
OSOMSO
MONTANA AWOS SUMMARY
NATIONAL WEATHER SERVICE MISSOULA MT
1103 PM MDT TUE MAY 3 2016

Montana AWOS Reports

TWIN BRIDGES|K7S1 040455Z AUTO 00000KT 40SM 12/M03 A3010 RMK AO1 T01171032
ROUNDUP     |KRPX 040455Z AUTO 00000KT 40SM 14/03 A3000 RMK AO1 T01390028
EKALAKA     |K97M 040455Z AUTO 00000KT 40SM 12/01 A3010 RMK AO1 T01170011
PLAINS      |KS34 040455Z AUTO 00000KT 10SM 13/06 A2999 RMK AO1 T01280061
SCOBEY      |K9S2 040455Z AUTO 00000KT 40SM 16/02 A3003 RMK AO1 T01560022
LAUREL      |K6S8 040455Z AUTO 00000KT 40SM 15/02 A3007 RMK AO1 T01500022






000
SXUS55 KMSO 040444
OSOMSO
MONTANA AWOS SUMMARY
NATIONAL WEATHER SERVICE MISSOULA MT
1043 PM MDT TUE MAY 3 2016

Montana AWOS Reports

LAUREL      |K6S8 040435Z AUTO 00000KT 40SM 16/02 A3007 RMK AO1 T01560022
TWIN BRIDGES|K7S1 040435Z AUTO 00000KT 40SM 12/M02 A3010 RMK AO1 T01171016
ROUNDUP     |KRPX 040435Z AUTO 00000KT 40SM 16/02 A3000 RMK AO1 T01560022






000
SXUS55 KMSO 040423
OSOMSO
MONTANA AWOS SUMMARY
NATIONAL WEATHER SERVICE MISSOULA MT
1023 PM MDT TUE MAY 3 2016

Montana AWOS Reports

LAUREL      |K6S8 040415Z AUTO 00000KT 40SM 15/03 A3007 RMK AO1 T01500028
ROUNDUP     |KRPX 040415Z AUTO 00000KT 40SM 16/02 A3000 RMK AO1 T01610017
TWIN BRIDGES|K7S1 040415Z AUTO 00000KT 40SM 11/M01 A3010 RMK AO1 T01111005






000
SXUS55 KMSO 040413
OSOMSO
MONTANA AWOS SUMMARY
NATIONAL WEATHER SERVICE MISSOULA MT
1013 PM MDT TUE MAY 3 2016

Montana AWOS Reports

ROUNDUP     |KRPX 040355Z AUTO 00000KT 40SM 17/02 A3000 RMK AO1 T01670017
SCOBEY      |K9S2 040355Z AUTO 04004KT 40SM 17/02 A3004 RMK AO1 T01670017
TWIN BRIDGES|K7S1 040355Z AUTO 00000KT 40SM 12/M02 A3009 RMK AO1 T01221016
LAUREL      |K6S8 040355Z AUTO 00000KT 40SM 16/02 A3007 RMK AO1 T01560017






000
SXUS55 KMSO 040404
OSOMSO
MONTANA AWOS SUMMARY
NATIONAL WEATHER SERVICE MISSOULA MT
1003 PM MDT TUE MAY 3 2016

Montana AWOS Reports

LAUREL      |K6S8 040355Z AUTO 00000KT 40SM 16/02 A3007 RMK AO1 T01560017
PLAINS      |KS34 040355Z AUTO 00000KT 15SM 16/07 A2999 RMK AO1 T01610067






000
SXUS55 KMSO 040343
OSOMSO
MONTANA AWOS SUMMARY
NATIONAL WEATHER SERVICE MISSOULA MT
943 PM MDT TUE MAY 3 2016

Montana AWOS Reports

TWIN BRIDGES|K7S1 040335Z AUTO 10005KT 25SM 12/M01 A3008 RMK AO1 T01221010
ROUNDUP     |KRPX 040335Z AUTO 00000KT 40SM 18/02 A3000 RMK AO1 T01780022






000
SXUS55 KMSO 040323
OSOMSO
MONTANA AWOS SUMMARY
NATIONAL WEATHER SERVICE MISSOULA MT
923 PM MDT TUE MAY 3 2016

Montana AWOS Reports

LAUREL      |K6S8 040315Z AUTO 00000KT 40SM 17/03 A3007 RMK AO1 T01670028
TWIN BRIDGES|K7S1 040315Z AUTO 06006KT 40SM 14/M03 A3008 RMK AO1 T01441027
ROUNDUP     |KRPX 040315Z AUTO 00000KT 40SM 18/02 A3000 RMK AO1 T01830022






000
SXUS55 KMSO 040303
OSOMSO
MONTANA AWOS SUMMARY
NATIONAL WEATHER SERVICE MISSOULA MT
903 PM MDT TUE MAY 3 2016

Montana AWOS Reports

EKALAKA     |K97M 040255Z AUTO 13004KT 40SM 14/01 A3009 RMK AO1 T01390011
PLAINS      |KS34 040255Z AUTO 00000KT 25SM 19/09 A2997 RMK AO1 T01940089
TWIN BRIDGES|K7S1 040255Z AUTO 06007KT 40SM 15/M03 A3007 RMK AO1 T01501027
LAUREL      |K6S8 040255Z AUTO 00000KT 40SM 17/02 A3007 RMK AO1 T01720022






000
SXUS55 KMSO 040244
OSOMSO
MONTANA AWOS SUMMARY
NATIONAL WEATHER SERVICE MISSOULA MT
843 PM MDT TUE MAY 3 2016

Montana AWOS Reports

TWIN BRIDGES|K7S1 040235Z AUTO 06006KT 40SM 18/M02 A3007 RMK AO1 T01781016
ROUNDUP     |KRPX 040235Z AUTO 00000KT 40SM 19/03 A2999 RMK AO1 T01890028






000
SXUS55 KMSO 040223
OSOMSO
MONTANA AWOS SUMMARY
NATIONAL WEATHER SERVICE MISSOULA MT
823 PM MDT TUE MAY 3 2016

Montana AWOS Reports

TWIN BRIDGES|K7S1 040215Z AUTO 07004KT 40SM 21/M01 A3007 RMK AO1 T02111010
ROUNDUP     |KRPX 040215Z AUTO 00000KT 40SM 20/03 A2999 RMK AO1 T02000033






000
SXUS55 KMSO 040203
OSOMSO
MONTANA AWOS SUMMARY
NATIONAL WEATHER SERVICE MISSOULA MT
803 PM MDT TUE MAY 3 2016

Montana AWOS Reports

EKALAKA     |K97M 040155Z AUTO 00000KT 40SM 19/03 A3009 RMK AO1 T01890033
LAUREL      |K6S8 040155Z AUTO 00000KT 40SM 21/03 A3007 RMK AO1 T02110028






000
SXUS55 KMSO 040143
OSOMSO
MONTANA AWOS SUMMARY
NATIONAL WEATHER SERVICE MISSOULA MT
743 PM MDT TUE MAY 3 2016

Montana AWOS Reports

ROUNDUP     |KRPX 040135Z AUTO 06004KT 40SM 22/04 A2999 RMK AO1 T02220044






000
SXUS55 KMSO 040143
OSOMSO
MONTANA AWOS SUMMARY
NATIONAL WEATHER SERVICE MISSOULA MT
743 PM MDT TUE MAY 3 2016

Montana AWOS Reports

ROUNDUP     |KRPX 040135Z AUTO 06004KT 40SM 22/04 A2999 RMK AO1 T02220044






000
SXUS55 KMSO 040123
OSOMSO
MONTANA AWOS SUMMARY
NATIONAL WEATHER SERVICE MISSOULA MT
723 PM MDT TUE MAY 3 2016

Montana AWOS Reports

LAUREL      |K6S8 040115Z AUTO 07004KT 40SM 23/03 A3007 RMK AO1 T02280028
TWIN BRIDGES|K7S1 040115Z AUTO 00000KT 40SM 24/M03 A3008 RMK AO1 T02391027
ROUNDUP     |KRPX 040115Z AUTO 06005KT 40SM 23/03 A2999 RMK AO1 T02280028






000
SXUS55 KMSO 040113
OSOMSO
MONTANA AWOS SUMMARY
NATIONAL WEATHER SERVICE MISSOULA MT
713 PM MDT TUE MAY 3 2016

Montana AWOS Reports

LAUREL      |K6S8 040055Z AUTO 00000KT 40SM 23/01 A3007 RMK AO1 T02330011






000
SXUS55 KMSO 040104
OSOMSO
MONTANA AWOS SUMMARY
NATIONAL WEATHER SERVICE MISSOULA MT
703 PM MDT TUE MAY 3 2016

Montana AWOS Reports

TWIN BRIDGES|K7S1 040055Z AUTO 00000KT 40SM 24/M04 A3008 RMK AO1 T02391038
ROUNDUP     |KRPX 040055Z AUTO 06008KT 40SM 23/03 A2999 RMK AO1 T02330033
SCOBEY      |K9S2 040055Z AUTO 00000KT 40SM 26/01 A3003 RMK AO1 T02560011
EKALAKA     |K97M 040055Z AUTO 34004KT 10SM 21/02 A3008 RMK AO1 T02060017
PLAINS      |KS34 040055Z AUTO 00000KT 25SM 27/07 A2997 RMK AO1 T02670072






000
SXUS55 KMSO 040043
OSOMSO
MONTANA AWOS SUMMARY
NATIONAL WEATHER SERVICE MISSOULA MT
643 PM MDT TUE MAY 3 2016

Montana AWOS Reports

TWIN BRIDGES|K7S1 040035Z AUTO 00000KT 40SM 24/M03 A3009 RMK AO1 T02391027
ROUNDUP     |KRPX 040035Z AUTO 07005KT 40SM 24/04 A2999 RMK AO1 T02390039






000
SXUS55 KMSO 040043
OSOMSO
MONTANA AWOS SUMMARY
NATIONAL WEATHER SERVICE MISSOULA MT
643 PM MDT TUE MAY 3 2016

Montana AWOS Reports

TWIN BRIDGES|K7S1 040035Z AUTO 00000KT 40SM 24/M03 A3009 RMK AO1 T02391027
ROUNDUP     |KRPX 040035Z AUTO 07005KT 40SM 24/04 A2999 RMK AO1 T02390039






000
SXUS55 KMSO 040023
OSOMSO
MONTANA AWOS SUMMARY
NATIONAL WEATHER SERVICE MISSOULA MT
623 PM MDT TUE MAY 3 2016

Montana AWOS Reports

ROUNDUP     |KRPX 040015Z AUTO 06006KT 40SM 24/03 A2999 RMK AO1 T02440033






000
SXUS55 KMSO 040023
OSOMSO
MONTANA AWOS SUMMARY
NATIONAL WEATHER SERVICE MISSOULA MT
623 PM MDT TUE MAY 3 2016

Montana AWOS Reports

ROUNDUP     |KRPX 040015Z AUTO 06006KT 40SM 24/03 A2999 RMK AO1 T02440033






000
SXUS55 KMSO 040004
OSOMSO
MONTANA AWOS SUMMARY
NATIONAL WEATHER SERVICE MISSOULA MT
603 PM MDT TUE MAY 3 2016

Montana AWOS Reports

SCOBEY      |K9S2 032355Z AUTO 04004KT 40SM 27/00 A3004 RMK AO1 T02670000
EKALAKA     |K97M 032355Z AUTO 33007KT 4SM HZ 22/01 A3008 RMK AO1 T02170006
PLAINS      |KS34 032355Z AUTO 00000KT 25SM 29/08 A2999 RMK AO1 T02890078






000
SXUS55 KMSO 032343
OSOMSO
MONTANA AWOS SUMMARY
NATIONAL WEATHER SERVICE MISSOULA MT
543 PM MDT TUE MAY 3 2016

Montana AWOS Reports

ROUNDUP     |KRPX 032335Z AUTO 00000KT 40SM 24/03 A3000 RMK AO1 T02440033






000
SXUS55 KMSO 032323
OSOMSO
MONTANA AWOS SUMMARY
NATIONAL WEATHER SERVICE MISSOULA MT
523 PM MDT TUE MAY 3 2016

Montana AWOS Reports

LAUREL      |K6S8 032315Z AUTO 07004KT 40SM 24/01 A3008 RMK AO1 T02440011
ROUNDUP     |KRPX 032315Z AUTO 11004KT 40SM 24/02 A3000 RMK AO1 T02440022






000
SXUS55 KMSO 032323
OSOMSO
MONTANA AWOS SUMMARY
NATIONAL WEATHER SERVICE MISSOULA MT
523 PM MDT TUE MAY 3 2016

Montana AWOS Reports

LAUREL      |K6S8 032315Z AUTO 07004KT 40SM 24/01 A3008 RMK AO1 T02440011
ROUNDUP     |KRPX 032315Z AUTO 11004KT 40SM 24/02 A3000 RMK AO1 T02440022






000
SXUS55 KMSO 032314
OSOMSO
MONTANA AWOS SUMMARY
NATIONAL WEATHER SERVICE MISSOULA MT
513 PM MDT TUE MAY 3 2016

Montana AWOS Reports

TWIN BRIDGES|K7S1 032255Z AUTO 10004KT 40SM 24/M04 A3011 RMK AO1 T02391043
SCOBEY      |K9S2 032255Z AUTO 04005KT 40SM 27/02 A3004 RMK AO1 T02670022
EKALAKA     |K97M 032255Z AUTO 31006KT 7SM 22/01 A3008 RMK AO1 T02220006
LAUREL      |K6S8 032255Z AUTO 00000KT 40SM 24/01 A3008 RMK AO1 T02440011






000
SXUS55 KMSO 032314
OSOMSO
MONTANA AWOS SUMMARY
NATIONAL WEATHER SERVICE MISSOULA MT
513 PM MDT TUE MAY 3 2016

Montana AWOS Reports

TWIN BRIDGES|K7S1 032255Z AUTO 10004KT 40SM 24/M04 A3011 RMK AO1 T02391043
SCOBEY      |K9S2 032255Z AUTO 04005KT 40SM 27/02 A3004 RMK AO1 T02670022
EKALAKA     |K97M 032255Z AUTO 31006KT 7SM 22/01 A3008 RMK AO1 T02220006
LAUREL      |K6S8 032255Z AUTO 00000KT 40SM 24/01 A3008 RMK AO1 T02440011






000
SXUS55 KMSO 032303
OSOMSO
MONTANA AWOS SUMMARY
NATIONAL WEATHER SERVICE MISSOULA MT
503 PM MDT TUE MAY 3 2016

Montana AWOS Reports

LAUREL      |K6S8 032255Z AUTO 00000KT 40SM 24/01 A3008 RMK AO1 T02440011
ROUNDUP     |KRPX 032255Z AUTO 00000KT 40SM 24/02 A3000 RMK AO1 T02440022
PLAINS      |KS34 032255Z AUTO 00000KT 25SM 28/08 A3000 RMK AO1 T02780083






000
SXUS55 KMSO 032243
OSOMSO
MONTANA AWOS SUMMARY
NATIONAL WEATHER SERVICE MISSOULA MT
443 PM MDT TUE MAY 3 2016

Montana AWOS Reports

ROUNDUP     |KRPX 032235Z AUTO 09006KT 40SM 24/01 A3000 RMK AO1 T02440011






000
SXUS55 KMSO 032223
OSOMSO
MONTANA AWOS SUMMARY
NATIONAL WEATHER SERVICE MISSOULA MT
423 PM MDT TUE MAY 3 2016

Montana AWOS Reports

LAUREL      |K6S8 032215Z AUTO VRB05KT 40SM 24/02 A3009 RMK AO1 T02440022
TWIN BRIDGES|K7S1 032215Z AUTO 10004KT 40SM 24/M04 A3011 RMK AO1 T02391043
ROUNDUP     |KRPX 032215Z AUTO 00000KT 40SM 25/02 A3001 RMK AO1 T02500017






000
SXUS55 KMSO 032223
OSOMSO
MONTANA AWOS SUMMARY
NATIONAL WEATHER SERVICE MISSOULA MT
423 PM MDT TUE MAY 3 2016

Montana AWOS Reports

LAUREL      |K6S8 032215Z AUTO VRB05KT 40SM 24/02 A3009 RMK AO1 T02440022
TWIN BRIDGES|K7S1 032215Z AUTO 10004KT 40SM 24/M04 A3011 RMK AO1 T02391043
ROUNDUP     |KRPX 032215Z AUTO 00000KT 40SM 25/02 A3001 RMK AO1 T02500017






000
SXUS55 KMSO 032203
OSOMSO
MONTANA AWOS SUMMARY
NATIONAL WEATHER SERVICE MISSOULA MT
403 PM MDT TUE MAY 3 2016

Montana AWOS Reports

EKALAKA     |K97M 032155Z AUTO 31011KT 40SM 22/01 A3008 RMK AO1 T02220006
LAUREL      |K6S8 032155Z AUTO 00000KT 40SM 24/02 A3009 RMK AO1 T02440022






000
SXUS55 KMSO 032143
OSOMSO
MONTANA AWOS SUMMARY
NATIONAL WEATHER SERVICE MISSOULA MT
343 PM MDT TUE MAY 3 2016

Montana AWOS Reports

ROUNDUP     |KRPX 032135Z AUTO 00000KT 40SM 26/02 A3002 RMK AO1 T02560017






000
SXUS55 KMSO 032123
OSOMSO
MONTANA AWOS SUMMARY
NATIONAL WEATHER SERVICE MISSOULA MT
322 PM MDT TUE MAY 3 2016

Montana AWOS Reports

ROUNDUP     |KRPX 032115Z AUTO 00000KT 40SM 25/02 A3002 RMK AO1 T02500017






000
SXUS55 KMSO 032103
OSOMSO
MONTANA AWOS SUMMARY
NATIONAL WEATHER SERVICE MISSOULA MT
303 PM MDT TUE MAY 3 2016

Montana AWOS Reports

EKALAKA     |K97M 032055Z AUTO 32010G15KT 25SM 22/02 A3009 RMK AO1 T02220017
SCOBEY      |K9S2 032055Z AUTO 00000KT 40SM 27/01 A3006 RMK AO1 T02670011
LAUREL      |K6S8 032055Z AUTO 00000KT 40SM 24/03 A3011 RMK AO1 T02390028






000
SXUS55 KMSO 032043
OSOMSO
MONTANA AWOS SUMMARY
NATIONAL WEATHER SERVICE MISSOULA MT
243 PM MDT TUE MAY 3 2016

Montana AWOS Reports

ROUNDUP     |KRPX 032035Z AUTO 11005KT 40SM 24/03 A3002 RMK AO1 T02390033






000
SXUS55 KMSO 032024
OSOMSO
MONTANA AWOS SUMMARY
NATIONAL WEATHER SERVICE MISSOULA MT
223 PM MDT TUE MAY 3 2016

Montana AWOS Reports

ROUNDUP     |KRPX 032015Z AUTO 00000KT 40SM 24/01 A3002 RMK AO1 T02390011






000
SXUS55 KMSO 032004
OSOMSO
MONTANA AWOS SUMMARY
NATIONAL WEATHER SERVICE MISSOULA MT
203 PM MDT TUE MAY 3 2016

Montana AWOS Reports

TWIN BRIDGES|K7S1 031955Z AUTO 22005KT 40SM 22/M04 A3015 RMK AO1 T02221043
ROUNDUP     |KRPX 031955Z AUTO 00000KT 40SM 23/01 A3003 RMK AO1 T02330011
SCOBEY      |K9S2 031955Z AUTO 03006KT 40SM 26/02 A3006 RMK AO1 T02610022
PLAINS      |KS34 031955Z AUTO 40SM 26/08 A3007 RMK AO1 T02610083
EKALAKA     |K97M 031955Z AUTO 32007KT 290V350 40SM 22/01 A3009 RMK AO1 T02170011
LAUREL      |K6S8 031955Z AUTO 00000KT 40SM 23/02 A3011 RMK AO1 T02280017






000
SXUS55 KMSO 031943
OSOMSO
MONTANA AWOS SUMMARY
NATIONAL WEATHER SERVICE MISSOULA MT
143 PM MDT TUE MAY 3 2016

Montana AWOS Reports

ROUNDUP     |KRPX 031935Z AUTO 00000KT 40SM 23/02 A3003 RMK AO1 T02330022






000
SXUS55 KMSO 031923
OSOMSO
MONTANA AWOS SUMMARY
NATIONAL WEATHER SERVICE MISSOULA MT
123 PM MDT TUE MAY 3 2016

Montana AWOS Reports

ROUNDUP     |KRPX 031915Z AUTO 00000KT 40SM 23/01 A3004 RMK AO1 T02280011
SCOBEY      |K9S2 031855Z AUTO 36006KT 40SM 25/01 A3007 RMK AO1 T02500011






000
SXUS55 KMSO 031923
OSOMSO
MONTANA AWOS SUMMARY
NATIONAL WEATHER SERVICE MISSOULA MT
123 PM MDT TUE MAY 3 2016

Montana AWOS Reports

ROUNDUP     |KRPX 031915Z AUTO 00000KT 40SM 23/01 A3004 RMK AO1 T02280011
SCOBEY      |K9S2 031855Z AUTO 36006KT 40SM 25/01 A3007 RMK AO1 T02500011






000
SXUS55 KMSO 031914
OSOMSO
MONTANA AWOS SUMMARY
NATIONAL WEATHER SERVICE MISSOULA MT
113 PM MDT TUE MAY 3 2016

Montana AWOS Reports

LAUREL      |K6S8 031855Z AUTO 00000KT 40SM 22/02 A3013 RMK AO1 T02170017






000
SXUS55 KMSO 031914
OSOMSO
MONTANA AWOS SUMMARY
NATIONAL WEATHER SERVICE MISSOULA MT
113 PM MDT TUE MAY 3 2016

Montana AWOS Reports

LAUREL      |K6S8 031855Z AUTO 00000KT 40SM 22/02 A3013 RMK AO1 T02170017






000
SXUS55 KMSO 031903
OSOMSO
MONTANA AWOS SUMMARY
NATIONAL WEATHER SERVICE MISSOULA MT
103 PM MDT TUE MAY 3 2016

Montana AWOS Reports

LAUREL      |K6S8 031855Z AUTO 00000KT 40SM 22/02 A3013 RMK AO1 T02170017
TWIN BRIDGES|K7S1 031855Z AUTO 21004KT 40SM 20/M03 A3017 RMK AO1 T02001032
ROUNDUP     |KRPX 031855Z AUTO 00000KT 40SM 22/02 A3004 RMK AO1 T02220017
EKALAKA     |K97M 031855Z AUTO 31010KT 40SM 21/01 A3010 RMK AO1 T02110006
PLAINS      |KS34 031855Z AUTO 00000KT 25SM 23/08 A3010 RMK AO1 T02280083






000
SXUS55 KMSO 031843
OSOMSO
MONTANA AWOS SUMMARY
NATIONAL WEATHER SERVICE MISSOULA MT
1242 PM MDT TUE MAY 3 2016

Montana AWOS Reports

LAUREL      |K6S8 031835Z AUTO 00000KT 40SM 21/02 A3013 RMK AO1 T02110022
ROUNDUP     |KRPX 031835Z AUTO 00000KT 40SM 22/02 A3005 RMK AO1 T02220017






000
SXUS55 KMSO 031843
OSOMSO
MONTANA AWOS SUMMARY
NATIONAL WEATHER SERVICE MISSOULA MT
1242 PM MDT TUE MAY 3 2016

Montana AWOS Reports

LAUREL      |K6S8 031835Z AUTO 00000KT 40SM 21/02 A3013 RMK AO1 T02110022
ROUNDUP     |KRPX 031835Z AUTO 00000KT 40SM 22/02 A3005 RMK AO1 T02220017






000
SXUS55 KMSO 031823
OSOMSO
MONTANA AWOS SUMMARY
NATIONAL WEATHER SERVICE MISSOULA MT
1223 PM MDT TUE MAY 3 2016

Montana AWOS Reports

LAUREL      |K6S8 031815Z AUTO 00000KT 40SM 21/04 A3014 RMK AO1 T02060039
TWIN BRIDGES|K7S1 031815Z AUTO 14005KT 40SM 19/M02 A3018 RMK AO1 T01891021
ROUNDUP     |KRPX 031815Z AUTO 00000KT 40SM 22/01 A3005 RMK AO1 T02170011






000
SXUS55 KMSO 031813
OSOMSO
MONTANA AWOS SUMMARY
NATIONAL WEATHER SERVICE MISSOULA MT
1213 PM MDT TUE MAY 3 2016

Montana AWOS Reports

SCOBEY      |K9S2 031755Z AUTO 00000KT 40SM 24/02 A3007 RMK AO1 T02440022
EKALAKA     |K97M 031755Z AUTO 32006KT 40SM 20/02 A3010 RMK AO1 T02000022
PLAINS      |KS34 031755Z AUTO 00000KT 25SM 21/07 A3012 RMK AO1 T02060072
LAUREL      |K6S8 031755Z AUTO 00000KT 40SM 20/03 A3015 RMK AO1 T02000033






000
SXUS55 KMSO 031813
OSOMSO
MONTANA AWOS SUMMARY
NATIONAL WEATHER SERVICE MISSOULA MT
1213 PM MDT TUE MAY 3 2016

Montana AWOS Reports

SCOBEY      |K9S2 031755Z AUTO 00000KT 40SM 24/02 A3007 RMK AO1 T02440022
EKALAKA     |K97M 031755Z AUTO 32006KT 40SM 20/02 A3010 RMK AO1 T02000022
PLAINS      |KS34 031755Z AUTO 00000KT 25SM 21/07 A3012 RMK AO1 T02060072
LAUREL      |K6S8 031755Z AUTO 00000KT 40SM 20/03 A3015 RMK AO1 T02000033






000
SXUS55 KMSO 031803
OSOMSO
MONTANA AWOS SUMMARY
NATIONAL WEATHER SERVICE MISSOULA MT
1203 PM MDT TUE MAY 3 2016

Montana AWOS Reports

LAUREL      |K6S8 031755Z AUTO 00000KT 40SM 20/03 A3015 RMK AO1 T02000033
TWIN BRIDGES|K7S1 031755Z AUTO VRB05KT 40SM 18/M03 A3018 RMK AO1 T01781027
ROUNDUP     |KRPX 031755Z AUTO 00000KT 40SM 21/01 A3006 RMK AO1 T02110011






000
SXUS55 KMSO 031803
OSOMSO
MONTANA AWOS SUMMARY
NATIONAL WEATHER SERVICE MISSOULA MT
1203 PM MDT TUE MAY 3 2016

Montana AWOS Reports

LAUREL      |K6S8 031755Z AUTO 00000KT 40SM 20/03 A3015 RMK AO1 T02000033
TWIN BRIDGES|K7S1 031755Z AUTO VRB05KT 40SM 18/M03 A3018 RMK AO1 T01781027
ROUNDUP     |KRPX 031755Z AUTO 00000KT 40SM 21/01 A3006 RMK AO1 T02110011






000
SXUS55 KMSO 031744
OSOMSO
MONTANA AWOS SUMMARY
NATIONAL WEATHER SERVICE MISSOULA MT
1143 AM MDT TUE MAY 3 2016

Montana AWOS Reports

TWIN BRIDGES|K7S1 031735Z AUTO 16006KT 40SM 17/M02 A3018 RMK AO1 T01721021
ROUNDUP     |KRPX 031735Z AUTO 00000KT 40SM 21/01 A3006 RMK AO1 T02060011






000
SXUS55 KMSO 031723
OSOMSO
MONTANA AWOS SUMMARY
NATIONAL WEATHER SERVICE MISSOULA MT
1123 AM MDT TUE MAY 3 2016

Montana AWOS Reports

LAUREL      |K6S8 031715Z AUTO 21007KT 40SM 18/02 A3015 RMK AO1 T01830017
TWIN BRIDGES|K7S1 031715Z AUTO 13006KT 40SM 17/M02 A3019 RMK AO1 T01671021
ROUNDUP     |KRPX 031715Z AUTO 00000KT 40SM 20/03 A3006 RMK AO1 T02000033






000
SXUS55 KMSO 031714
OSOMSO
MONTANA AWOS SUMMARY
NATIONAL WEATHER SERVICE MISSOULA MT
1113 AM MDT TUE MAY 3 2016

Montana AWOS Reports

LAUREL      |K6S8 031655Z AUTO 00000KT 40SM 18/03 A3015 RMK AO1 T01780028






000
SXUS55 KMSO 031704
OSOMSO
MONTANA AWOS SUMMARY
NATIONAL WEATHER SERVICE MISSOULA MT
1103 AM MDT TUE MAY 3 2016

Montana AWOS Reports

TWIN BRIDGES|K7S1 031655Z AUTO 17007KT 40SM 16/M03 A3019 RMK AO1 T01561027
ROUNDUP     |KRPX 031655Z AUTO 18004KT 40SM 19/04 A3006 RMK AO1 T01940044
SCOBEY      |K9S2 031655Z AUTO 36004KT 40SM 23/03 A3008 RMK AO1 T02330028
EKALAKA     |K97M 031655Z AUTO 34008KT 300V020 40SM 19/02 A3011 RMK AO1 T01890022
PLAINS      |KS34 031655Z AUTO 00000KT 25SM 18/08 A3014 RMK AO1 T01830083






000
SXUS55 KMSO 031704
OSOMSO
MONTANA AWOS SUMMARY
NATIONAL WEATHER SERVICE MISSOULA MT
1103 AM MDT TUE MAY 3 2016

Montana AWOS Reports

TWIN BRIDGES|K7S1 031655Z AUTO 17007KT 40SM 16/M03 A3019 RMK AO1 T01561027
ROUNDUP     |KRPX 031655Z AUTO 18004KT 40SM 19/04 A3006 RMK AO1 T01940044
SCOBEY      |K9S2 031655Z AUTO 36004KT 40SM 23/03 A3008 RMK AO1 T02330028
EKALAKA     |K97M 031655Z AUTO 34008KT 300V020 40SM 19/02 A3011 RMK AO1 T01890022
PLAINS      |KS34 031655Z AUTO 00000KT 25SM 18/08 A3014 RMK AO1 T01830083






000
SXUS55 KMSO 031643
OSOMSO
MONTANA AWOS SUMMARY
NATIONAL WEATHER SERVICE MISSOULA MT
1043 AM MDT TUE MAY 3 2016

Montana AWOS Reports

LAUREL      |K6S8 031635Z AUTO 22006KT 40SM 17/03 A3015 RMK AO1 T01670028
ROUNDUP     |KRPX 031635Z AUTO 00000KT 40SM 18/05 A3006 RMK AO1 T01830050






000
SXUS55 KMSO 031643
OSOMSO
MONTANA AWOS SUMMARY
NATIONAL WEATHER SERVICE MISSOULA MT
1043 AM MDT TUE MAY 3 2016

Montana AWOS Reports

LAUREL      |K6S8 031635Z AUTO 22006KT 40SM 17/03 A3015 RMK AO1 T01670028
ROUNDUP     |KRPX 031635Z AUTO 00000KT 40SM 18/05 A3006 RMK AO1 T01830050






000
SXUS55 KMSO 031624
OSOMSO
MONTANA AWOS SUMMARY
NATIONAL WEATHER SERVICE MISSOULA MT
1023 AM MDT TUE MAY 3 2016

Montana AWOS Reports

TWIN BRIDGES|K7S1 031615Z AUTO 15005KT 40SM 14/M02 A3020 RMK AO1 T01391016
ROUNDUP     |KRPX 031615Z AUTO 00000KT 40SM 17/04 A3006 RMK AO1 T01720044
LAUREL      |K6S8 031615Z AUTO 21006KT 40SM 16/03 A3015 RMK AO1 T01610033






000
SXUS55 KMSO 031624
OSOMSO
MONTANA AWOS SUMMARY
NATIONAL WEATHER SERVICE MISSOULA MT
1023 AM MDT TUE MAY 3 2016

Montana AWOS Reports

TWIN BRIDGES|K7S1 031615Z AUTO 15005KT 40SM 14/M02 A3020 RMK AO1 T01391016
ROUNDUP     |KRPX 031615Z AUTO 00000KT 40SM 17/04 A3006 RMK AO1 T01720044
LAUREL      |K6S8 031615Z AUTO 21006KT 40SM 16/03 A3015 RMK AO1 T01610033






000
SXUS55 KMSO 031613
OSOMSO
MONTANA AWOS SUMMARY
NATIONAL WEATHER SERVICE MISSOULA MT
1013 AM MDT TUE MAY 3 2016

Montana AWOS Reports

SCOBEY      |K9S2 031555Z AUTO 36004KT 40SM 20/03 A3007 RMK AO1 T02000033
EKALAKA     |K97M 031555Z AUTO 00000KT 40SM 17/06 A3010 RMK AO1 T01670056






000
SXUS55 KMSO 031613
OSOMSO
MONTANA AWOS SUMMARY
NATIONAL WEATHER SERVICE MISSOULA MT
1013 AM MDT TUE MAY 3 2016

Montana AWOS Reports

SCOBEY      |K9S2 031555Z AUTO 36004KT 40SM 20/03 A3007 RMK AO1 T02000033
EKALAKA     |K97M 031555Z AUTO 00000KT 40SM 17/06 A3010 RMK AO1 T01670056






000
SXUS55 KMSO 031604
OSOMSO
MONTANA AWOS SUMMARY
NATIONAL WEATHER SERVICE MISSOULA MT
1003 AM MDT TUE MAY 3 2016

Montana AWOS Reports

ROUNDUP     |KRPX 031555Z AUTO 19004KT 40SM 16/05 A3006 RMK AO1 T01560050
PLAINS      |KS34 031555Z AUTO 00000KT 25SM 14/06 A3015 RMK AO1 T01390061
TWIN BRIDGES|K7S1 031555Z AUTO VRB05KT 40SM 13/M01 A3020 RMK AO1 T01281010






000
SXUS55 KMSO 031604
OSOMSO
MONTANA AWOS SUMMARY
NATIONAL WEATHER SERVICE MISSOULA MT
1003 AM MDT TUE MAY 3 2016

Montana AWOS Reports

ROUNDUP     |KRPX 031555Z AUTO 19004KT 40SM 16/05 A3006 RMK AO1 T01560050
PLAINS      |KS34 031555Z AUTO 00000KT 25SM 14/06 A3015 RMK AO1 T01390061
TWIN BRIDGES|K7S1 031555Z AUTO VRB05KT 40SM 13/M01 A3020 RMK AO1 T01281010






000
SXUS55 KMSO 031543
OSOMSO
MONTANA AWOS SUMMARY
NATIONAL WEATHER SERVICE MISSOULA MT
943 AM MDT TUE MAY 3 2016

Montana AWOS Reports

ROUNDUP     |KRPX 031535Z AUTO 19005KT 40SM 14/04 A3006 RMK AO1 T01390039






000
SXUS55 KMSO 031523
OSOMSO
MONTANA AWOS SUMMARY
NATIONAL WEATHER SERVICE MISSOULA MT
923 AM MDT TUE MAY 3 2016

Montana AWOS Reports

LAUREL      |K6S8 031515Z AUTO 20008KT 40SM 13/02 A3014 RMK AO1 T01280017
ROUNDUP     |KRPX 031515Z AUTO 20004KT 40SM 13/04 A3006 RMK AO1 T01280039






000
SXUS55 KMSO 031513
OSOMSO
MONTANA AWOS SUMMARY
NATIONAL WEATHER SERVICE MISSOULA MT
913 AM MDT TUE MAY 3 2016

Montana AWOS Reports

EKALAKA     |K97M 031455Z AUTO 27004KT 40SM 14/05 A3009 RMK AO1 T01440050






000
SXUS55 KMSO 031503
OSOMSO
MONTANA AWOS SUMMARY
NATIONAL WEATHER SERVICE MISSOULA MT
903 AM MDT TUE MAY 3 2016

Montana AWOS Reports

TWIN BRIDGES|K7S1 031455Z AUTO 15005KT 40SM 09/M02 A3020 RMK AO1 T00891016
ROUNDUP     |KRPX 031455Z AUTO 20006KT 40SM 12/03 A3005 RMK AO1 T01170033
SCOBEY      |K9S2 031455Z AUTO 00000KT 40SM 14/01 A3007 RMK AO1 T01440011
PLAINS      |KS34 031455Z AUTO 00000KT 25SM 10/07 A3015 RMK AO1 T01000067






000
SXUS55 KMSO 031444
OSOMSO
MONTANA AWOS SUMMARY
NATIONAL WEATHER SERVICE MISSOULA MT
843 AM MDT TUE MAY 3 2016

Montana AWOS Reports

TWIN BRIDGES|K7S1 031435Z AUTO 15005KT 40SM 09/M02 A3020 RMK AO1 T00891021
ROUNDUP     |KRPX 031435Z AUTO 21007KT 40SM 11/03 A3005 RMK AO1 T01060028






000
SXUS55 KMSO 031423
OSOMSO
MONTANA AWOS SUMMARY
NATIONAL WEATHER SERVICE MISSOULA MT
823 AM MDT TUE MAY 3 2016

Montana AWOS Reports

LAUREL      |K6S8 031415Z AUTO 20008KT 40SM 09/01 A3014 RMK AO1 T00940006
TWIN BRIDGES|K7S1 031415Z AUTO 12006KT 40SM 08/M03 A3020 RMK AO1 T00831027
ROUNDUP     |KRPX 031415Z AUTO 20005KT 40SM 09/02 A3005 RMK AO1 T00890017






000
SXUS55 KMSO 031414
OSOMSO
MONTANA AWOS SUMMARY
NATIONAL WEATHER SERVICE MISSOULA MT
813 AM MDT TUE MAY 3 2016

Montana AWOS Reports

EKALAKA     |K97M 031355Z AUTO 00000KT 40SM 12/04 A3009 RMK AO1 T01220039






000
SXUS55 KMSO 031403
OSOMSO
MONTANA AWOS SUMMARY
NATIONAL WEATHER SERVICE MISSOULA MT
803 AM MDT TUE MAY 3 2016

Montana AWOS Reports

ROUNDUP     |KRPX 031355Z AUTO 20012G17KT 40SM 08/01 A3005 RMK AO1 T00780011
TWIN BRIDGES|K7S1 031355Z AUTO 11006KT 40SM 06/M03 A3020 RMK AO1 T00611032
LAUREL      |K6S8 031355Z AUTO 00000KT 40SM 08/01 A3014 RMK AO1 T00830006






000
SXUS55 KMSO 031403
OSOMSO
MONTANA AWOS SUMMARY
NATIONAL WEATHER SERVICE MISSOULA MT
803 AM MDT TUE MAY 3 2016

Montana AWOS Reports

ROUNDUP     |KRPX 031355Z AUTO 20012G17KT 40SM 08/01 A3005 RMK AO1 T00780011
TWIN BRIDGES|K7S1 031355Z AUTO 11006KT 40SM 06/M03 A3020 RMK AO1 T00611032
LAUREL      |K6S8 031355Z AUTO 00000KT 40SM 08/01 A3014 RMK AO1 T00830006






000
SXUS55 KMSO 031343
OSOMSO
MONTANA AWOS SUMMARY
NATIONAL WEATHER SERVICE MISSOULA MT
743 AM MDT TUE MAY 3 2016

Montana AWOS Reports

LAUREL      |K6S8 031335Z AUTO 22006KT 40SM 07/M01 A3014 RMK AO1 T00721005
TWIN BRIDGES|K7S1 031335Z AUTO 10005KT 15SM 04/M03 A3019 RMK AO1 T00441032
ROUNDUP     |KRPX 031335Z AUTO 20014KT 40SM 07/01 A3005 RMK AO1 T00720011






000
SXUS55 KMSO 031324
OSOMSO
MONTANA AWOS SUMMARY
NATIONAL WEATHER SERVICE MISSOULA MT
723 AM MDT TUE MAY 3 2016

Montana AWOS Reports

LAUREL      |K6S8 031315Z AUTO 00000KT 40SM 06/M01 A3013 RMK AO1 T00611005
TWIN BRIDGES|K7S1 031315Z AUTO 09004KT 40SM 02/M03 A3019 RMK AO1 T00221032
ROUNDUP     |KRPX 031315Z AUTO 20012KT 40SM 06/01 A3005 RMK AO1 T00610006






000
SXUS55 KMSO 031313
OSOMSO
MONTANA AWOS SUMMARY
NATIONAL WEATHER SERVICE MISSOULA MT
713 AM MDT TUE MAY 3 2016

Montana AWOS Reports

TWIN BRIDGES|K7S1 031255Z AUTO 00000KT 40SM 01/M04 A3018 RMK AO1 T00061043
TWIN BRIDGES|K7S1 031255Z AUTO 00000KT 40SM 01/M04 A3018 RMK AO1 T00061043
SCOBEY      |K9S2 031255Z AUTO 00000KT 40SM 04/M03 A3006 RMK AO1 T00441032
EKALAKA     |K97M 031255Z AUTO 00000KT 40SM 09/03 A3008 RMK AO1 T00890028
LAUREL      |K6S8 031255Z AUTO 00000KT 40SM 06/M01 A3013 RMK AO1 T00561005
PLAINS      |KS34 031255Z AUTO 00000KT 25SM 03/01 A3014 RMK AO1 T00330006






000
SXUS55 KMSO 031303
OSOMSO
MONTANA AWOS SUMMARY
NATIONAL WEATHER SERVICE MISSOULA MT
702 AM MDT TUE MAY 3 2016

Montana AWOS Reports

LAUREL      |K6S8 031255Z AUTO 00000KT 40SM 06/M01 A3013 RMK AO1 T00561005
ROUNDUP     |KRPX 031255Z AUTO 20010G15KT 40SM 06/01 A3004 RMK AO1 T00560006






000
SXUS55 KMSO 031303
OSOMSO
MONTANA AWOS SUMMARY
NATIONAL WEATHER SERVICE MISSOULA MT
702 AM MDT TUE MAY 3 2016

Montana AWOS Reports

LAUREL      |K6S8 031255Z AUTO 00000KT 40SM 06/M01 A3013 RMK AO1 T00561005
ROUNDUP     |KRPX 031255Z AUTO 20010G15KT 40SM 06/01 A3004 RMK AO1 T00560006






000
SXUS55 KMSO 031243
OSOMSO
MONTANA AWOS SUMMARY
NATIONAL WEATHER SERVICE MISSOULA MT
643 AM MDT TUE MAY 3 2016

Montana AWOS Reports

LAUREL      |K6S8 031235Z AUTO 00000KT 40SM 04/M02 A3012 RMK AO1 T00391016
TWIN BRIDGES|K7S1 031235Z AUTO 00000KT 25SM 01/M04 A3018 RMK AO1 T00111043
ROUNDUP     |KRPX 031235Z AUTO 20010G15KT 40SM 05/01 A3004 RMK AO1 T00500006






000
SXUS55 KMSO 031243
OSOMSO
MONTANA AWOS SUMMARY
NATIONAL WEATHER SERVICE MISSOULA MT
643 AM MDT TUE MAY 3 2016

Montana AWOS Reports

LAUREL      |K6S8 031235Z AUTO 00000KT 40SM 04/M02 A3012 RMK AO1 T00391016
TWIN BRIDGES|K7S1 031235Z AUTO 00000KT 25SM 01/M04 A3018 RMK AO1 T00111043
ROUNDUP     |KRPX 031235Z AUTO 20010G15KT 40SM 05/01 A3004 RMK AO1 T00500006






000
SXUS55 KMSO 031224
OSOMSO
MONTANA AWOS SUMMARY
NATIONAL WEATHER SERVICE MISSOULA MT
623 AM MDT TUE MAY 3 2016

Montana AWOS Reports

LAUREL      |K6S8 031215Z AUTO 00000KT 40SM 03/M03 A3012 RMK AO1 T00331027
TWIN BRIDGES|K7S1 031215Z AUTO 11004KT 40SM 02/M04 A3018 RMK AO1 T00171043
ROUNDUP     |KRPX 031215Z AUTO 20012KT 40SM 05/01 A3004 RMK AO1 T00500006






000
SXUS55 KMSO 031213
OSOMSO
MONTANA AWOS SUMMARY
NATIONAL WEATHER SERVICE MISSOULA MT
613 AM MDT TUE MAY 3 2016

Montana AWOS Reports

EKALAKA     |K97M 031155Z AUTO 00000KT 40SM 07/00 A3006 RMK AO1 T00670000






000
SXUS55 KMSO 031204
OSOMSO
MONTANA AWOS SUMMARY
NATIONAL WEATHER SERVICE MISSOULA MT
603 AM MDT TUE MAY 3 2016

Montana AWOS Reports

TWIN BRIDGES|K7S1 031155Z AUTO 11004KT 40SM 02/M04 A3017 RMK AO1 T00171043
ROUNDUP     |KRPX 031155Z AUTO 20011KT 40SM 05/01 A3004 RMK AO1 T00500006
SCOBEY      |K9S2 031155Z AUTO 00000KT 40SM 02/M06 A3004 RMK AO1 T00171060
LAUREL      |K6S8 031155Z AUTO 00000KT 40SM 04/M02 A3012 RMK AO1 T00391021
PLAINS      |KS34 031155Z AUTO 00000KT 25SM 04/01 A3013 RMK AO1 T00390011






000
SXUS55 KMSO 031204
OSOMSO
MONTANA AWOS SUMMARY
NATIONAL WEATHER SERVICE MISSOULA MT
603 AM MDT TUE MAY 3 2016

Montana AWOS Reports

TWIN BRIDGES|K7S1 031155Z AUTO 11004KT 40SM 02/M04 A3017 RMK AO1 T00171043
ROUNDUP     |KRPX 031155Z AUTO 20011KT 40SM 05/01 A3004 RMK AO1 T00500006
SCOBEY      |K9S2 031155Z AUTO 00000KT 40SM 02/M06 A3004 RMK AO1 T00171060
LAUREL      |K6S8 031155Z AUTO 00000KT 40SM 04/M02 A3012 RMK AO1 T00391021
PLAINS      |KS34 031155Z AUTO 00000KT 25SM 04/01 A3013 RMK AO1 T00390011






000
SXUS55 KMSO 031143
OSOMSO
MONTANA AWOS SUMMARY
NATIONAL WEATHER SERVICE MISSOULA MT
543 AM MDT TUE MAY 3 2016

Montana AWOS Reports

TWIN BRIDGES|K7S1 031135Z AUTO 13004KT 40SM 02/M04 A3017 RMK AO1 T00221043
ROUNDUP     |KRPX 031135Z AUTO 20011G15KT 40SM 05/01 A3003 RMK AO1 T00500006






000
SXUS55 KMSO 031124
OSOMSO
MONTANA AWOS SUMMARY
NATIONAL WEATHER SERVICE MISSOULA MT
523 AM MDT TUE MAY 3 2016

Montana AWOS Reports

LAUREL      |K6S8 031115Z AUTO 00000KT 40SM 05/M02 A3011 RMK AO1 T00501016
TWIN BRIDGES|K7S1 031115Z AUTO 13005KT 40SM 04/M04 A3016 RMK AO1 T00391038
ROUNDUP     |KRPX 031115Z AUTO 21007KT 40SM 06/01 A3003 RMK AO1 T00560006






000
SXUS55 KMSO 031103
OSOMSO
MONTANA AWOS SUMMARY
NATIONAL WEATHER SERVICE MISSOULA MT
503 AM MDT TUE MAY 3 2016

Montana AWOS Reports

SCOBEY      |K9S2 031055Z AUTO 00000KT 25SM 02/M06 A3003 RMK AO1 T00221055
EKALAKA     |K97M 031055Z AUTO 00000KT 40SM 07/M01 A3005 RMK AO1 T00721005
PLAINS      |KS34 031055Z AUTO 00000KT 40SM 04/01 A3012 RMK AO1 T00390006
TWIN BRIDGES|K7S1 031055Z AUTO 11005KT 40SM 03/M04 A3017 RMK AO1 T00281038
LAUREL      |K6S8 031055Z AUTO 40SM 06/M02 A3011 RMK AO1 T00561016






000
SXUS55 KMSO 031103
OSOMSO
MONTANA AWOS SUMMARY
NATIONAL WEATHER SERVICE MISSOULA MT
503 AM MDT TUE MAY 3 2016

Montana AWOS Reports

SCOBEY      |K9S2 031055Z AUTO 00000KT 25SM 02/M06 A3003 RMK AO1 T00221055
EKALAKA     |K97M 031055Z AUTO 00000KT 40SM 07/M01 A3005 RMK AO1 T00721005
PLAINS      |KS34 031055Z AUTO 00000KT 40SM 04/01 A3012 RMK AO1 T00390006
TWIN BRIDGES|K7S1 031055Z AUTO 11005KT 40SM 03/M04 A3017 RMK AO1 T00281038
LAUREL      |K6S8 031055Z AUTO 40SM 06/M02 A3011 RMK AO1 T00561016






000
SXUS55 KMSO 031043
OSOMSO
MONTANA AWOS SUMMARY
NATIONAL WEATHER SERVICE MISSOULA MT
442 AM MDT TUE MAY 3 2016

Montana AWOS Reports

LAUREL      |K6S8 031035Z AUTO 00000KT 40SM 05/M02 A3011 RMK AO1 T00501021
TWIN BRIDGES|K7S1 031035Z AUTO 00000KT 40SM 03/M04 A3016 RMK AO1 T00281038
ROUNDUP     |KRPX 031035Z AUTO 20007KT 40SM 06/01 A3003 RMK AO1 T00560006






000
SXUS55 KMSO 031023
OSOMSO
MONTANA AWOS SUMMARY
NATIONAL WEATHER SERVICE MISSOULA MT
423 AM MDT TUE MAY 3 2016

Montana AWOS Reports

TWIN BRIDGES|K7S1 031015Z AUTO 10004KT 40SM 02/M04 A3016 RMK AO1 T00221043
ROUNDUP     |KRPX 031015Z AUTO 20005KT 40SM 06/01 A3003 RMK AO1 T00610011






000
SXUS55 KMSO 031003
OSOMSO
MONTANA AWOS SUMMARY
NATIONAL WEATHER SERVICE MISSOULA MT
403 AM MDT TUE MAY 3 2016

Montana AWOS Reports

ROUNDUP     |KRPX 030955Z AUTO 21006KT 40SM 06/01 A3003 RMK AO1 T00560006
SCOBEY      |K9S2 030955Z AUTO 00000KT 40SM 03/M06 A3003 RMK AO1 T00281055
EKALAKA     |K97M 030955Z AUTO 13004KT 40SM 09/M01 A3004 RMK AO1 T00891010
LAUREL      |K6S8 030955Z AUTO 00000KT 40SM 06/M02 A3010 RMK AO1 T00561016






000
SXUS55 KMSO 031003
OSOMSO
MONTANA AWOS SUMMARY
NATIONAL WEATHER SERVICE MISSOULA MT
403 AM MDT TUE MAY 3 2016

Montana AWOS Reports

ROUNDUP     |KRPX 030955Z AUTO 21006KT 40SM 06/01 A3003 RMK AO1 T00560006
SCOBEY      |K9S2 030955Z AUTO 00000KT 40SM 03/M06 A3003 RMK AO1 T00281055
EKALAKA     |K97M 030955Z AUTO 13004KT 40SM 09/M01 A3004 RMK AO1 T00891010
LAUREL      |K6S8 030955Z AUTO 00000KT 40SM 06/M02 A3010 RMK AO1 T00561016






000
SXUS55 KMSO 030944
OSOMSO
MONTANA AWOS SUMMARY
NATIONAL WEATHER SERVICE MISSOULA MT
343 AM MDT TUE MAY 3 2016

Montana AWOS Reports

TWIN BRIDGES|K7S1 030935Z AUTO 00000KT 40SM 03/M04 A3015 RMK AO1 T00281038
ROUNDUP     |KRPX 030935Z AUTO 21005KT 40SM 05/01 A3003 RMK AO1 T00500006






000
SXUS55 KMSO 030923
OSOMSO
MONTANA AWOS SUMMARY
NATIONAL WEATHER SERVICE MISSOULA MT
323 AM MDT TUE MAY 3 2016

Montana AWOS Reports

LAUREL      |K6S8 030915Z AUTO 24004KT 40SM 06/M01 A3010 RMK AO1 T00611010
TWIN BRIDGES|K7S1 030915Z AUTO 00000KT 40SM 02/M04 A3015 RMK AO1 T00221043
ROUNDUP     |KRPX 030915Z AUTO 00000KT 40SM 05/00 A3003 RMK AO1 T00500000






000
SXUS55 KMSO 030903
OSOMSO
MONTANA AWOS SUMMARY
NATIONAL WEATHER SERVICE MISSOULA MT
303 AM MDT TUE MAY 3 2016

Montana AWOS Reports

PLAINS      |KS34 030855Z AUTO 00000KT 25SM 06/03 A3010 RMK AO1 T00610028
TWIN BRIDGES|K7S1 030855Z AUTO 07005KT 40SM 03/M04 A3015 RMK AO1 T00281043
LAUREL      |K6S8 030855Z AUTO 26004KT 40SM 06/M01 A3010 RMK AO1 T00561010






000
SXUS55 KMSO 030843
OSOMSO
MONTANA AWOS SUMMARY
NATIONAL WEATHER SERVICE MISSOULA MT
243 AM MDT TUE MAY 3 2016

Montana AWOS Reports

LAUREL      |K6S8 030835Z AUTO 00000KT 40SM 06/M02 A3010 RMK AO1 T00611016
TWIN BRIDGES|K7S1 030835Z AUTO 07004KT 40SM 04/M04 A3015 RMK AO1 T00441038
ROUNDUP     |KRPX 030835Z AUTO 21006KT 40SM 07/01 A3003 RMK AO1 T00670011






000
SXUS55 KMSO 030824
OSOMSO
MONTANA AWOS SUMMARY
NATIONAL WEATHER SERVICE MISSOULA MT
223 AM MDT TUE MAY 3 2016

Montana AWOS Reports

LAUREL      |K6S8 030815Z AUTO 00000KT 40SM 07/M01 A3010 RMK AO1 T00671005
ROUNDUP     |KRPX 030815Z AUTO 22007KT 40SM 06/01 A3003 RMK AO1 T00610011






000
SXUS55 KMSO 030803
OSOMSO
MONTANA AWOS SUMMARY
NATIONAL WEATHER SERVICE MISSOULA MT
203 AM MDT TUE MAY 3 2016

Montana AWOS Reports

TWIN BRIDGES|K7S1 030755Z AUTO 05004KT 40SM 06/M04 A3014 RMK AO1 T00561043
ROUNDUP     |KRPX 030755Z AUTO 00000KT 40SM 07/01 A3003 RMK AO1 T00670006
SCOBEY      |K9S2 030755Z AUTO 00000KT 25SM 05/M04 A3003 RMK AO1 T00501043
EKALAKA     |K97M 030755Z AUTO 00000KT 40SM 09/M01 A3004 RMK AO1 T00941010
PLAINS      |KS34 030755Z AUTO 00000KT 25SM 07/03 A3010 RMK AO1 T00670028
LAUREL      |K6S8 030755Z AUTO 00000KT 40SM 07/M01 A3011 RMK AO1 T00671010






000
SXUS55 KMSO 030743
OSOMSO
MONTANA AWOS SUMMARY
NATIONAL WEATHER SERVICE MISSOULA MT
143 AM MDT TUE MAY 3 2016

Montana AWOS Reports

TWIN BRIDGES|K7S1 030735Z AUTO 04004KT 40SM 04/M04 A3014 RMK AO1 T00441043
ROUNDUP     |KRPX 030735Z AUTO 25004KT 40SM 08/01 A3004 RMK AO1 T00780011






000
SXUS55 KMSO 030723
OSOMSO
MONTANA AWOS SUMMARY
NATIONAL WEATHER SERVICE MISSOULA MT
123 AM MDT TUE MAY 3 2016

Montana AWOS Reports

LAUREL      |K6S8 030715Z AUTO 00000KT 40SM 08/00 A3011 RMK AO1 T00780000
TWIN BRIDGES|K7S1 030715Z AUTO 00000KT 40SM 04/M04 A3014 RMK AO1 T00441038
ROUNDUP     |KRPX 030715Z AUTO 00000KT 40SM 08/01 A3004 RMK AO1 T00830006






000
SXUS55 KMSO 030704
OSOMSO
MONTANA AWOS SUMMARY
NATIONAL WEATHER SERVICE MISSOULA MT
103 AM MDT TUE MAY 3 2016

Montana AWOS Reports

TWIN BRIDGES|K7S1 030655Z AUTO 04004KT 40SM 05/M04 A3014 RMK AO1 T00501043
ROUNDUP     |KRPX 030655Z AUTO 00000KT 40SM 08/01 A3004 RMK AO1 T00830011
SCOBEY      |K9S2 030655Z AUTO 00000KT 40SM 06/M06 A3003 RMK AO1 T00561055
LAUREL      |K6S8 030655Z AUTO 00000KT 40SM 08/01 A3011 RMK AO1 T00830006






000
SXUS55 KMSO 030704
OSOMSO
MONTANA AWOS SUMMARY
NATIONAL WEATHER SERVICE MISSOULA MT
103 AM MDT TUE MAY 3 2016

Montana AWOS Reports

TWIN BRIDGES|K7S1 030655Z AUTO 04004KT 40SM 05/M04 A3014 RMK AO1 T00501043
ROUNDUP     |KRPX 030655Z AUTO 00000KT 40SM 08/01 A3004 RMK AO1 T00830011
SCOBEY      |K9S2 030655Z AUTO 00000KT 40SM 06/M06 A3003 RMK AO1 T00561055
LAUREL      |K6S8 030655Z AUTO 00000KT 40SM 08/01 A3011 RMK AO1 T00830006






000
SXUS55 KMSO 030643
OSOMSO
MONTANA AWOS SUMMARY
NATIONAL WEATHER SERVICE MISSOULA MT
1242 AM MDT TUE MAY 3 2016

Montana AWOS Reports

LAUREL      |K6S8 030635Z AUTO 00000KT 40SM 09/01 A3012 RMK AO1 T00890006
ROUNDUP     |KRPX 030635Z AUTO 00000KT 40SM 09/01 A3004 RMK AO1 T00940011






000
SXUS55 KMSO 030623
OSOMSO
MONTANA AWOS SUMMARY
NATIONAL WEATHER SERVICE MISSOULA MT
1223 AM MDT TUE MAY 3 2016

Montana AWOS Reports

SCOBEY      |K9S2 030555Z AUTO 00000KT 25SM 08/M03 A3003 RMK AO1 T00831027
LAUREL      |K6S8 030555Z AUTO 00000KT 40SM 11/01 A3012 RMK AO1 T01060011
LAUREL      |K6S8 030615Z AUTO 00000KT 40SM 08/01 A3012 RMK AO1 T00830006
ROUNDUP     |KRPX 030615Z AUTO 26004KT 40SM 09/02 A3004 RMK AO1 T00890017
TWIN BRIDGES|K7S1 030615Z AUTO 00000KT 40SM 06/M05 A3013 RMK AO1 T00611049
PLAINS      |KS34 030555Z AUTO 00000KT 25SM 09/04 A3008 RMK AO1 T00940044






000
SXUS55 KMSO 030623
OSOMSO
MONTANA AWOS SUMMARY
NATIONAL WEATHER SERVICE MISSOULA MT
1223 AM MDT TUE MAY 3 2016

Montana AWOS Reports

SCOBEY      |K9S2 030555Z AUTO 00000KT 25SM 08/M03 A3003 RMK AO1 T00831027
LAUREL      |K6S8 030555Z AUTO 00000KT 40SM 11/01 A3012 RMK AO1 T01060011
LAUREL      |K6S8 030615Z AUTO 00000KT 40SM 08/01 A3012 RMK AO1 T00830006
ROUNDUP     |KRPX 030615Z AUTO 26004KT 40SM 09/02 A3004 RMK AO1 T00890017
TWIN BRIDGES|K7S1 030615Z AUTO 00000KT 40SM 06/M05 A3013 RMK AO1 T00611049
PLAINS      |KS34 030555Z AUTO 00000KT 25SM 09/04 A3008 RMK AO1 T00940044






000
SXUS55 KMSO 030604
OSOMSO
MONTANA AWOS SUMMARY
NATIONAL WEATHER SERVICE MISSOULA MT
1203 AM MDT TUE MAY 3 2016

Montana AWOS Reports

LAUREL      |K6S8 030555Z AUTO 00000KT 40SM 11/01 A3012 RMK AO1 T01060011
TWIN BRIDGES|K7S1 030555Z AUTO 05004KT 40SM 06/M04 A3014 RMK AO1 T00561043
ROUNDUP     |KRPX 030555Z AUTO 27004KT 40SM 09/02 A3004 RMK AO1 T00940017






000
SXUS55 KMSO 030604
OSOMSO
MONTANA AWOS SUMMARY
NATIONAL WEATHER SERVICE MISSOULA MT
1203 AM MDT TUE MAY 3 2016

Montana AWOS Reports

LAUREL      |K6S8 030555Z AUTO 00000KT 40SM 11/01 A3012 RMK AO1 T01060011
TWIN BRIDGES|K7S1 030555Z AUTO 05004KT 40SM 06/M04 A3014 RMK AO1 T00561043
ROUNDUP     |KRPX 030555Z AUTO 27004KT 40SM 09/02 A3004 RMK AO1 T00940017






000
SXUS55 KMSO 030544
OSOMSO
MONTANA AWOS SUMMARY
NATIONAL WEATHER SERVICE MISSOULA MT
1143 PM MDT MON MAY 2 2016

Montana AWOS Reports

LAUREL      |K6S8 030535Z AUTO 00000KT 40SM 09/01 A3012 RMK AO1 T00940011
ROUNDUP     |KRPX 030535Z AUTO 00000KT 40SM 10/02 A3004 RMK AO1 T01000017






000
SXUS55 KMSO 030544
OSOMSO
MONTANA AWOS SUMMARY
NATIONAL WEATHER SERVICE MISSOULA MT
1143 PM MDT MON MAY 2 2016

Montana AWOS Reports

LAUREL      |K6S8 030535Z AUTO 00000KT 40SM 09/01 A3012 RMK AO1 T00940011
ROUNDUP     |KRPX 030535Z AUTO 00000KT 40SM 10/02 A3004 RMK AO1 T01000017






000
SXUS55 KMSO 030523
OSOMSO
MONTANA AWOS SUMMARY
NATIONAL WEATHER SERVICE MISSOULA MT
1123 PM MDT MON MAY 2 2016

Montana AWOS Reports

LAUREL      |K6S8 030515Z AUTO 40SM 11/01 A3012 RMK AO1 T01060006
TWIN BRIDGES|K7S1 030515Z AUTO 00000KT 40SM 07/M05 A3013 RMK AO1 T00721049
ROUNDUP     |KRPX 030515Z AUTO 00000KT 40SM 11/02 A3004 RMK AO1 T01110017






000
SXUS55 KMSO 030523
OSOMSO
MONTANA AWOS SUMMARY
NATIONAL WEATHER SERVICE MISSOULA MT
1123 PM MDT MON MAY 2 2016

Montana AWOS Reports

LAUREL      |K6S8 030515Z AUTO 40SM 11/01 A3012 RMK AO1 T01060006
TWIN BRIDGES|K7S1 030515Z AUTO 00000KT 40SM 07/M05 A3013 RMK AO1 T00721049
ROUNDUP     |KRPX 030515Z AUTO 00000KT 40SM 11/02 A3004 RMK AO1 T01110017






000
SXUS55 KMSO 030513
OSOMSO
MONTANA AWOS SUMMARY
NATIONAL WEATHER SERVICE MISSOULA MT
1113 PM MDT MON MAY 2 2016

Montana AWOS Reports

LAUREL      |K6S8 030455Z AUTO 40SM 11/01 A3011 RMK AO1 T01060006






000
SXUS55 KMSO 030503
OSOMSO
MONTANA AWOS SUMMARY
NATIONAL WEATHER SERVICE MISSOULA MT
1103 PM MDT MON MAY 2 2016

Montana AWOS Reports

LAUREL      |K6S8 030455Z AUTO 40SM 11/01 A3011 RMK AO1 T01060006
ROUNDUP     |KRPX 030455Z AUTO 29004KT 40SM 13/01 A3004 RMK AO1 T01280006
EKALAKA     |K97M 030455Z AUTO 13006KT 40SM 08/00 A3005 RMK AO1 T00830000
PLAINS      |KS34 030455Z AUTO 00000KT 40SM 12/05 A3008 RMK AO1 T01170050
SCOBEY      |K9S2 030455Z AUTO 00000KT 25SM 10/M02 A3003 RMK AO1 T01001021
TWIN BRIDGES|K7S1 030455Z AUTO 04006KT 40SM 08/M05 A3013 RMK AO1 T00781049






000
SXUS55 KMSO 030443
OSOMSO
MONTANA AWOS SUMMARY
NATIONAL WEATHER SERVICE MISSOULA MT
1043 PM MDT MON MAY 2 2016

Montana AWOS Reports

LAUREL      |K6S8 030435Z AUTO 40SM 11/01 A3011 RMK AO1 T01110006
TWIN BRIDGES|K7S1 030435Z AUTO 06004KT 40SM 09/M04 A3013 RMK AO1 T00891043
ROUNDUP     |KRPX 030435Z AUTO 00000KT 40SM 14/00 A3004 RMK AO1 T01390000






000
SXUS55 KMSO 030423
OSOMSO
MONTANA AWOS SUMMARY
NATIONAL WEATHER SERVICE MISSOULA MT
1023 PM MDT MON MAY 2 2016

Montana AWOS Reports

LAUREL      |K6S8 030415Z AUTO 40SM 12/01 A3011 RMK AO1 T01170006
TWIN BRIDGES|K7S1 030415Z AUTO 00000KT 25SM 09/M03 A3013 RMK AO1 T00891032
ROUNDUP     |KRPX 030415Z AUTO 00000KT 40SM 15/00 A3004 RMK AO1 T01500000






000
SXUS55 KMSO 030413
OSOMSO
MONTANA AWOS SUMMARY
NATIONAL WEATHER SERVICE MISSOULA MT
1013 PM MDT MON MAY 2 2016

Montana AWOS Reports

LAUREL      |K6S8 030355Z AUTO 40SM 13/01 A3011 RMK AO1 T01280011
PLAINS      |KS34 030355Z AUTO 00000KT 25SM 14/05 A3007 RMK AO1 T01390050






000
SXUS55 KMSO 030403
OSOMSO
MONTANA AWOS SUMMARY
NATIONAL WEATHER SERVICE MISSOULA MT
1003 PM MDT MON MAY 2 2016

Montana AWOS Reports

LAUREL      |K6S8 030355Z AUTO 40SM 13/01 A3011 RMK AO1 T01280011
TWIN BRIDGES|K7S1 030355Z AUTO 00000KT 40SM 10/M06 A3012 RMK AO1 T01001055
ROUNDUP     |KRPX 030355Z AUTO 00000KT 40SM 16/01 A3004 RMK AO1 T01560006
SCOBEY      |K9S2 030355Z AUTO 00000KT 40SM 12/M02 A3002 RMK AO1 T01171016
EKALAKA     |K97M 030355Z AUTO 13006KT 40SM 12/02 A3005 RMK AO1 T01170022






000
SXUS55 KMSO 030343
OSOMSO
MONTANA AWOS SUMMARY
NATIONAL WEATHER SERVICE MISSOULA MT
943 PM MDT MON MAY 2 2016

Montana AWOS Reports

LAUREL      |K6S8 030335Z AUTO 00000KT 40SM 14/01 A3010 RMK AO1 T01390006
TWIN BRIDGES|K7S1 030335Z AUTO 06006KT 40SM 11/M05 A3012 RMK AO1 T01061049
ROUNDUP     |KRPX 030335Z AUTO 00000KT 40SM 15/00 A3003 RMK AO1 T01500000






000
SXUS55 KMSO 030323
OSOMSO
MONTANA AWOS SUMMARY
NATIONAL WEATHER SERVICE MISSOULA MT
922 PM MDT MON MAY 2 2016

Montana AWOS Reports

LAUREL      |K6S8 030315Z AUTO 00000KT 40SM 14/01 A3010 RMK AO1 T01390006
TWIN BRIDGES|K7S1 030315Z AUTO 03005KT 40SM 12/M06 A3011 RMK AO1 T01171060
ROUNDUP     |KRPX 030315Z AUTO 00000KT 40SM 15/00 A3003 RMK AO1 T01500000






000
SXUS55 KMSO 030313
OSOMSO
MONTANA AWOS SUMMARY
NATIONAL WEATHER SERVICE MISSOULA MT
913 PM MDT MON MAY 2 2016

Montana AWOS Reports

LAUREL      |K6S8 030255Z AUTO 00000KT 40SM 14/01 A3010 RMK AO1 T01390006






000
SXUS55 KMSO 030303
OSOMSO
MONTANA AWOS SUMMARY
NATIONAL WEATHER SERVICE MISSOULA MT
903 PM MDT MON MAY 2 2016

Montana AWOS Reports

SCOBEY      |K9S2 030255Z AUTO 00000KT 40SM 14/M01 A3002 RMK AO1 T01391005
TWIN BRIDGES|K7S1 030255Z AUTO 02005KT 40SM 13/M06 A3011 RMK AO1 T01331055
PLAINS      |KS34 030255Z AUTO 00000KT 40SM 21/07 A3005 RMK AO1 T02110072






000
SXUS55 KMSO 030243
OSOMSO
MONTANA AWOS SUMMARY
NATIONAL WEATHER SERVICE MISSOULA MT
843 PM MDT MON MAY 2 2016

Montana AWOS Reports

LAUREL      |K6S8 030235Z AUTO 00000KT 40SM 15/01 A3009 RMK AO1 T01500011
TWIN BRIDGES|K7S1 030235Z AUTO 02005KT 40SM 14/M04 A3010 RMK AO1 T01441043
ROUNDUP     |KRPX 030235Z AUTO 00000KT 40SM 17/00 A3003 RMK AO1 T01720000






000
SXUS55 KMSO 030224
OSOMSO
MONTANA AWOS SUMMARY
NATIONAL WEATHER SERVICE MISSOULA MT
823 PM MDT MON MAY 2 2016

Montana AWOS Reports

LAUREL      |K6S8 030215Z AUTO 00000KT 40SM 17/02 A3010 RMK AO1 T01720017
TWIN BRIDGES|K7S1 030215Z AUTO 00000KT 40SM 18/M03 A3010 RMK AO1 T01831027
ROUNDUP     |KRPX 030215Z AUTO 00000KT 40SM 17/00 A3003 RMK AO1 T01720000






000
SXUS55 KMSO 030213
OSOMSO
MONTANA AWOS SUMMARY
NATIONAL WEATHER SERVICE MISSOULA MT
813 PM MDT MON MAY 2 2016

Montana AWOS Reports

LAUREL      |K6S8 030155Z AUTO 00000KT 40SM 18/01 A3009 RMK AO1 T01780011






000
SXUS55 KMSO 030204
OSOMSO
MONTANA AWOS SUMMARY
NATIONAL WEATHER SERVICE MISSOULA MT
803 PM MDT MON MAY 2 2016

Montana AWOS Reports

LAUREL      |K6S8 030155Z AUTO 00000KT 40SM 18/01 A3009 RMK AO1 T01780011
TWIN BRIDGES|K7S1 030155Z AUTO 00000KT 40SM 20/M02 A3010 RMK AO1 T02001021
ROUNDUP     |KRPX 030155Z AUTO 00000KT 40SM 18/01 A3002 RMK AO1 T01780011
EKALAKA     |K97M 030155Z AUTO 00000KT 40SM 13/02 A3002 RMK AO1 T01330022
SCOBEY      |K9S2 030155Z AUTO 00000KT 40SM 19/02 A3001 RMK AO1 T01940017
PLAINS      |KS34 030155Z AUTO 00000KT 40SM 23/07 A3004 RMK AO1 T02280067






000
SXUS55 KMSO 030204
OSOMSO
MONTANA AWOS SUMMARY
NATIONAL WEATHER SERVICE MISSOULA MT
803 PM MDT MON MAY 2 2016

Montana AWOS Reports

LAUREL      |K6S8 030155Z AUTO 00000KT 40SM 18/01 A3009 RMK AO1 T01780011
TWIN BRIDGES|K7S1 030155Z AUTO 00000KT 40SM 20/M02 A3010 RMK AO1 T02001021
ROUNDUP     |KRPX 030155Z AUTO 00000KT 40SM 18/01 A3002 RMK AO1 T01780011
EKALAKA     |K97M 030155Z AUTO 00000KT 40SM 13/02 A3002 RMK AO1 T01330022
SCOBEY      |K9S2 030155Z AUTO 00000KT 40SM 19/02 A3001 RMK AO1 T01940017
PLAINS      |KS34 030155Z AUTO 00000KT 40SM 23/07 A3004 RMK AO1 T02280067






000
SXUS55 KMSO 030143
OSOMSO
MONTANA AWOS SUMMARY
NATIONAL WEATHER SERVICE MISSOULA MT
743 PM MDT MON MAY 2 2016

Montana AWOS Reports

LAUREL      |K6S8 030135Z AUTO 00000KT 40SM 19/02 A3009 RMK AO1 T01940017
TWIN BRIDGES|K7S1 030135Z AUTO 00000KT 40SM 21/M05 A3010 RMK AO1 T02061049
ROUNDUP     |KRPX 030135Z AUTO 00000KT 40SM 18/01 A3002 RMK AO1 T01830011






000
SXUS55 KMSO 030124
OSOMSO
MONTANA AWOS SUMMARY
NATIONAL WEATHER SERVICE MISSOULA MT
723 PM MDT MON MAY 2 2016

Montana AWOS Reports

LAUREL      |K6S8 030115Z AUTO 00000KT 40SM 20/00 A3009 RMK AO1 T02000000
TWIN BRIDGES|K7S1 030115Z AUTO 26004KT 40SM 21/M07 A3010 RMK AO1 T02061066
ROUNDUP     |KRPX 030115Z AUTO 00000KT 40SM 19/01 A3002 RMK AO1 T01890011






000
SXUS55 KMSO 030113
OSOMSO
MONTANA AWOS SUMMARY
NATIONAL WEATHER SERVICE MISSOULA MT
713 PM MDT MON MAY 2 2016

Montana AWOS Reports

LAUREL      |K6S8 030055Z AUTO 00000KT 40SM 21/M01 A3009 RMK AO1 T02061005






000
SXUS55 KMSO 030104
OSOMSO
MONTANA AWOS SUMMARY
NATIONAL WEATHER SERVICE MISSOULA MT
703 PM MDT MON MAY 2 2016

Montana AWOS Reports

LAUREL      |K6S8 030055Z AUTO 00000KT 40SM 21/M01 A3009 RMK AO1 T02061005
ROUNDUP     |KRPX 030055Z AUTO 04004KT 40SM 19/00 A3002 RMK AO1 T01940000
PLAINS      |KS34 030055Z AUTO 00000KT 25SM 26/06 A3004 RMK AO1 T02610056
TWIN BRIDGES|K7S1 030055Z AUTO 21004KT 40SM 21/M03 A3010 RMK AO1 T02061027
SCOBEY      |K9S2 030055Z AUTO 01009G14KT 40SM 22/01 A3000 RMK AO1 T02220011
EKALAKA     |K97M 030055Z AUTO 30012G16KT 40SM 17/01 A3002 RMK AO1 T01670011






000
SXUS55 KMSO 030104
OSOMSO
MONTANA AWOS SUMMARY
NATIONAL WEATHER SERVICE MISSOULA MT
703 PM MDT MON MAY 2 2016

Montana AWOS Reports

LAUREL      |K6S8 030055Z AUTO 00000KT 40SM 21/M01 A3009 RMK AO1 T02061005
ROUNDUP     |KRPX 030055Z AUTO 04004KT 40SM 19/00 A3002 RMK AO1 T01940000
PLAINS      |KS34 030055Z AUTO 00000KT 25SM 26/06 A3004 RMK AO1 T02610056
TWIN BRIDGES|K7S1 030055Z AUTO 21004KT 40SM 21/M03 A3010 RMK AO1 T02061027
SCOBEY      |K9S2 030055Z AUTO 01009G14KT 40SM 22/01 A3000 RMK AO1 T02220011
EKALAKA     |K97M 030055Z AUTO 30012G16KT 40SM 17/01 A3002 RMK AO1 T01670011






000
SXUS55 KMSO 030043
OSOMSO
MONTANA AWOS SUMMARY
NATIONAL WEATHER SERVICE MISSOULA MT
643 PM MDT MON MAY 2 2016

Montana AWOS Reports

LAUREL      |K6S8 030035Z AUTO 00000KT 40SM 21/M01 A3009 RMK AO1 T02111005
TWIN BRIDGES|K7S1 030035Z AUTO 23004KT 40SM 21/M06 A3010 RMK AO1 T02061055
ROUNDUP     |KRPX 030035Z AUTO 01004KT 40SM 20/00 A3002 RMK AO1 T02000000






000
SXUS55 KMSO 030024
OSOMSO
MONTANA AWOS SUMMARY
NATIONAL WEATHER SERVICE MISSOULA MT
623 PM MDT MON MAY 2 2016

Montana AWOS Reports

TWIN BRIDGES|K7S1 030015Z AUTO 20006KT 40SM 21/M05 A3011 RMK AO1 T02111049
ROUNDUP     |KRPX 030015Z AUTO 00000KT 40SM 20/00 A3002 RMK AO1 T02000000






000
SXUS55 KMSO 030013
OSOMSO
MONTANA AWOS SUMMARY
NATIONAL WEATHER SERVICE MISSOULA MT
613 PM MDT MON MAY 2 2016

Montana AWOS Reports

SCOBEY      |K9S2 022355Z AUTO 34011KT 40SM 23/00 A3000 RMK AO1 T02330000
EKALAKA     |K97M 022355Z AUTO 32008KT 40SM 18/01 A3002 RMK AO1 T01780011
PLAINS      |KS34 022355Z AUTO 00000KT 40SM 27/04 A3005 RMK AO1 T02670044






000
SXUS55 KMSO 030013
OSOMSO
MONTANA AWOS SUMMARY
NATIONAL WEATHER SERVICE MISSOULA MT
613 PM MDT MON MAY 2 2016

Montana AWOS Reports

SCOBEY      |K9S2 022355Z AUTO 34011KT 40SM 23/00 A3000 RMK AO1 T02330000
EKALAKA     |K97M 022355Z AUTO 32008KT 40SM 18/01 A3002 RMK AO1 T01780011
PLAINS      |KS34 022355Z AUTO 00000KT 40SM 27/04 A3005 RMK AO1 T02670044






000
SXUS55 KMSO 030003
OSOMSO
MONTANA AWOS SUMMARY
NATIONAL WEATHER SERVICE MISSOULA MT
602 PM MDT MON MAY 2 2016

Montana AWOS Reports

LAUREL      |K6S8 022355Z AUTO 01004KT 40SM 22/M02 A3009 RMK AO1 T02171016
TWIN BRIDGES|K7S1 022355Z AUTO 21004KT 5SM HZ 21/M04 A3011 RMK AO1 T02111043
ROUNDUP     |KRPX 022355Z AUTO 03005KT 40SM 20/00 A3002 RMK AO1 T02000000






000
SXUS55 KMSO 030003
OSOMSO
MONTANA AWOS SUMMARY
NATIONAL WEATHER SERVICE MISSOULA MT
602 PM MDT MON MAY 2 2016

Montana AWOS Reports

LAUREL      |K6S8 022355Z AUTO 01004KT 40SM 22/M02 A3009 RMK AO1 T02171016
TWIN BRIDGES|K7S1 022355Z AUTO 21004KT 5SM HZ 21/M04 A3011 RMK AO1 T02111043
ROUNDUP     |KRPX 022355Z AUTO 03005KT 40SM 20/00 A3002 RMK AO1 T02000000






000
SXUS55 KMSO 022343
OSOMSO
MONTANA AWOS SUMMARY
NATIONAL WEATHER SERVICE MISSOULA MT
543 PM MDT MON MAY 2 2016

Montana AWOS Reports

LAUREL      |K6S8 022335Z AUTO 00000KT 40SM 22/M02 A3009 RMK AO1 T02171016
ROUNDUP     |KRPX 022335Z AUTO 00000KT 40SM 20/00 A3002 RMK AO1 T02000000






000
SXUS55 KMSO 022343
OSOMSO
MONTANA AWOS SUMMARY
NATIONAL WEATHER SERVICE MISSOULA MT
543 PM MDT MON MAY 2 2016

Montana AWOS Reports

LAUREL      |K6S8 022335Z AUTO 00000KT 40SM 22/M02 A3009 RMK AO1 T02171016
ROUNDUP     |KRPX 022335Z AUTO 00000KT 40SM 20/00 A3002 RMK AO1 T02000000






000
SXUS55 KMSO 022324
OSOMSO
MONTANA AWOS SUMMARY
NATIONAL WEATHER SERVICE MISSOULA MT
523 PM MDT MON MAY 2 2016

Montana AWOS Reports

LAUREL      |K6S8 022315Z AUTO 00000KT 40SM 22/M01 A3009 RMK AO1 T02171010
TWIN BRIDGES|K7S1 022315Z AUTO 00000KT 10SM 21/M04 A3011 RMK AO1 T02061038
ROUNDUP     |KRPX 022315Z AUTO 00000KT 40SM 21/01 A3002 RMK AO1 T02060006






000
SXUS55 KMSO 022324
OSOMSO
MONTANA AWOS SUMMARY
NATIONAL WEATHER SERVICE MISSOULA MT
523 PM MDT MON MAY 2 2016

Montana AWOS Reports

LAUREL      |K6S8 022315Z AUTO 00000KT 40SM 22/M01 A3009 RMK AO1 T02171010
TWIN BRIDGES|K7S1 022315Z AUTO 00000KT 10SM 21/M04 A3011 RMK AO1 T02061038
ROUNDUP     |KRPX 022315Z AUTO 00000KT 40SM 21/01 A3002 RMK AO1 T02060006






000
SXUS55 KMSO 022313
OSOMSO
MONTANA AWOS SUMMARY
NATIONAL WEATHER SERVICE MISSOULA MT
513 PM MDT MON MAY 2 2016

Montana AWOS Reports

LAUREL      |K6S8 022255Z AUTO 34005KT 40SM 21/M02 A3009 RMK AO1 T02111016






000
SXUS55 KMSO 022313
OSOMSO
MONTANA AWOS SUMMARY
NATIONAL WEATHER SERVICE MISSOULA MT
513 PM MDT MON MAY 2 2016

Montana AWOS Reports

LAUREL      |K6S8 022255Z AUTO 34005KT 40SM 21/M02 A3009 RMK AO1 T02111016






000
SXUS55 KMSO 022304
OSOMSO
MONTANA AWOS SUMMARY
NATIONAL WEATHER SERVICE MISSOULA MT
503 PM MDT MON MAY 2 2016

Montana AWOS Reports

LAUREL      |K6S8 022255Z AUTO 34005KT 40SM 21/M02 A3009 RMK AO1 T02111016
TWIN BRIDGES|K7S1 022255Z AUTO 00000KT 40SM 21/M04 A3011 RMK AO1 T02061038
ROUNDUP     |KRPX 022255Z AUTO 03006KT 40SM 21/01 A3002 RMK AO1 T02060006
PLAINS      |KS34 022255Z AUTO 00000KT 40SM 27/06 A3006 RMK AO1 T02670056
SCOBEY      |K9S2 022255Z AUTO 36010G19KT 40SM 23/02 A2999 RMK AO1 T02330017
EKALAKA     |K97M 022255Z AUTO 32015G19KT 40SM 19/00 A3002 RMK AO1 T01890000






000
SXUS55 KMSO 022304
OSOMSO
MONTANA AWOS SUMMARY
NATIONAL WEATHER SERVICE MISSOULA MT
503 PM MDT MON MAY 2 2016

Montana AWOS Reports

LAUREL      |K6S8 022255Z AUTO 34005KT 40SM 21/M02 A3009 RMK AO1 T02111016
TWIN BRIDGES|K7S1 022255Z AUTO 00000KT 40SM 21/M04 A3011 RMK AO1 T02061038
ROUNDUP     |KRPX 022255Z AUTO 03006KT 40SM 21/01 A3002 RMK AO1 T02060006
PLAINS      |KS34 022255Z AUTO 00000KT 40SM 27/06 A3006 RMK AO1 T02670056
SCOBEY      |K9S2 022255Z AUTO 36010G19KT 40SM 23/02 A2999 RMK AO1 T02330017
EKALAKA     |K97M 022255Z AUTO 32015G19KT 40SM 19/00 A3002 RMK AO1 T01890000






000
SXUS55 KMSO 022243
OSOMSO
MONTANA AWOS SUMMARY
NATIONAL WEATHER SERVICE MISSOULA MT
443 PM MDT MON MAY 2 2016

Montana AWOS Reports

LAUREL      |K6S8 022235Z AUTO 00000KT 40SM 21/M02 A3009 RMK AO1 T02111021
TWIN BRIDGES|K7S1 022235Z AUTO 11006KT 40SM 21/M04 A3012 RMK AO1 T02061038
ROUNDUP     |KRPX 022235Z AUTO 02005KT 40SM 21/01 A3002 RMK AO1 T02060006






000
SXUS55 KMSO 022223
OSOMSO
MONTANA AWOS SUMMARY
NATIONAL WEATHER SERVICE MISSOULA MT
423 PM MDT MON MAY 2 2016

Montana AWOS Reports

LAUREL      |K6S8 022215Z AUTO 35005KT 40SM 22/00 A3009 RMK AO1 T02170000
TWIN BRIDGES|K7S1 022215Z AUTO 15005KT 40SM 21/M04 A3012 RMK AO1 T02061038
ROUNDUP     |KRPX 022215Z AUTO 35007KT 40SM 21/01 A3002 RMK AO1 T02060006






000
SXUS55 KMSO 022213
OSOMSO
MONTANA AWOS SUMMARY
NATIONAL WEATHER SERVICE MISSOULA MT
412 PM MDT MON MAY 2 2016

Montana AWOS Reports

LAUREL      |K6S8 022155Z AUTO 00000KT 40SM 21/M01 A3010 RMK AO1 T02111010






000
SXUS55 KMSO 022203
OSOMSO
MONTANA AWOS SUMMARY
NATIONAL WEATHER SERVICE MISSOULA MT
403 PM MDT MON MAY 2 2016

Montana AWOS Reports

LAUREL      |K6S8 022155Z AUTO 00000KT 40SM 21/M01 A3010 RMK AO1 T02111010
TWIN BRIDGES|K7S1 022155Z AUTO 07004KT 40SM 20/M04 A3013 RMK AO1 T02001043
ROUNDUP     |KRPX 022155Z AUTO 34004KT 40SM 21/01 A3002 RMK AO1 T02060006
SCOBEY      |K9S2 022155Z AUTO 34008KT 40SM 24/01 A3000 RMK AO1 T02390011
PLAINS      |KS34 022155Z AUTO 00000KT 40SM 26/05 A3008 RMK AO1 T02560050
EKALAKA     |K97M 022155Z AUTO 31013G21KT 40SM 19/00 A3002 RMK AO1 T01890000






000
SXUS55 KMSO 022143
OSOMSO
MONTANA AWOS SUMMARY
NATIONAL WEATHER SERVICE MISSOULA MT
342 PM MDT MON MAY 2 2016

Montana AWOS Reports

LAUREL      |K6S8 022135Z AUTO 00000KT 40SM 21/M01 A3010 RMK AO1 T02111005
ROUNDUP     |KRPX 022135Z AUTO VRB06KT 40SM 21/01 A3003 RMK AO1 T02060006






000
SXUS55 KMSO 022143
OSOMSO
MONTANA AWOS SUMMARY
NATIONAL WEATHER SERVICE MISSOULA MT
342 PM MDT MON MAY 2 2016

Montana AWOS Reports

LAUREL      |K6S8 022135Z AUTO 00000KT 40SM 21/M01 A3010 RMK AO1 T02111005
ROUNDUP     |KRPX 022135Z AUTO VRB06KT 40SM 21/01 A3003 RMK AO1 T02060006






000
SXUS55 KMSO 022123
OSOMSO
MONTANA AWOS SUMMARY
NATIONAL WEATHER SERVICE MISSOULA MT
323 PM MDT MON MAY 2 2016

Montana AWOS Reports

ROUNDUP     |KRPX 022115Z AUTO 35005KT 40SM 20/00 A3004 RMK AO1 T02000000






000
SXUS55 KMSO 022123
OSOMSO
MONTANA AWOS SUMMARY
NATIONAL WEATHER SERVICE MISSOULA MT
323 PM MDT MON MAY 2 2016

Montana AWOS Reports

ROUNDUP     |KRPX 022115Z AUTO 35005KT 40SM 20/00 A3004 RMK AO1 T02000000






000
SXUS55 KMSO 022113
OSOMSO
MONTANA AWOS SUMMARY
NATIONAL WEATHER SERVICE MISSOULA MT
312 PM MDT MON MAY 2 2016

Montana AWOS Reports

LAUREL      |K6S8 022055Z AUTO 00000KT 40SM 21/M01 A3011 RMK AO1 T02061005






000
SXUS55 KMSO 022103
OSOMSO
MONTANA AWOS SUMMARY
NATIONAL WEATHER SERVICE MISSOULA MT
303 PM MDT MON MAY 2 2016

Montana AWOS Reports

LAUREL      |K6S8 022055Z AUTO 00000KT 40SM 21/M01 A3011 RMK AO1 T02061005
TWIN BRIDGES|K7S1 022055Z AUTO 21005KT 40SM 19/M06 A3015 RMK AO1 T01891060






000
SXUS55 KMSO 022043
OSOMSO
MONTANA AWOS SUMMARY
NATIONAL WEATHER SERVICE MISSOULA MT
243 PM MDT MON MAY 2 2016

Montana AWOS Reports

LAUREL      |K6S8 022035Z AUTO 00000KT 40SM 20/M01 A3012 RMK AO1 T02001010
TWIN BRIDGES|K7S1 022035Z AUTO 11004KT 40SM 19/M04 A3015 RMK AO1 T01891043
ROUNDUP     |KRPX 022035Z AUTO 00000KT 40SM 20/00 A3004 RMK AO1 T02000000






000
SXUS55 KMSO 022043
OSOMSO
MONTANA AWOS SUMMARY
NATIONAL WEATHER SERVICE MISSOULA MT
243 PM MDT MON MAY 2 2016

Montana AWOS Reports

LAUREL      |K6S8 022035Z AUTO 00000KT 40SM 20/M01 A3012 RMK AO1 T02001010
TWIN BRIDGES|K7S1 022035Z AUTO 11004KT 40SM 19/M04 A3015 RMK AO1 T01891043
ROUNDUP     |KRPX 022035Z AUTO 00000KT 40SM 20/00 A3004 RMK AO1 T02000000






000
SXUS55 KMSO 022023
OSOMSO
MONTANA AWOS SUMMARY
NATIONAL WEATHER SERVICE MISSOULA MT
223 PM MDT MON MAY 2 2016

Montana AWOS Reports

LAUREL      |K6S8 022015Z AUTO 00000KT 40SM 20/M03 A3012 RMK AO1 T02001027
TWIN BRIDGES|K7S1 022015Z AUTO 21005KT 40SM 19/M04 A3016 RMK AO1 T01891043
ROUNDUP     |KRPX 022015Z AUTO 34005KT 40SM 20/00 A3004 RMK AO1 T02000000






000
SXUS55 KMSO 022013
OSOMSO
MONTANA AWOS SUMMARY
NATIONAL WEATHER SERVICE MISSOULA MT
212 PM MDT MON MAY 2 2016

Montana AWOS Reports

LAUREL      |K6S8 021955Z AUTO 29006KT 40SM 19/M01 A3012 RMK AO1 T01941005






000
SXUS55 KMSO 022003
OSOMSO
MONTANA AWOS SUMMARY
NATIONAL WEATHER SERVICE MISSOULA MT
203 PM MDT MON MAY 2 2016

Montana AWOS Reports

LAUREL      |K6S8 021955Z AUTO 29006KT 40SM 19/M01 A3012 RMK AO1 T01941005
TWIN BRIDGES|K7S1 021955Z AUTO 00000KT 40SM 18/M05 A3016 RMK AO1 T01781049
ROUNDUP     |KRPX 021955Z AUTO 00000KT 40SM 19/00 A3004 RMK AO1 T01940000
SCOBEY      |K9S2 021955Z AUTO 34012G20KT 40SM 24/01 A3001 RMK AO1 T02390006
PLAINS      |KS34 021955Z AUTO 00000KT 25SM 24/07 A3012 RMK AO1 T02440067
EKALAKA     |K97M 021955Z AUTO 32016G21KT 7SM 17/01 A3005 RMK AO1 T01670011






000
SXUS55 KMSO 021944
OSOMSO
MONTANA AWOS SUMMARY
NATIONAL WEATHER SERVICE MISSOULA MT
143 PM MDT MON MAY 2 2016

Montana AWOS Reports

LAUREL      |K6S8 021935Z AUTO 00000KT 40SM 19/M01 A3012 RMK AO1 T01891010
ROUNDUP     |KRPX 021935Z AUTO 01006KT 40SM 19/00 A3005 RMK AO1 T01940000






000
SXUS55 KMSO 021923
OSOMSO
MONTANA AWOS SUMMARY
NATIONAL WEATHER SERVICE MISSOULA MT
122 PM MDT MON MAY 2 2016

Montana AWOS Reports

LAUREL      |K6S8 021915Z AUTO 19006KT 40SM 18/M01 A3013 RMK AO1 T01781010
TWIN BRIDGES|K7S1 021915Z AUTO 00000KT 40SM 17/M04 A3017 RMK AO1 T01721038
ROUNDUP     |KRPX 021915Z AUTO 40SM 19/M01 A3005 RMK AO1 T01941010






000
SXUS55 KMSO 021913
OSOMSO
MONTANA AWOS SUMMARY
NATIONAL WEATHER SERVICE MISSOULA MT
113 PM MDT MON MAY 2 2016

Montana AWOS Reports

PLAINS      |KS34 021855Z AUTO 00000KT 25SM 21/07 A3015 RMK AO1 T02110067






000
SXUS55 KMSO 021903
OSOMSO
MONTANA AWOS SUMMARY
NATIONAL WEATHER SERVICE MISSOULA MT
103 PM MDT MON MAY 2 2016

Montana AWOS Reports

LAUREL      |K6S8 021855Z AUTO 00000KT 40SM 18/01 A3014 RMK AO1 T01780011
TWIN BRIDGES|K7S1 021855Z AUTO 00000KT 40SM 16/M04 A3018 RMK AO1 T01611043
ROUNDUP     |KRPX 021855Z AUTO 00000KT 40SM 19/M01 A3005 RMK AO1 T01891010
SCOBEY      |K9S2 021855Z AUTO 29015G22KT 40SM 23/01 A3003 RMK AO1 T02330011
EKALAKA     |K97M 021855Z AUTO 30012G21KT 7SM 17/02 A3007 RMK AO1 T01720017






000
SXUS55 KMSO 021843
OSOMSO
MONTANA AWOS SUMMARY
NATIONAL WEATHER SERVICE MISSOULA MT
1243 PM MDT MON MAY 2 2016

Montana AWOS Reports

LAUREL      |K6S8 021835Z AUTO 00000KT 40SM 17/00 A3015 RMK AO1 T01670000
ROUNDUP     |KRPX 021835Z AUTO VRB05KT 40SM 18/M01 A3006 RMK AO1 T01831010






000
SXUS55 KMSO 021823
OSOMSO
MONTANA AWOS SUMMARY
NATIONAL WEATHER SERVICE MISSOULA MT
1222 PM MDT MON MAY 2 2016

Montana AWOS Reports

LAUREL      |K6S8 021815Z AUTO 18006KT 40SM 17/01 A3015 RMK AO1 T01670006
ROUNDUP     |KRPX 021815Z AUTO 32010KT 270V010 40SM 18/00 A3006 RMK AO1 T01830000






000
SXUS55 KMSO 021823
OSOMSO
MONTANA AWOS SUMMARY
NATIONAL WEATHER SERVICE MISSOULA MT
1222 PM MDT MON MAY 2 2016

Montana AWOS Reports

LAUREL      |K6S8 021815Z AUTO 18006KT 40SM 17/01 A3015 RMK AO1 T01670006
ROUNDUP     |KRPX 021815Z AUTO 32010KT 270V010 40SM 18/00 A3006 RMK AO1 T01830000






000
SXUS55 KMSO 021813
OSOMSO
MONTANA AWOS SUMMARY
NATIONAL WEATHER SERVICE MISSOULA MT
1213 PM MDT MON MAY 2 2016

Montana AWOS Reports

EKALAKA     |K97M 021755Z AUTO 32014G19KT 7SM 16/00 A3008 RMK AO1 T01610000






000
SXUS55 KMSO 021813
OSOMSO
MONTANA AWOS SUMMARY
NATIONAL WEATHER SERVICE MISSOULA MT
1213 PM MDT MON MAY 2 2016

Montana AWOS Reports

EKALAKA     |K97M 021755Z AUTO 32014G19KT 7SM 16/00 A3008 RMK AO1 T01610000






000
SXUS55 KMSO 021804
OSOMSO
MONTANA AWOS SUMMARY
NATIONAL WEATHER SERVICE MISSOULA MT
1203 PM MDT MON MAY 2 2016

Montana AWOS Reports

SCOBEY      |K9S2 021755Z AUTO 30017G22KT 40SM 22/00 A3004 RMK AO1 T02220000
PLAINS      |KS34 021755Z AUTO 00000KT 40SM 19/07 A3016 RMK AO1 T01890067
LAUREL      |K6S8 021755Z AUTO 19005KT 40SM 16/00 A3016 RMK AO1 T01610000






000
SXUS55 KMSO 021804
OSOMSO
MONTANA AWOS SUMMARY
NATIONAL WEATHER SERVICE MISSOULA MT
1203 PM MDT MON MAY 2 2016

Montana AWOS Reports

SCOBEY      |K9S2 021755Z AUTO 30017G22KT 40SM 22/00 A3004 RMK AO1 T02220000
PLAINS      |KS34 021755Z AUTO 00000KT 40SM 19/07 A3016 RMK AO1 T01890067
LAUREL      |K6S8 021755Z AUTO 19005KT 40SM 16/00 A3016 RMK AO1 T01610000






000
SXUS55 KMSO 021743
OSOMSO
MONTANA AWOS SUMMARY
NATIONAL WEATHER SERVICE MISSOULA MT
1143 AM MDT MON MAY 2 2016

Montana AWOS Reports

LAUREL      |K6S8 021735Z AUTO 00000KT 40SM 15/M01 A3016 RMK AO1 T01501005
ROUNDUP     |KRPX 021735Z AUTO 29008KT 40SM 18/00 A3007 RMK AO1 T01780000






000
SXUS55 KMSO 021743
OSOMSO
MONTANA AWOS SUMMARY
NATIONAL WEATHER SERVICE MISSOULA MT
1143 AM MDT MON MAY 2 2016

Montana AWOS Reports

LAUREL      |K6S8 021735Z AUTO 00000KT 40SM 15/M01 A3016 RMK AO1 T01501005
ROUNDUP     |KRPX 021735Z AUTO 29008KT 40SM 18/00 A3007 RMK AO1 T01780000






000
SXUS55 KMSO 021723
OSOMSO
MONTANA AWOS SUMMARY
NATIONAL WEATHER SERVICE MISSOULA MT
1123 AM MDT MON MAY 2 2016

Montana AWOS Reports

LAUREL      |K6S8 021715Z AUTO 18006KT 40SM 15/M01 A3016 RMK AO1 T01501005
ROUNDUP     |KRPX 021715Z AUTO 31006KT 40SM 17/01 A3007 RMK AO1 T01670011






000
SXUS55 KMSO 021713
OSOMSO
MONTANA AWOS SUMMARY
NATIONAL WEATHER SERVICE MISSOULA MT
1113 AM MDT MON MAY 2 2016

Montana AWOS Reports

SCOBEY      |K9S2 021655Z AUTO 30016G22KT 40SM 21/01 A3005 RMK AO1 T02110006
EKALAKA     |K97M 021655Z AUTO 29015G20KT 15SM 14/M01 A3009 RMK AO1 T01441005






000
SXUS55 KMSO 021713
OSOMSO
MONTANA AWOS SUMMARY
NATIONAL WEATHER SERVICE MISSOULA MT
1113 AM MDT MON MAY 2 2016

Montana AWOS Reports

SCOBEY      |K9S2 021655Z AUTO 30016G22KT 40SM 21/01 A3005 RMK AO1 T02110006
EKALAKA     |K97M 021655Z AUTO 29015G20KT 15SM 14/M01 A3009 RMK AO1 T01441005






000
SXUS55 KMSO 021643
OSOMSO
MONTANA AWOS SUMMARY
NATIONAL WEATHER SERVICE MISSOULA MT
1043 AM MDT MON MAY 2 2016

Montana AWOS Reports

LAUREL      |K6S8 021635Z AUTO 21008KT 40SM 14/M01 A3017 RMK AO1 T01391005
TWIN BRIDGES|K7S1 021635Z AUTO 11006KT 40SM 12/M01 A3020 RMK AO1 T01171005
ROUNDUP     |KRPX 021635Z AUTO 00000KT 40SM 14/03 A3008 RMK AO1 T01440028






000
SXUS55 KMSO 021643
OSOMSO
MONTANA AWOS SUMMARY
NATIONAL WEATHER SERVICE MISSOULA MT
1043 AM MDT MON MAY 2 2016

Montana AWOS Reports

LAUREL      |K6S8 021635Z AUTO 21008KT 40SM 14/M01 A3017 RMK AO1 T01391005
TWIN BRIDGES|K7S1 021635Z AUTO 11006KT 40SM 12/M01 A3020 RMK AO1 T01171005
ROUNDUP     |KRPX 021635Z AUTO 00000KT 40SM 14/03 A3008 RMK AO1 T01440028






000
SXUS55 KMSO 021623
OSOMSO
MONTANA AWOS SUMMARY
NATIONAL WEATHER SERVICE MISSOULA MT
1023 AM MDT MON MAY 2 2016

Montana AWOS Reports

LAUREL      |K6S8 021615Z AUTO 21009KT 40SM 12/M01 A3017 RMK AO1 T01221005
TWIN BRIDGES|K7S1 021615Z AUTO 00000KT 40SM 11/M01 A3021 RMK AO1 T01061005
ROUNDUP     |KRPX 021615Z AUTO 00000KT 40SM 13/02 A3008 RMK AO1 T01330022






000
SXUS55 KMSO 021613
OSOMSO
MONTANA AWOS SUMMARY
NATIONAL WEATHER SERVICE MISSOULA MT
1012 AM MDT MON MAY 2 2016

Montana AWOS Reports

LAUREL      |K6S8 021555Z AUTO 20008KT 40SM 12/01 A3017 RMK AO1 T01170006






000
SXUS55 KMSO 021603
OSOMSO
MONTANA AWOS SUMMARY
NATIONAL WEATHER SERVICE MISSOULA MT
1003 AM MDT MON MAY 2 2016

Montana AWOS Reports

LAUREL      |K6S8 021555Z AUTO 20008KT 40SM 12/01 A3017 RMK AO1 T01170006
TWIN BRIDGES|K7S1 021555Z AUTO 18005KT 40SM 09/M02 A3021 RMK AO1 T00941016
ROUNDUP     |KRPX 021555Z AUTO 21005KT 40SM 12/02 A3008 RMK AO1 T01220022
SCOBEY      |K9S2 021555Z AUTO 31016G24KT 40SM 20/01 A3005 RMK AO1 T02000006
EKALAKA     |K97M 021555Z AUTO 28010G16KT 10SM 14/M01 A3009 RMK AO1 T01391005
PLAINS      |KS34 021555Z AUTO 00000KT 40SM 12/05 A3018 RMK AO1 T01170050






000
SXUS55 KMSO 021603
OSOMSO
MONTANA AWOS SUMMARY
NATIONAL WEATHER SERVICE MISSOULA MT
1003 AM MDT MON MAY 2 2016

Montana AWOS Reports

LAUREL      |K6S8 021555Z AUTO 20008KT 40SM 12/01 A3017 RMK AO1 T01170006
TWIN BRIDGES|K7S1 021555Z AUTO 18005KT 40SM 09/M02 A3021 RMK AO1 T00941016
ROUNDUP     |KRPX 021555Z AUTO 21005KT 40SM 12/02 A3008 RMK AO1 T01220022
SCOBEY      |K9S2 021555Z AUTO 31016G24KT 40SM 20/01 A3005 RMK AO1 T02000006
EKALAKA     |K97M 021555Z AUTO 28010G16KT 10SM 14/M01 A3009 RMK AO1 T01391005
PLAINS      |KS34 021555Z AUTO 00000KT 40SM 12/05 A3018 RMK AO1 T01170050






000
SXUS55 KMSO 021544
OSOMSO
MONTANA AWOS SUMMARY
NATIONAL WEATHER SERVICE MISSOULA MT
943 AM MDT MON MAY 2 2016

Montana AWOS Reports

LAUREL      |K6S8 021535Z AUTO 22007KT 25SM 11/M01 A3017 RMK AO1 T01061005
ROUNDUP     |KRPX 021535Z AUTO 20005KT 40SM 11/02 A3008 RMK AO1 T01110022
TWIN BRIDGES|K7S1 021535Z AUTO 00000KT 15SM 08/M01 A3022 RMK AO1 T00831005






000
SXUS55 KMSO 021533
OSOMSO
MONTANA AWOS SUMMARY
NATIONAL WEATHER SERVICE MISSOULA MT
933 AM MDT MON MAY 2 2016

Montana AWOS Reports

LAUREL      |K6S8 021515Z AUTO 20009KT 25SM 09/M01 A3017 RMK AO1 T00941010
TWIN BRIDGES|K7S1 021515Z AUTO 12005KT 40SM 07/M01 A3021 RMK AO1 T00721010






000
SXUS55 KMSO 021523
OSOMSO
MONTANA AWOS SUMMARY
NATIONAL WEATHER SERVICE MISSOULA MT
923 AM MDT MON MAY 2 2016

Montana AWOS Reports

ROUNDUP     |KRPX 021515Z AUTO 20005KT 40SM 09/01 A3009 RMK AO1 T00940011






000
SXUS55 KMSO 021513
OSOMSO
MONTANA AWOS SUMMARY
NATIONAL WEATHER SERVICE MISSOULA MT
912 AM MDT MON MAY 2 2016

Montana AWOS Reports

EKALAKA     |K97M 021455Z AUTO 27006KT 40SM 12/01 A3011 RMK AO1 T01170011
PLAINS      |KS34 021455Z AUTO 00000KT 40SM 07/05 A3019 RMK AO1 T00720050
TWIN BRIDGES|K7S1 021455Z AUTO 13005KT 40SM 06/M02 A3021 RMK AO1 T00611021
SCOBEY      |K9S2 021455Z AUTO 31009KT 40SM 16/02 A3006 RMK AO1 T01560017
LAUREL      |K6S8 021455Z AUTO 19006KT 40SM 08/01 A3017 RMK AO1 T00780006






000
SXUS55 KMSO 021503
OSOMSO
MONTANA AWOS SUMMARY
NATIONAL WEATHER SERVICE MISSOULA MT
903 AM MDT MON MAY 2 2016

Montana AWOS Reports

LAUREL      |K6S8 021455Z AUTO 19006KT 40SM 08/01 A3017 RMK AO1 T00780006
ROUNDUP     |KRPX 021455Z AUTO 20005KT 40SM 08/01 A3009 RMK AO1 T00830011






000
SXUS55 KMSO 021503
OSOMSO
MONTANA AWOS SUMMARY
NATIONAL WEATHER SERVICE MISSOULA MT
903 AM MDT MON MAY 2 2016

Montana AWOS Reports

LAUREL      |K6S8 021455Z AUTO 19006KT 40SM 08/01 A3017 RMK AO1 T00780006
ROUNDUP     |KRPX 021455Z AUTO 20005KT 40SM 08/01 A3009 RMK AO1 T00830011






000
SXUS55 KMSO 021443
OSOMSO
MONTANA AWOS SUMMARY
NATIONAL WEATHER SERVICE MISSOULA MT
843 AM MDT MON MAY 2 2016

Montana AWOS Reports

LAUREL      |K6S8 021435Z AUTO 21005KT 40SM 06/00 A3017 RMK AO1 T00610000
TWIN BRIDGES|K7S1 021435Z AUTO 15004KT 40SM 05/M03 A3021 RMK AO1 T00501027
ROUNDUP     |KRPX 021435Z AUTO 20007KT 40SM 07/00 A3009 RMK AO1 T00670000






000
SXUS55 KMSO 021423
OSOMSO
MONTANA AWOS SUMMARY
NATIONAL WEATHER SERVICE MISSOULA MT
823 AM MDT MON MAY 2 2016

Montana AWOS Reports

LAUREL      |K6S8 021415Z AUTO 00000KT 40SM 06/00 A3017 RMK AO1 T00560000
TWIN BRIDGES|K7S1 021415Z AUTO 00000KT 40SM 04/M03 A3021 RMK AO1 T00391027
ROUNDUP     |KRPX 021415Z AUTO 21008KT 40SM 06/M01 A3008 RMK AO1 T00561005






000
SXUS55 KMSO 021423
OSOMSO
MONTANA AWOS SUMMARY
NATIONAL WEATHER SERVICE MISSOULA MT
823 AM MDT MON MAY 2 2016

Montana AWOS Reports

LAUREL      |K6S8 021415Z AUTO 00000KT 40SM 06/00 A3017 RMK AO1 T00560000
TWIN BRIDGES|K7S1 021415Z AUTO 00000KT 40SM 04/M03 A3021 RMK AO1 T00391027
ROUNDUP     |KRPX 021415Z AUTO 21008KT 40SM 06/M01 A3008 RMK AO1 T00561005






000
SXUS55 KMSO 021413
OSOMSO
MONTANA AWOS SUMMARY
NATIONAL WEATHER SERVICE MISSOULA MT
812 AM MDT MON MAY 2 2016

Montana AWOS Reports

LAUREL      |K6S8 021355Z AUTO 22004KT 40SM 04/M01 A3017 RMK AO1 T00441010






000
SXUS55 KMSO 021413
OSOMSO
MONTANA AWOS SUMMARY
NATIONAL WEATHER SERVICE MISSOULA MT
812 AM MDT MON MAY 2 2016

Montana AWOS Reports

LAUREL      |K6S8 021355Z AUTO 22004KT 40SM 04/M01 A3017 RMK AO1 T00441010






000
SXUS55 KMSO 021403
OSOMSO
MONTANA AWOS SUMMARY
NATIONAL WEATHER SERVICE MISSOULA MT
803 AM MDT MON MAY 2 2016

Montana AWOS Reports

LAUREL      |K6S8 021355Z AUTO 22004KT 40SM 04/M01 A3017 RMK AO1 T00441010
TWIN BRIDGES|K7S1 021355Z AUTO 00000KT 40SM 03/M03 A3021 RMK AO1 T00281032
ROUNDUP     |KRPX 021355Z AUTO 20007KT 40SM 04/M01 A3009 RMK AO1 T00441005
EKALAKA     |K97M 021355Z AUTO 24006KT 40SM 09/00 A3011 RMK AO1 T00890000
PLAINS      |KS34 021355Z AUTO 00000KT 25SM 04/02 A3019 RMK AO1 T00390017
SCOBEY      |K9S2 021355Z AUTO 26004KT 40SM 12/02 A3006 RMK AO1 T01170017






000
SXUS55 KMSO 021344
OSOMSO
MONTANA AWOS SUMMARY
NATIONAL WEATHER SERVICE MISSOULA MT
743 AM MDT MON MAY 2 2016

Montana AWOS Reports

LAUREL      |K6S8 021335Z AUTO 22005KT 40SM 03/M01 A3017 RMK AO1 T00331010
TWIN BRIDGES|K7S1 021335Z AUTO 00000KT 40SM 02/M03 A3021 RMK AO1 T00171032
ROUNDUP     |KRPX 021335Z AUTO 21008KT 40SM 03/M02 A3009 RMK AO1 T00331016






000
SXUS55 KMSO 021323
OSOMSO
MONTANA AWOS SUMMARY
NATIONAL WEATHER SERVICE MISSOULA MT
723 AM MDT MON MAY 2 2016

Montana AWOS Reports

LAUREL      |K6S8 021315Z AUTO 20005KT 40SM 02/M02 A3016 RMK AO1 T00221016
TWIN BRIDGES|K7S1 021315Z AUTO 00000KT 40SM M01/M04 A3020 RMK AO1 T10051043
ROUNDUP     |KRPX 021315Z AUTO 21006KT 40SM 03/M02 A3009 RMK AO1 T00281016






000
SXUS55 KMSO 021313
OSOMSO
MONTANA AWOS SUMMARY
NATIONAL WEATHER SERVICE MISSOULA MT
713 AM MDT MON MAY 2 2016

Montana AWOS Reports

LAUREL      |K6S8 021255Z AUTO 00000KT 40SM 02/M03 A3017 RMK AO1 T00171027






000
SXUS55 KMSO 021303
OSOMSO
MONTANA AWOS SUMMARY
NATIONAL WEATHER SERVICE MISSOULA MT
703 AM MDT MON MAY 2 2016

Montana AWOS Reports

LAUREL      |K6S8 021255Z AUTO 00000KT 40SM 02/M03 A3017 RMK AO1 T00171027
ROUNDUP     |KRPX 021255Z AUTO 21007KT 40SM 02/M02 A3009 RMK AO1 T00221016
SCOBEY      |K9S2 021255Z AUTO 26004KT 40SM 07/00 A3006 RMK AO1 T00720000
PLAINS      |KS34 021255Z AUTO 00000KT 25SM 01/M02 A3018 RMK AO1 T00111016
EKALAKA     |K97M 021255Z AUTO 00000KT 40SM 07/M01 A3011 RMK AO1 T00721010
TWIN BRIDGES|K7S1 021255Z AUTO 00000KT 40SM M02/M06 A3019 RMK AO1 T10161060






000
SXUS55 KMSO 021243
OSOMSO
MONTANA AWOS SUMMARY
NATIONAL WEATHER SERVICE MISSOULA MT
643 AM MDT MON MAY 2 2016

Montana AWOS Reports

LAUREL      |K6S8 021235Z AUTO 00000KT 40SM 01/M03 A3016 RMK AO1 T00061032
ROUNDUP     |KRPX 021235Z AUTO 20009KT 40SM 02/M02 A3008 RMK AO1 T00221016
TWIN BRIDGES|K7S1 021235Z AUTO 00000KT 40SM M01/M06 A3019 RMK AO1 T10101060






000
SXUS55 KMSO 021223
OSOMSO
MONTANA AWOS SUMMARY
NATIONAL WEATHER SERVICE MISSOULA MT
623 AM MDT MON MAY 2 2016

Montana AWOS Reports

LAUREL      |K6S8 021215Z AUTO 00000KT 40SM 01/M03 A3017 RMK AO1 T00111032
ROUNDUP     |KRPX 021215Z AUTO 20007KT 40SM 02/M02 A3008 RMK AO1 T00221016






000
SXUS55 KMSO 021223
OSOMSO
MONTANA AWOS SUMMARY
NATIONAL WEATHER SERVICE MISSOULA MT
623 AM MDT MON MAY 2 2016

Montana AWOS Reports

LAUREL      |K6S8 021215Z AUTO 00000KT 40SM 01/M03 A3017 RMK AO1 T00111032
ROUNDUP     |KRPX 021215Z AUTO 20007KT 40SM 02/M02 A3008 RMK AO1 T00221016






000
SXUS55 KMSO 021213
OSOMSO
MONTANA AWOS SUMMARY
NATIONAL WEATHER SERVICE MISSOULA MT
613 AM MDT MON MAY 2 2016

Montana AWOS Reports

LAUREL      |K6S8 021155Z AUTO 00000KT 40SM 01/M03 A3017 RMK AO1 T00111027






000
SXUS55 KMSO 021213
OSOMSO
MONTANA AWOS SUMMARY
NATIONAL WEATHER SERVICE MISSOULA MT
613 AM MDT MON MAY 2 2016

Montana AWOS Reports

LAUREL      |K6S8 021155Z AUTO 00000KT 40SM 01/M03 A3017 RMK AO1 T00111027






000
SXUS55 KMSO 021203
OSOMSO
MONTANA AWOS SUMMARY
NATIONAL WEATHER SERVICE MISSOULA MT
603 AM MDT MON MAY 2 2016

Montana AWOS Reports

LAUREL      |K6S8 021155Z AUTO 00000KT 40SM 01/M03 A3017 RMK AO1 T00111027
TWIN BRIDGES|K7S1 021155Z AUTO 00000KT 40SM M01/M06 A3019 RMK AO1 T10051055
ROUNDUP     |KRPX 021155Z AUTO 19010KT 40SM 02/M02 A3008 RMK AO1 T00221021
EKALAKA     |K97M 021155Z AUTO 00000KT 40SM 03/M03 A3011 RMK AO1 T00331027
PLAINS      |KS34 021155Z AUTO 00000KT 25SM 02/M01 A3016 RMK AO1 T00171010
SCOBEY      |K9S2 021155Z AUTO 00000KT 40SM 04/M02 A3006 RMK AO1 T00391021






000
SXUS55 KMSO 021143
OSOMSO
MONTANA AWOS SUMMARY
NATIONAL WEATHER SERVICE MISSOULA MT
543 AM MDT MON MAY 2 2016

Montana AWOS Reports

LAUREL      |K6S8 021135Z AUTO 00000KT 40SM 01/M04 A3016 RMK AO1 T00061038
TWIN BRIDGES|K7S1 021135Z AUTO 00000KT 40SM M01/M06 A3018 RMK AO1 T10101060
ROUNDUP     |KRPX 021135Z AUTO 20011G15KT 40SM 02/M02 A3008 RMK AO1 T00221021






000
SXUS55 KMSO 021143
OSOMSO
MONTANA AWOS SUMMARY
NATIONAL WEATHER SERVICE MISSOULA MT
543 AM MDT MON MAY 2 2016

Montana AWOS Reports

LAUREL      |K6S8 021135Z AUTO 00000KT 40SM 01/M04 A3016 RMK AO1 T00061038
TWIN BRIDGES|K7S1 021135Z AUTO 00000KT 40SM M01/M06 A3018 RMK AO1 T10101060
ROUNDUP     |KRPX 021135Z AUTO 20011G15KT 40SM 02/M02 A3008 RMK AO1 T00221021






000
SXUS55 KMSO 021123
OSOMSO
MONTANA AWOS SUMMARY
NATIONAL WEATHER SERVICE MISSOULA MT
522 AM MDT MON MAY 2 2016

Montana AWOS Reports

LAUREL      |K6S8 021115Z AUTO 00000KT 40SM 01/M04 A3016 RMK AO1 T00061038
TWIN BRIDGES|K7S1 021115Z AUTO 00000KT 40SM 01/M05 A3018 RMK AO1 T00061049
ROUNDUP     |KRPX 021115Z AUTO 20011KT 40SM 02/M02 A3008 RMK AO1 T00221021






000
SXUS55 KMSO 021123
OSOMSO
MONTANA AWOS SUMMARY
NATIONAL WEATHER SERVICE MISSOULA MT
522 AM MDT MON MAY 2 2016

Montana AWOS Reports

LAUREL      |K6S8 021115Z AUTO 00000KT 40SM 01/M04 A3016 RMK AO1 T00061038
TWIN BRIDGES|K7S1 021115Z AUTO 00000KT 40SM 01/M05 A3018 RMK AO1 T00061049
ROUNDUP     |KRPX 021115Z AUTO 20011KT 40SM 02/M02 A3008 RMK AO1 T00221021






000
SXUS55 KMSO 021113
OSOMSO
MONTANA AWOS SUMMARY
NATIONAL WEATHER SERVICE MISSOULA MT
513 AM MDT MON MAY 2 2016

Montana AWOS Reports

SCOBEY      |K9S2 021055Z AUTO 00000KT 40SM 08/M02 A3007 RMK AO1 T00781016
PLAINS      |KS34 021055Z AUTO 00000KT 25SM 03/00 A3016 RMK AO1 T00280000
LAUREL      |K6S8 021055Z AUTO 00000KT 40SM 01/M04 A3016 RMK AO1 T00111038






000
SXUS55 KMSO 021113
OSOMSO
MONTANA AWOS SUMMARY
NATIONAL WEATHER SERVICE MISSOULA MT
513 AM MDT MON MAY 2 2016

Montana AWOS Reports

SCOBEY      |K9S2 021055Z AUTO 00000KT 40SM 08/M02 A3007 RMK AO1 T00781016
PLAINS      |KS34 021055Z AUTO 00000KT 25SM 03/00 A3016 RMK AO1 T00280000
LAUREL      |K6S8 021055Z AUTO 00000KT 40SM 01/M04 A3016 RMK AO1 T00111038






000
SXUS55 KMSO 021103
OSOMSO
MONTANA AWOS SUMMARY
NATIONAL WEATHER SERVICE MISSOULA MT
502 AM MDT MON MAY 2 2016

Montana AWOS Reports

LAUREL      |K6S8 021055Z AUTO 00000KT 40SM 01/M04 A3016 RMK AO1 T00111038
TWIN BRIDGES|K7S1 021055Z AUTO 00000KT 40SM 00/M06 A3018 RMK AO1 T00001055
ROUNDUP     |KRPX 021055Z AUTO 20007KT 40SM 02/M02 A3008 RMK AO1 T00221016
EKALAKA     |K97M 021055Z AUTO 00000KT 40SM 03/M03 A3011 RMK AO1 T00281032






000
SXUS55 KMSO 021053
OSOMSO
MONTANA AWOS SUMMARY
NATIONAL WEATHER SERVICE MISSOULA MT
452 AM MDT MON MAY 2 2016

Montana AWOS Reports

TWIN BRIDGES|K7S1 021035Z AUTO 00000KT 40SM 00/M06 A3018 RMK AO1 T00001055






000
SXUS55 KMSO 021043
OSOMSO
MONTANA AWOS SUMMARY
NATIONAL WEATHER SERVICE MISSOULA MT
443 AM MDT MON MAY 2 2016

Montana AWOS Reports

LAUREL      |K6S8 021035Z AUTO 00000KT 40SM 02/M04 A3016 RMK AO1 T00171038
ROUNDUP     |KRPX 021035Z AUTO 21007KT 40SM 02/M02 A3008 RMK AO1 T00171021






000
SXUS55 KMSO 021023
OSOMSO
MONTANA AWOS SUMMARY
NATIONAL WEATHER SERVICE MISSOULA MT
423 AM MDT MON MAY 2 2016

Montana AWOS Reports

LAUREL      |K6S8 021015Z AUTO 00000KT 40SM 02/M04 A3016 RMK AO1 T00171038
TWIN BRIDGES|K7S1 021015Z AUTO 00000KT 40SM 00/M06 A3017 RMK AO1 T00001060
ROUNDUP     |KRPX 021015Z AUTO 20007KT 40SM 02/M02 A3008 RMK AO1 T00171021






000
SXUS55 KMSO 021013
OSOMSO
MONTANA AWOS SUMMARY
NATIONAL WEATHER SERVICE MISSOULA MT
413 AM MDT MON MAY 2 2016

Montana AWOS Reports

SCOBEY      |K9S2 020955Z AUTO 00000KT 40SM 09/M02 A3008 RMK AO1 T00891016
PLAINS      |KS34 020955Z AUTO 00000KT 25SM 03/01 A3015 RMK AO1 T00330006
EKALAKA     |K97M 020955Z AUTO 00000KT 40SM 04/M04 A3013 RMK AO1 T00441038
LAUREL      |K6S8 020955Z AUTO 00000KT 40SM 02/M04 A3015 RMK AO1 T00221038






000
SXUS55 KMSO 021003
OSOMSO
MONTANA AWOS SUMMARY
NATIONAL WEATHER SERVICE MISSOULA MT
402 AM MDT MON MAY 2 2016

Montana AWOS Reports

LAUREL      |K6S8 020955Z AUTO 00000KT 40SM 02/M04 A3015 RMK AO1 T00221038
TWIN BRIDGES|K7S1 020955Z AUTO 00000KT 40SM 01/M05 A3017 RMK AO1 T00111049
ROUNDUP     |KRPX 020955Z AUTO 20008KT 40SM 02/M02 A3008 RMK AO1 T00221016






000
SXUS55 KMSO 021003
OSOMSO
MONTANA AWOS SUMMARY
NATIONAL WEATHER SERVICE MISSOULA MT
402 AM MDT MON MAY 2 2016

Montana AWOS Reports

LAUREL      |K6S8 020955Z AUTO 00000KT 40SM 02/M04 A3015 RMK AO1 T00221038
TWIN BRIDGES|K7S1 020955Z AUTO 00000KT 40SM 01/M05 A3017 RMK AO1 T00111049
ROUNDUP     |KRPX 020955Z AUTO 20008KT 40SM 02/M02 A3008 RMK AO1 T00221016






000
SXUS55 KMSO 020944
OSOMSO
MONTANA AWOS SUMMARY
NATIONAL WEATHER SERVICE MISSOULA MT
343 AM MDT MON MAY 2 2016

Montana AWOS Reports

TWIN BRIDGES|K7S1 020935Z AUTO 07005KT 40SM 01/M05 A3017 RMK AO1 T00111049






000
SXUS55 KMSO 020944
OSOMSO
MONTANA AWOS SUMMARY
NATIONAL WEATHER SERVICE MISSOULA MT
343 AM MDT MON MAY 2 2016

Montana AWOS Reports

TWIN BRIDGES|K7S1 020935Z AUTO 07005KT 40SM 01/M05 A3017 RMK AO1 T00111049






000
SXUS55 KMSO 020924
OSOMSO
MONTANA AWOS SUMMARY
NATIONAL WEATHER SERVICE MISSOULA MT
323 AM MDT MON MAY 2 2016

Montana AWOS Reports

LAUREL      |K6S8 020915Z AUTO 00000KT 40SM 04/M04 A3015 RMK AO1 T00391038
ROUNDUP     |KRPX 020915Z AUTO 20004KT 40SM 02/M02 A3009 RMK AO1 T00171016






000
SXUS55 KMSO 020913
OSOMSO
MONTANA AWOS SUMMARY
NATIONAL WEATHER SERVICE MISSOULA MT
313 AM MDT MON MAY 2 2016

Montana AWOS Reports

LAUREL      |K6S8 020855Z AUTO 00000KT 40SM 02/M04 A3015 RMK AO1 T00221043
TWIN BRIDGES|K7S1 020855Z AUTO 05004KT 40SM 02/M05 A3017 RMK AO1 T00171049
PLAINS      |KS34 020855Z AUTO 00000KT 25SM 04/01 A3014 RMK AO1 T00390006






000
SXUS55 KMSO 020913
OSOMSO
MONTANA AWOS SUMMARY
NATIONAL WEATHER SERVICE MISSOULA MT
313 AM MDT MON MAY 2 2016

Montana AWOS Reports

LAUREL      |K6S8 020855Z AUTO 00000KT 40SM 02/M04 A3015 RMK AO1 T00221043
TWIN BRIDGES|K7S1 020855Z AUTO 05004KT 40SM 02/M05 A3017 RMK AO1 T00171049
PLAINS      |KS34 020855Z AUTO 00000KT 25SM 04/01 A3014 RMK AO1 T00390006






000
SXUS55 KMSO 020843
OSOMSO
MONTANA AWOS SUMMARY
NATIONAL WEATHER SERVICE MISSOULA MT
243 AM MDT MON MAY 2 2016

Montana AWOS Reports

LAUREL      |K6S8 020835Z AUTO 00000KT 40SM 02/M04 A3016 RMK AO1 T00221043
ROUNDUP     |KRPX 020835Z AUTO 00000KT 40SM 03/M02 A3009 RMK AO1 T00281016






000
SXUS55 KMSO 020843
OSOMSO
MONTANA AWOS SUMMARY
NATIONAL WEATHER SERVICE MISSOULA MT
243 AM MDT MON MAY 2 2016

Montana AWOS Reports

LAUREL      |K6S8 020835Z AUTO 00000KT 40SM 02/M04 A3016 RMK AO1 T00221043
ROUNDUP     |KRPX 020835Z AUTO 00000KT 40SM 03/M02 A3009 RMK AO1 T00281016






000
SXUS55 KMSO 020823
OSOMSO
MONTANA AWOS SUMMARY
NATIONAL WEATHER SERVICE MISSOULA MT
223 AM MDT MON MAY 2 2016

Montana AWOS Reports

LAUREL      |K6S8 020815Z AUTO 00000KT 40SM 03/M05 A3016 RMK AO1 T00281049
TWIN BRIDGES|K7S1 020815Z AUTO 00000KT 40SM 02/M06 A3017 RMK AO1 T00221060
ROUNDUP     |KRPX 020815Z AUTO 00000KT 40SM 03/M02 A3009 RMK AO1 T00281016






000
SXUS55 KMSO 020813
OSOMSO
MONTANA AWOS SUMMARY
NATIONAL WEATHER SERVICE MISSOULA MT
213 AM MDT MON MAY 2 2016

Montana AWOS Reports

LAUREL      |K6S8 020755Z AUTO 00000KT 40SM 03/M04 A3017 RMK AO1 T00281038






000
SXUS55 KMSO 020803
OSOMSO
MONTANA AWOS SUMMARY
NATIONAL WEATHER SERVICE MISSOULA MT
203 AM MDT MON MAY 2 2016

Montana AWOS Reports

LAUREL      |K6S8 020755Z AUTO 00000KT 40SM 03/M04 A3017 RMK AO1 T00281038
TWIN BRIDGES|K7S1 020755Z AUTO 00000KT 40SM 04/M05 A3017 RMK AO1 T00391049
ROUNDUP     |KRPX 020755Z AUTO 00000KT 40SM 04/M01 A3009 RMK AO1 T00391010
SCOBEY      |K9S2 020755Z AUTO 26010KT 40SM 10/M02 A3009 RMK AO1 T01001016
PLAINS      |KS34 020755Z AUTO 00000KT 40SM 05/01 A3014 RMK AO1 T00500011






000
SXUS55 KMSO 020743
OSOMSO
MONTANA AWOS SUMMARY
NATIONAL WEATHER SERVICE MISSOULA MT
143 AM MDT MON MAY 2 2016

Montana AWOS Reports

LAUREL      |K6S8 020735Z AUTO 00000KT 40SM 05/M04 A3017 RMK AO1 T00501038
TWIN BRIDGES|K7S1 020735Z AUTO 00000KT 40SM 06/M05 A3017 RMK AO1 T00561049
ROUNDUP     |KRPX 020735Z AUTO 00000KT 40SM 04/M01 A3009 RMK AO1 T00391010






000
SXUS55 KMSO 020723
OSOMSO
MONTANA AWOS SUMMARY
NATIONAL WEATHER SERVICE MISSOULA MT
123 AM MDT MON MAY 2 2016

Montana AWOS Reports

LAUREL      |K6S8 020715Z AUTO 00000KT 40SM 06/M04 A3017 RMK AO1 T00561038
ROUNDUP     |KRPX 020715Z AUTO 17004KT 40SM 04/M01 A3010 RMK AO1 T00441010






000
SXUS55 KMSO 020713
OSOMSO
MONTANA AWOS SUMMARY
NATIONAL WEATHER SERVICE MISSOULA MT
112 AM MDT MON MAY 2 2016

Montana AWOS Reports

LAUREL      |K6S8 020655Z AUTO 00000KT 40SM 07/M02 A3017 RMK AO1 T00721021






000
SXUS55 KMSO 020703
OSOMSO
MONTANA AWOS SUMMARY
NATIONAL WEATHER SERVICE MISSOULA MT
103 AM MDT MON MAY 2 2016

Montana AWOS Reports

LAUREL      |K6S8 020655Z AUTO 00000KT 40SM 07/M02 A3017 RMK AO1 T00721021
TWIN BRIDGES|K7S1 020655Z AUTO 02009KT 40SM 08/M05 A3016 RMK AO1 T00781049
ROUNDUP     |KRPX 020655Z AUTO 00000KT 40SM 06/00 A3011 RMK AO1 T00610000
PLAINS      |KS34 020655Z AUTO 00000KT 40SM 06/02 A3013 RMK AO1 T00610022
SCOBEY      |K9S2 020655Z AUTO 00000KT 40SM 09/M01 A3010 RMK AO1 T00891010
EKALAKA     |K97M 020655Z AUTO 13004KT 40SM 05/M03 A3016 RMK AO1 T00501032






000
SXUS55 KMSO 020644
OSOMSO
MONTANA AWOS SUMMARY
NATIONAL WEATHER SERVICE MISSOULA MT
1243 AM MDT MON MAY 2 2016

Montana AWOS Reports

LAUREL      |K6S8 020635Z AUTO 00000KT 40SM 06/M04 A3017 RMK AO1 T00561038
TWIN BRIDGES|K7S1 020635Z AUTO 36009KT 40SM 08/M04 A3016 RMK AO1 T00781038
ROUNDUP     |KRPX 020635Z AUTO 00000KT 40SM 06/00 A3011 RMK AO1 T00610000






000
SXUS55 KMSO 020623
OSOMSO
MONTANA AWOS SUMMARY
NATIONAL WEATHER SERVICE MISSOULA MT
1223 AM MDT MON MAY 2 2016

Montana AWOS Reports

LAUREL      |K6S8 020615Z AUTO 00000KT 40SM 06/M03 A3017 RMK AO1 T00611032
TWIN BRIDGES|K7S1 020615Z AUTO 01009G13KT 40SM 09/M03 A3016 RMK AO1 T00891032
ROUNDUP     |KRPX 020615Z AUTO 00000KT 40SM 07/M01 A3011 RMK AO1 T00721005






000
SXUS55 KMSO 020623
OSOMSO
MONTANA AWOS SUMMARY
NATIONAL WEATHER SERVICE MISSOULA MT
1223 AM MDT MON MAY 2 2016

Montana AWOS Reports

LAUREL      |K6S8 020615Z AUTO 00000KT 40SM 06/M03 A3017 RMK AO1 T00611032
TWIN BRIDGES|K7S1 020615Z AUTO 01009G13KT 40SM 09/M03 A3016 RMK AO1 T00891032
ROUNDUP     |KRPX 020615Z AUTO 00000KT 40SM 07/M01 A3011 RMK AO1 T00721005






000
SXUS55 KMSO 020613
OSOMSO
MONTANA AWOS SUMMARY
NATIONAL WEATHER SERVICE MISSOULA MT
1213 AM MDT MON MAY 2 2016

Montana AWOS Reports

LAUREL      |K6S8 020555Z AUTO 00000KT 40SM 06/M03 A3017 RMK AO1 T00561032






000
SXUS55 KMSO 020603
OSOMSO
MONTANA AWOS SUMMARY
NATIONAL WEATHER SERVICE MISSOULA MT
1203 AM MDT MON MAY 2 2016

Montana AWOS Reports

LAUREL      |K6S8 020555Z AUTO 00000KT 40SM 06/M03 A3017 RMK AO1 T00561032
ROUNDUP     |KRPX 020555Z AUTO 00000KT 40SM 08/M01 A3011 RMK AO1 T00781005
SCOBEY      |K9S2 020555Z AUTO 26011KT 40SM 11/M01 A3010 RMK AO1 T01061010
PLAINS      |KS34 020555Z AUTO 00000KT 40SM 07/02 A3013 RMK AO1 T00720022
EKALAKA     |K97M 020555Z AUTO 00000KT 40SM 06/M03 A3017 RMK AO1 T00611027
TWIN BRIDGES|K7S1 020555Z AUTO 01010KT 40SM 10/M04 A3016 RMK AO1 T01001043






000
SXUS55 KMSO 020603
OSOMSO
MONTANA AWOS SUMMARY
NATIONAL WEATHER SERVICE MISSOULA MT
1203 AM MDT MON MAY 2 2016

Montana AWOS Reports

LAUREL      |K6S8 020555Z AUTO 00000KT 40SM 06/M03 A3017 RMK AO1 T00561032
ROUNDUP     |KRPX 020555Z AUTO 00000KT 40SM 08/M01 A3011 RMK AO1 T00781005
SCOBEY      |K9S2 020555Z AUTO 26011KT 40SM 11/M01 A3010 RMK AO1 T01061010
PLAINS      |KS34 020555Z AUTO 00000KT 40SM 07/02 A3013 RMK AO1 T00720022
EKALAKA     |K97M 020555Z AUTO 00000KT 40SM 06/M03 A3017 RMK AO1 T00611027
TWIN BRIDGES|K7S1 020555Z AUTO 01010KT 40SM 10/M04 A3016 RMK AO1 T01001043






000
SXUS55 KMSO 020544
OSOMSO
MONTANA AWOS SUMMARY
NATIONAL WEATHER SERVICE MISSOULA MT
1143 PM MDT SUN MAY 1 2016

Montana AWOS Reports

TWIN BRIDGES|K7S1 020535Z AUTO 01009KT 40SM 11/M05 A3016 RMK AO1 T01061049






000
SXUS55 KMSO 020524
OSOMSO
MONTANA AWOS SUMMARY
NATIONAL WEATHER SERVICE MISSOULA MT
1123 PM MDT SUN MAY 1 2016

Montana AWOS Reports

TWIN BRIDGES|K7S1 020515Z AUTO 02006KT 40SM 11/M05 A3016 RMK AO1 T01061049






000
SXUS55 KMSO 020503
OSOMSO
MONTANA AWOS SUMMARY
NATIONAL WEATHER SERVICE MISSOULA MT
1103 PM MDT SUN MAY 1 2016

Montana AWOS Reports

TWIN BRIDGES|K7S1 020455Z AUTO 02008KT 40SM 11/M05 A3015 RMK AO1 T01061049
SCOBEY      |K9S2 020455Z AUTO 25012KT 40SM 11/M01 A3011 RMK AO1 T01061010
EKALAKA     |K97M 020455Z AUTO 00000KT 40SM 06/M02 A3017 RMK AO1 T00561021
PLAINS      |KS34 020455Z AUTO 00000KT 40SM 09/03 A3013 RMK AO1 T00890028
LAUREL      |K6S8 020455Z AUTO 00000KT 40SM 06/M03 A3018 RMK AO1 T00611027






000
SXUS55 KMSO 020443
OSOMSO
MONTANA AWOS SUMMARY
NATIONAL WEATHER SERVICE MISSOULA MT
1043 PM MDT SUN MAY 1 2016

Montana AWOS Reports

LAUREL      |K6S8 020435Z AUTO 00000KT 40SM 07/M03 A3018 RMK AO1 T00721032
TWIN BRIDGES|K7S1 020435Z AUTO 05007KT 40SM 10/M04 A3014 RMK AO1 T01001043
ROUNDUP     |KRPX 020435Z AUTO 00000KT 40SM 10/00 A3011 RMK AO1 T01000000






000
SXUS55 KMSO 020423
OSOMSO
MONTANA AWOS SUMMARY
NATIONAL WEATHER SERVICE MISSOULA MT
1023 PM MDT SUN MAY 1 2016

Montana AWOS Reports

LAUREL      |K6S8 020415Z AUTO 40SM 08/M04 A3019 RMK AO1 T00831038
TWIN BRIDGES|K7S1 020415Z AUTO 35010G14KT 40SM 11/M05 A3013 RMK AO1 T01061049
ROUNDUP     |KRPX 020415Z AUTO 00000KT 40SM 10/M01 A3011 RMK AO1 T01001005






000
SXUS55 KMSO 020423
OSOMSO
MONTANA AWOS SUMMARY
NATIONAL WEATHER SERVICE MISSOULA MT
1023 PM MDT SUN MAY 1 2016

Montana AWOS Reports

LAUREL      |K6S8 020415Z AUTO 40SM 08/M04 A3019 RMK AO1 T00831038
TWIN BRIDGES|K7S1 020415Z AUTO 35010G14KT 40SM 11/M05 A3013 RMK AO1 T01061049
ROUNDUP     |KRPX 020415Z AUTO 00000KT 40SM 10/M01 A3011 RMK AO1 T01001005






000
SXUS55 KMSO 020413
OSOMSO
MONTANA AWOS SUMMARY
NATIONAL WEATHER SERVICE MISSOULA MT
1012 PM MDT SUN MAY 1 2016

Montana AWOS Reports

SCOBEY      |K9S2 020355Z AUTO 26005KT 40SM 11/M01 A3012 RMK AO1 T01111005
EKALAKA     |K97M 020355Z AUTO 00000KT 40SM 07/M02 A3018 RMK AO1 T00721016
PLAINS      |KS34 020355Z AUTO 00000KT 40SM 12/04 A3012 RMK AO1 T01170039
TWIN BRIDGES|K7S1 020355Z AUTO 34009G15KT 40SM 11/M04 A3013 RMK AO1 T01061043
LAUREL      |K6S8 020355Z AUTO 40SM 08/M03 A3019 RMK AO1 T00831032






000
SXUS55 KMSO 020403
OSOMSO
MONTANA AWOS SUMMARY
NATIONAL WEATHER SERVICE MISSOULA MT
1003 PM MDT SUN MAY 1 2016

Montana AWOS Reports

LAUREL      |K6S8 020355Z AUTO 40SM 08/M03 A3019 RMK AO1 T00831032
ROUNDUP     |KRPX 020355Z AUTO 00000KT 40SM 11/00 A3011 RMK AO1 T01060000






000
SXUS55 KMSO 020343
OSOMSO
MONTANA AWOS SUMMARY
NATIONAL WEATHER SERVICE MISSOULA MT
943 PM MDT SUN MAY 1 2016

Montana AWOS Reports

TWIN BRIDGES|K7S1 020335Z AUTO 34010G14KT 40SM 11/M05 A3012 RMK AO1 T01061049






000
SXUS55 KMSO 020343
OSOMSO
MONTANA AWOS SUMMARY
NATIONAL WEATHER SERVICE MISSOULA MT
943 PM MDT SUN MAY 1 2016

Montana AWOS Reports

TWIN BRIDGES|K7S1 020335Z AUTO 34010G14KT 40SM 11/M05 A3012 RMK AO1 T01061049






000
SXUS55 KMSO 020323
OSOMSO
MONTANA AWOS SUMMARY
NATIONAL WEATHER SERVICE MISSOULA MT
923 PM MDT SUN MAY 1 2016

Montana AWOS Reports

TWIN BRIDGES|K7S1 020315Z AUTO 35009KT 40SM 11/M03 A3012 RMK AO1 T01061032






000
SXUS55 KMSO 020303
OSOMSO
MONTANA AWOS SUMMARY
NATIONAL WEATHER SERVICE MISSOULA MT
903 PM MDT SUN MAY 1 2016

Montana AWOS Reports

TWIN BRIDGES|K7S1 020255Z AUTO 35006KT 40SM 11/M05 A3012 RMK AO1 T01111049
SCOBEY      |K9S2 020255Z AUTO 26007KT 40SM 13/M01 A3012 RMK AO1 T01331005
EKALAKA     |K97M 020255Z AUTO 00000KT 40SM 09/M01 A3018 RMK AO1 T00941010
LAUREL      |K6S8 020255Z AUTO 40SM 09/M03 A3019 RMK AO1 T00891032






000
SXUS55 KMSO 020303
OSOMSO
MONTANA AWOS SUMMARY
NATIONAL WEATHER SERVICE MISSOULA MT
903 PM MDT SUN MAY 1 2016

Montana AWOS Reports

TWIN BRIDGES|K7S1 020255Z AUTO 35006KT 40SM 11/M05 A3012 RMK AO1 T01111049
SCOBEY      |K9S2 020255Z AUTO 26007KT 40SM 13/M01 A3012 RMK AO1 T01331005
EKALAKA     |K97M 020255Z AUTO 00000KT 40SM 09/M01 A3018 RMK AO1 T00941010
LAUREL      |K6S8 020255Z AUTO 40SM 09/M03 A3019 RMK AO1 T00891032






000
SXUS55 KMSO 020244
OSOMSO
MONTANA AWOS SUMMARY
NATIONAL WEATHER SERVICE MISSOULA MT
843 PM MDT SUN MAY 1 2016

Montana AWOS Reports

TWIN BRIDGES|K7S1 020235Z AUTO 34008KT 40SM 12/M04 A3012 RMK AO1 T01221043






000
SXUS55 KMSO 020223
OSOMSO
MONTANA AWOS SUMMARY
NATIONAL WEATHER SERVICE MISSOULA MT
823 PM MDT SUN MAY 1 2016

Montana AWOS Reports

LAUREL      |K6S8 020215Z AUTO 00000KT 40SM 12/M01 A3018 RMK AO1 T01221005
ROUNDUP     |KRPX 020215Z AUTO 00000KT 40SM 13/01 A3011 RMK AO1 T01280006






000
SXUS55 KMSO 020213
OSOMSO
MONTANA AWOS SUMMARY
NATIONAL WEATHER SERVICE MISSOULA MT
813 PM MDT SUN MAY 1 2016

Montana AWOS Reports

LAUREL      |K6S8 020155Z AUTO 00000KT 40SM 13/M02 A3018 RMK AO1 T01331016






000
SXUS55 KMSO 020203
OSOMSO
MONTANA AWOS SUMMARY
NATIONAL WEATHER SERVICE MISSOULA MT
803 PM MDT SUN MAY 1 2016

Montana AWOS Reports

LAUREL      |K6S8 020155Z AUTO 00000KT 40SM 13/M02 A3018 RMK AO1 T01331016
ROUNDUP     |KRPX 020155Z AUTO 00000KT 40SM 14/M01 A3011 RMK AO1 T01391005
SCOBEY      |K9S2 020155Z AUTO 26007KT 40SM 17/M01 A3011 RMK AO1 T01671010
EKALAKA     |K97M 020155Z AUTO 00000KT 40SM 11/M01 A3018 RMK AO1 T01061010
PLAINS      |KS34 020155Z AUTO 00000KT 40SM 21/05 A3010 RMK AO1 T02060050
TWIN BRIDGES|K7S1 020155Z AUTO 33012G16KT 40SM 15/M04 A3011 RMK AO1 T01501038






000
SXUS55 KMSO 020203
OSOMSO
MONTANA AWOS SUMMARY
NATIONAL WEATHER SERVICE MISSOULA MT
803 PM MDT SUN MAY 1 2016

Montana AWOS Reports

LAUREL      |K6S8 020155Z AUTO 00000KT 40SM 13/M02 A3018 RMK AO1 T01331016
ROUNDUP     |KRPX 020155Z AUTO 00000KT 40SM 14/M01 A3011 RMK AO1 T01391005
SCOBEY      |K9S2 020155Z AUTO 26007KT 40SM 17/M01 A3011 RMK AO1 T01671010
EKALAKA     |K97M 020155Z AUTO 00000KT 40SM 11/M01 A3018 RMK AO1 T01061010
PLAINS      |KS34 020155Z AUTO 00000KT 40SM 21/05 A3010 RMK AO1 T02060050
TWIN BRIDGES|K7S1 020155Z AUTO 33012G16KT 40SM 15/M04 A3011 RMK AO1 T01501038






000
SXUS55 KMSO 020143
OSOMSO
MONTANA AWOS SUMMARY
NATIONAL WEATHER SERVICE MISSOULA MT
743 PM MDT SUN MAY 1 2016

Montana AWOS Reports

LAUREL      |K6S8 020135Z AUTO 00000KT 40SM 14/M01 A3018 RMK AO1 T01441010
ROUNDUP     |KRPX 020135Z AUTO 00000KT 40SM 14/00 A3011 RMK AO1 T01440000






000
SXUS55 KMSO 020123
OSOMSO
MONTANA AWOS SUMMARY
NATIONAL WEATHER SERVICE MISSOULA MT
723 PM MDT SUN MAY 1 2016

Montana AWOS Reports

LAUREL      |K6S8 020115Z AUTO 00000KT 40SM 14/M02 A3018 RMK AO1 T01441016
TWIN BRIDGES|K7S1 020115Z AUTO 33011G15KT 40SM 16/M03 A3011 RMK AO1 T01611032
ROUNDUP     |KRPX 020115Z AUTO 00000KT 40SM 15/M01 A3011 RMK AO1 T01501010






000
SXUS55 KMSO 020123
OSOMSO
MONTANA AWOS SUMMARY
NATIONAL WEATHER SERVICE MISSOULA MT
723 PM MDT SUN MAY 1 2016

Montana AWOS Reports

LAUREL      |K6S8 020115Z AUTO 00000KT 40SM 14/M02 A3018 RMK AO1 T01441016
TWIN BRIDGES|K7S1 020115Z AUTO 33011G15KT 40SM 16/M03 A3011 RMK AO1 T01611032
ROUNDUP     |KRPX 020115Z AUTO 00000KT 40SM 15/M01 A3011 RMK AO1 T01501010






000
SXUS55 KMSO 020103
OSOMSO
MONTANA AWOS SUMMARY
NATIONAL WEATHER SERVICE MISSOULA MT
703 PM MDT SUN MAY 1 2016

Montana AWOS Reports

LAUREL      |K6S8 020055Z AUTO 04004KT 40SM 15/M01 A3018 RMK AO1 T01501010
TWIN BRIDGES|K7S1 020055Z AUTO 34012G16KT 40SM 16/M03 A3011 RMK AO1 T01611032
ROUNDUP     |KRPX 020055Z AUTO 00000KT 40SM 16/M02 A3011 RMK AO1 T01561016
SCOBEY      |K9S2 020055Z AUTO 26009KT 40SM 19/M02 A3013 RMK AO1 T01891021
EKALAKA     |K97M 020055Z AUTO 34005KT 40SM 13/M03 A3018 RMK AO1 T01331027
PLAINS      |KS34 020055Z AUTO 00000KT 40SM 21/04 A3010 RMK AO1 T02060039
TWIN BRIDGES|K7S1 020055Z AUTO 34012G16KT 40SM 16/M03 A3011 RMK AO1 T01611032
LAUREL      |K6S8 020055Z AUTO 04004KT 40SM 15/M01 A3018 RMK AO1 T01501010






000
SXUS55 KMSO 020103
OSOMSO
MONTANA AWOS SUMMARY
NATIONAL WEATHER SERVICE MISSOULA MT
703 PM MDT SUN MAY 1 2016

Montana AWOS Reports

LAUREL      |K6S8 020055Z AUTO 04004KT 40SM 15/M01 A3018 RMK AO1 T01501010
TWIN BRIDGES|K7S1 020055Z AUTO 34012G16KT 40SM 16/M03 A3011 RMK AO1 T01611032
ROUNDUP     |KRPX 020055Z AUTO 00000KT 40SM 16/M02 A3011 RMK AO1 T01561016
SCOBEY      |K9S2 020055Z AUTO 26009KT 40SM 19/M02 A3013 RMK AO1 T01891021
EKALAKA     |K97M 020055Z AUTO 34005KT 40SM 13/M03 A3018 RMK AO1 T01331027
PLAINS      |KS34 020055Z AUTO 00000KT 40SM 21/04 A3010 RMK AO1 T02060039
TWIN BRIDGES|K7S1 020055Z AUTO 34012G16KT 40SM 16/M03 A3011 RMK AO1 T01611032
LAUREL      |K6S8 020055Z AUTO 04004KT 40SM 15/M01 A3018 RMK AO1 T01501010






000
SXUS55 KMSO 020043
OSOMSO
MONTANA AWOS SUMMARY
NATIONAL WEATHER SERVICE MISSOULA MT
643 PM MDT SUN MAY 1 2016

Montana AWOS Reports

LAUREL      |K6S8 020035Z AUTO 00000KT 40SM 15/M02 A3018 RMK AO1 T01501016
TWIN BRIDGES|K7S1 020035Z AUTO 32012KT 40SM 17/M03 A3012 RMK AO1 T01671027
ROUNDUP     |KRPX 020035Z AUTO 00000KT 40SM 16/M02 A3011 RMK AO1 T01561016






000
SXUS55 KMSO 020033
OSOMSO
MONTANA AWOS SUMMARY
NATIONAL WEATHER SERVICE MISSOULA MT
633 PM MDT SUN MAY 1 2016

Montana AWOS Reports

TWIN BRIDGES|K7S1 020015Z AUTO 33013G18KT 40SM 17/M03 A3012 RMK AO1 T01671027






000
SXUS55 KMSO 020023
OSOMSO
MONTANA AWOS SUMMARY
NATIONAL WEATHER SERVICE MISSOULA MT
623 PM MDT SUN MAY 1 2016

Montana AWOS Reports

LAUREL      |K6S8 020015Z AUTO 00000KT 40SM 16/M01 A3018 RMK AO1 T01561010
ROUNDUP     |KRPX 020015Z AUTO 00000KT 40SM 16/M01 A3012 RMK AO1 T01611010






000
SXUS55 KMSO 020003
OSOMSO
MONTANA AWOS SUMMARY
NATIONAL WEATHER SERVICE MISSOULA MT
603 PM MDT SUN MAY 1 2016

Montana AWOS Reports

SCOBEY      |K9S2 012355Z AUTO 00000KT 40SM 19/M01 A3014 RMK AO1 T01891010
EKALAKA     |K97M 012355Z AUTO 00000KT 40SM 14/M04 A3019 RMK AO1 T01441038






000
SXUS55 KMSO 020003
OSOMSO
MONTANA AWOS SUMMARY
NATIONAL WEATHER SERVICE MISSOULA MT
603 PM MDT SUN MAY 1 2016

Montana AWOS Reports

SCOBEY      |K9S2 012355Z AUTO 00000KT 40SM 19/M01 A3014 RMK AO1 T01891010
EKALAKA     |K97M 012355Z AUTO 00000KT 40SM 14/M04 A3019 RMK AO1 T01441038






000
SXUS55 KMSO 012344
OSOMSO
MONTANA AWOS SUMMARY
NATIONAL WEATHER SERVICE MISSOULA MT
543 PM MDT SUN MAY 1 2016

Montana AWOS Reports

TWIN BRIDGES|K7S1 012335Z AUTO 34010G16KT 40SM 17/M02 A3012 RMK AO1 T01721021






000
SXUS55 KMSO 012323
OSOMSO
MONTANA AWOS SUMMARY
NATIONAL WEATHER SERVICE MISSOULA MT
523 PM MDT SUN MAY 1 2016

Montana AWOS Reports

LAUREL      |K6S8 012315Z AUTO 00000KT 40SM 15/M02 A3019 RMK AO1 T01501021
ROUNDUP     |KRPX 012315Z AUTO 00000KT 40SM 16/M02 A3012 RMK AO1 T01611016
TWIN BRIDGES|K7S1 012315Z AUTO 35007KT 40SM 17/M02 A3013 RMK AO1 T01721021






000
SXUS55 KMSO 012313
OSOMSO
MONTANA AWOS SUMMARY
NATIONAL WEATHER SERVICE MISSOULA MT
513 PM MDT SUN MAY 1 2016

Montana AWOS Reports

LAUREL      |K6S8 012255Z AUTO 06007KT 40SM 16/M01 A3020 RMK AO1 T01561010






000
SXUS55 KMSO 012303
OSOMSO
MONTANA AWOS SUMMARY
NATIONAL WEATHER SERVICE MISSOULA MT
502 PM MDT SUN MAY 1 2016

Montana AWOS Reports

LAUREL      |K6S8 012255Z AUTO 06007KT 40SM 16/M01 A3020 RMK AO1 T01561010
ROUNDUP     |KRPX 012255Z AUTO 00000KT 40SM 16/M02 A3013 RMK AO1 T01561021
PLAINS      |KS34 012255Z AUTO 03006KT 40SM 21/05 A3013 RMK AO1 T02110050






000
SXUS55 KMSO 012303
OSOMSO
MONTANA AWOS SUMMARY
NATIONAL WEATHER SERVICE MISSOULA MT
502 PM MDT SUN MAY 1 2016

Montana AWOS Reports

LAUREL      |K6S8 012255Z AUTO 06007KT 40SM 16/M01 A3020 RMK AO1 T01561010
ROUNDUP     |KRPX 012255Z AUTO 00000KT 40SM 16/M02 A3013 RMK AO1 T01561021
PLAINS      |KS34 012255Z AUTO 03006KT 40SM 21/05 A3013 RMK AO1 T02110050






000
SXUS55 KMSO 012243
OSOMSO
MONTANA AWOS SUMMARY
NATIONAL WEATHER SERVICE MISSOULA MT
443 PM MDT SUN MAY 1 2016

Montana AWOS Reports

TWIN BRIDGES|K7S1 012235Z AUTO 34008KT 40SM 17/M03 A3013 RMK AO1 T01671027






000
SXUS55 KMSO 012223
OSOMSO
MONTANA AWOS SUMMARY
NATIONAL WEATHER SERVICE MISSOULA MT
422 PM MDT SUN MAY 1 2016

Montana AWOS Reports

LAUREL      |K6S8 012215Z AUTO 03005KT 40SM 15/M02 A3020 RMK AO1 T01501016
TWIN BRIDGES|K7S1 012215Z AUTO 33012G16KT 40SM 17/M03 A3014 RMK AO1 T01671027
ROUNDUP     |KRPX 012215Z AUTO 00000KT 40SM 16/M01 A3013 RMK AO1 T01611005






000
SXUS55 KMSO 012213
OSOMSO
MONTANA AWOS SUMMARY
NATIONAL WEATHER SERVICE MISSOULA MT
413 PM MDT SUN MAY 1 2016

Montana AWOS Reports

EKALAKA     |K97M 012155Z AUTO VRB06KT 40SM 15/M03 A3021 RMK AO1 T01501032






000
SXUS55 KMSO 012213
OSOMSO
MONTANA AWOS SUMMARY
NATIONAL WEATHER SERVICE MISSOULA MT
413 PM MDT SUN MAY 1 2016

Montana AWOS Reports

EKALAKA     |K97M 012155Z AUTO VRB06KT 40SM 15/M03 A3021 RMK AO1 T01501032






000
SXUS55 KMSO 012203
OSOMSO
MONTANA AWOS SUMMARY
NATIONAL WEATHER SERVICE MISSOULA MT
402 PM MDT SUN MAY 1 2016

Montana AWOS Reports

LAUREL      |K6S8 012155Z AUTO 00000KT 40SM 15/M01 A3020 RMK AO1 T01501010
ROUNDUP     |KRPX 012155Z AUTO 00000KT 40SM 16/M02 A3014 RMK AO1 T01561016
PLAINS      |KS34 012155Z AUTO 00000KT 40SM 21/05 A3014 RMK AO1 T02060050
TWIN BRIDGES|K7S1 012155Z AUTO 33010G15KT 40SM 16/M03 A3015 RMK AO1 T01611032
SCOBEY      |K9S2 012155Z AUTO 30006KT 40SM 19/M04 A3017 RMK AO1 T01941043






000
SXUS55 KMSO 012143
OSOMSO
MONTANA AWOS SUMMARY
NATIONAL WEATHER SERVICE MISSOULA MT
343 PM MDT SUN MAY 1 2016

Montana AWOS Reports

LAUREL      |K6S8 012135Z AUTO 00000KT 40SM 15/M01 A3021 RMK AO1 T01501010
TWIN BRIDGES|K7S1 012135Z AUTO 36007KT 40SM 16/M03 A3015 RMK AO1 T01561032
ROUNDUP     |KRPX 012135Z AUTO 00000KT 40SM 16/M02 A3014 RMK AO1 T01561016






000
SXUS55 KMSO 012123
OSOMSO
MONTANA AWOS SUMMARY
NATIONAL WEATHER SERVICE MISSOULA MT
322 PM MDT SUN MAY 1 2016

Montana AWOS Reports

LAUREL      |K6S8 012115Z AUTO 06005KT 40SM 14/M02 A3021 RMK AO1 T01441016
TWIN BRIDGES|K7S1 012115Z AUTO 16007KT 070V250 40SM 16/M03 A3016 RMK AO1 T01561032
ROUNDUP     |KRPX 012115Z AUTO 00000KT 40SM 15/M02 A3015 RMK AO1 T01501021






000
SXUS55 KMSO 012113
OSOMSO
MONTANA AWOS SUMMARY
NATIONAL WEATHER SERVICE MISSOULA MT
313 PM MDT SUN MAY 1 2016

Montana AWOS Reports

LAUREL      |K6S8 012055Z AUTO 03004KT 40SM 15/M02 A3021 RMK AO1 T01501016
PLAINS      |KS34 012055Z AUTO 00000KT 40SM 19/03 A3016 RMK AO1 T01940033
EKALAKA     |K97M 012055Z AUTO 00000KT 40SM 14/M03 A3022 RMK AO1 T01441027






000
SXUS55 KMSO 012113
OSOMSO
MONTANA AWOS SUMMARY
NATIONAL WEATHER SERVICE MISSOULA MT
313 PM MDT SUN MAY 1 2016

Montana AWOS Reports

LAUREL      |K6S8 012055Z AUTO 03004KT 40SM 15/M02 A3021 RMK AO1 T01501016
PLAINS      |KS34 012055Z AUTO 00000KT 40SM 19/03 A3016 RMK AO1 T01940033
EKALAKA     |K97M 012055Z AUTO 00000KT 40SM 14/M03 A3022 RMK AO1 T01441027






000
SXUS55 KMSO 012103
OSOMSO
MONTANA AWOS SUMMARY
NATIONAL WEATHER SERVICE MISSOULA MT
302 PM MDT SUN MAY 1 2016

Montana AWOS Reports

SCOBEY      |K9S2 012055Z AUTO 24004KT 40SM 19/M02 A3019 RMK AO1 T01941021
TWIN BRIDGES|K7S1 012055Z AUTO 34006KT 40SM 15/M03 A3016 RMK AO1 T01501032






000
SXUS55 KMSO 012053
OSOMSO
MONTANA AWOS SUMMARY
NATIONAL WEATHER SERVICE MISSOULA MT
252 PM MDT SUN MAY 1 2016

Montana AWOS Reports

TWIN BRIDGES|K7S1 012035Z AUTO 34009G13KT 40SM 15/M03 A3017 RMK AO1 T01501032






000
SXUS55 KMSO 012043
OSOMSO
MONTANA AWOS SUMMARY
NATIONAL WEATHER SERVICE MISSOULA MT
243 PM MDT SUN MAY 1 2016

Montana AWOS Reports

LAUREL      |K6S8 012035Z AUTO 00000KT 40SM 14/M02 A3022 RMK AO1 T01441016
ROUNDUP     |KRPX 012035Z AUTO 00000KT 40SM 15/M03 A3016 RMK AO1 T01501027






000
SXUS55 KMSO 012024
OSOMSO
MONTANA AWOS SUMMARY
NATIONAL WEATHER SERVICE MISSOULA MT
223 PM MDT SUN MAY 1 2016

Montana AWOS Reports

LAUREL      |K6S8 012015Z AUTO 08004KT 40SM 14/M02 A3023 RMK AO1 T01441021
TWIN BRIDGES|K7S1 012015Z AUTO 34007KT 40SM 14/M03 A3017 RMK AO1 T01441032
ROUNDUP     |KRPX 012015Z AUTO 00000KT 40SM 14/M02 A3016 RMK AO1 T01441016






000
SXUS55 KMSO 012013
OSOMSO
MONTANA AWOS SUMMARY
NATIONAL WEATHER SERVICE MISSOULA MT
213 PM MDT SUN MAY 1 2016

Montana AWOS Reports

LAUREL      |K6S8 011955Z AUTO 00000KT 40SM 14/M02 A3023 RMK AO1 T01441016






000
SXUS55 KMSO 012003
OSOMSO
MONTANA AWOS SUMMARY
NATIONAL WEATHER SERVICE MISSOULA MT
203 PM MDT SUN MAY 1 2016

Montana AWOS Reports

LAUREL      |K6S8 011955Z AUTO 00000KT 40SM 14/M02 A3023 RMK AO1 T01441016
ROUNDUP     |KRPX 011955Z AUTO 00000KT 40SM 14/M02 A3017 RMK AO1 T01441021
PLAINS      |KS34 011955Z AUTO 00000KT 40SM 19/04 A3018 RMK AO1 T01890044
TWIN BRIDGES|K7S1 011955Z AUTO 36011G15KT 40SM 14/M03 A3018 RMK AO1 T01441032
SCOBEY      |K9S2 011955Z AUTO 00000KT 40SM 18/M03 A3021 RMK AO1 T01831027
EKALAKA     |K97M 011955Z AUTO 36007KT 5SM HZ 14/M02 A3023 RMK AO1 T01391021






000
SXUS55 KMSO 012003
OSOMSO
MONTANA AWOS SUMMARY
NATIONAL WEATHER SERVICE MISSOULA MT
203 PM MDT SUN MAY 1 2016

Montana AWOS Reports

LAUREL      |K6S8 011955Z AUTO 00000KT 40SM 14/M02 A3023 RMK AO1 T01441016
ROUNDUP     |KRPX 011955Z AUTO 00000KT 40SM 14/M02 A3017 RMK AO1 T01441021
PLAINS      |KS34 011955Z AUTO 00000KT 40SM 19/04 A3018 RMK AO1 T01890044
TWIN BRIDGES|K7S1 011955Z AUTO 36011G15KT 40SM 14/M03 A3018 RMK AO1 T01441032
SCOBEY      |K9S2 011955Z AUTO 00000KT 40SM 18/M03 A3021 RMK AO1 T01831027
EKALAKA     |K97M 011955Z AUTO 36007KT 5SM HZ 14/M02 A3023 RMK AO1 T01391021






000
SXUS55 KMSO 011943
OSOMSO
MONTANA AWOS SUMMARY
NATIONAL WEATHER SERVICE MISSOULA MT
142 PM MDT SUN MAY 1 2016

Montana AWOS Reports

LAUREL      |K6S8 011935Z AUTO 06004KT 40SM 14/M02 A3024 RMK AO1 T01441021
TWIN BRIDGES|K7S1 011935Z AUTO 36009G16KT 40SM 14/M03 A3019 RMK AO1 T01391027
ROUNDUP     |KRPX 011935Z AUTO 00000KT 40SM 14/M02 A3017 RMK AO1 T01391021






000
SXUS55 KMSO 011923
OSOMSO
MONTANA AWOS SUMMARY
NATIONAL WEATHER SERVICE MISSOULA MT
123 PM MDT SUN MAY 1 2016

Montana AWOS Reports

LAUREL      |K6S8 011915Z AUTO 00000KT 40SM 14/M02 A3025 RMK AO1 T01391021
ROUNDUP     |KRPX 011915Z AUTO 01005KT 40SM 14/M02 A3018 RMK AO1 T01441016
TWIN BRIDGES|K7S1 011915Z AUTO 32011G17KT 40SM 13/M03 A3019 RMK AO1 T01331032






000
SXUS55 KMSO 011913
OSOMSO
MONTANA AWOS SUMMARY
NATIONAL WEATHER SERVICE MISSOULA MT
112 PM MDT SUN MAY 1 2016

Montana AWOS Reports

SCOBEY      |K9S2 011855Z AUTO 28004KT 40SM 17/M05 A3023 RMK AO1 T01721049
EKALAKA     |K97M 011855Z AUTO 36006KT 40SM 13/M03 A3025 RMK AO1 T01281032






000
SXUS55 KMSO 011903
OSOMSO
MONTANA AWOS SUMMARY
NATIONAL WEATHER SERVICE MISSOULA MT
103 PM MDT SUN MAY 1 2016

Montana AWOS Reports

LAUREL      |K6S8 011855Z AUTO 00000KT 40SM 14/M02 A3026 RMK AO1 T01391021
ROUNDUP     |KRPX 011855Z AUTO 00000KT 40SM 13/M03 A3018 RMK AO1 T01331027






000
SXUS55 KMSO 011844
OSOMSO
MONTANA AWOS SUMMARY
NATIONAL WEATHER SERVICE MISSOULA MT
1243 PM MDT SUN MAY 1 2016

Montana AWOS Reports

TWIN BRIDGES|K7S1 011835Z AUTO 30008KT 270V330 40SM 13/M03 A3021 RMK AO1 T01281032






000
SXUS55 KMSO 011823
OSOMSO
MONTANA AWOS SUMMARY
NATIONAL WEATHER SERVICE MISSOULA MT
1223 PM MDT SUN MAY 1 2016

Montana AWOS Reports

LAUREL      |K6S8 011815Z AUTO 00000KT 40SM 13/M02 A3027 RMK AO1 T01331021
TWIN BRIDGES|K7S1 011815Z AUTO 31007KT 40SM 12/M04 A3021 RMK AO1 T01221038
ROUNDUP     |KRPX 011815Z AUTO 03004KT 40SM 14/M02 A3020 RMK AO1 T01391021






000
SXUS55 KMSO 011823
OSOMSO
MONTANA AWOS SUMMARY
NATIONAL WEATHER SERVICE MISSOULA MT
1223 PM MDT SUN MAY 1 2016

Montana AWOS Reports

LAUREL      |K6S8 011815Z AUTO 00000KT 40SM 13/M02 A3027 RMK AO1 T01331021
TWIN BRIDGES|K7S1 011815Z AUTO 31007KT 40SM 12/M04 A3021 RMK AO1 T01221038
ROUNDUP     |KRPX 011815Z AUTO 03004KT 40SM 14/M02 A3020 RMK AO1 T01391021






000
SXUS55 KMSO 011814
OSOMSO
MONTANA AWOS SUMMARY
NATIONAL WEATHER SERVICE MISSOULA MT
1213 PM MDT SUN MAY 1 2016

Montana AWOS Reports

LAUREL      |K6S8 011755Z AUTO 01004KT 40SM 13/M02 A3027 RMK AO1 T01331021
EKALAKA     |K97M 011755Z AUTO 33005KT 40SM 12/M02 A3027 RMK AO1 T01221021






000
SXUS55 KMSO 011803
OSOMSO
MONTANA AWOS SUMMARY
NATIONAL WEATHER SERVICE MISSOULA MT
1203 PM MDT SUN MAY 1 2016

Montana AWOS Reports

TWIN BRIDGES|K7S1 011755Z AUTO 33010G16KT 40SM 12/M04 A3021 RMK AO1 T01221038
ROUNDUP     |KRPX 011755Z AUTO 00000KT 40SM 14/M02 A3020 RMK AO1 T01391016
PLAINS      |KS34 011755Z AUTO 00000KT 25SM 16/05 A3023 RMK AO1 T01560050
SCOBEY      |K9S2 011755Z AUTO 00000KT 40SM 17/M03 A3026 RMK AO1 T01671032






000
SXUS55 KMSO 011743
OSOMSO
MONTANA AWOS SUMMARY
NATIONAL WEATHER SERVICE MISSOULA MT
1143 AM MDT SUN MAY 1 2016

Montana AWOS Reports

LAUREL      |K6S8 011735Z AUTO 01006KT 40SM 13/M03 A3028 RMK AO1 T01331027
TWIN BRIDGES|K7S1 011735Z AUTO 32006KT 40SM 12/M03 A3022 RMK AO1 T01171032
ROUNDUP     |KRPX 011735Z AUTO 04006KT 40SM 14/M02 A3021 RMK AO1 T01391016






000
SXUS55 KMSO 011733
OSOMSO
MONTANA AWOS SUMMARY
NATIONAL WEATHER SERVICE MISSOULA MT
1133 AM MDT SUN MAY 1 2016

Montana AWOS Reports

TWIN BRIDGES|K7S1 011715Z AUTO 29004KT 40SM 11/M03 A3022 RMK AO1 T01111027






    US Dept of Commerce
    National Oceanic and Atmospheric Administration
    National Weather Service
    1325 East West Highway
    Silver Spring, MD 20910
    Page Author: NWS Internet Services Team
Disclaimer
Information Quality
Credits
Glossary
Privacy Policy
Freedom of Information Act (FOIA)
About Us
Career Opportunities